MT231 / G-TCDD 7700 Squawk Report (25th of May, 2019)

Aircraft A321 Reg No. G-TCDD Age 5 years old
Model A321 Jet engines 2 First flight 20-03-14
Registered 26-03-14 Rollout 03-14 Delivered 26-03-14
Construction No. 6038 Line No. N/A Series 211(SL)
ADSHEX 406ADD Airline name Thomas Cook Airlines Owner Thomas Cook Group
Airfield based Manchester International~Gtr Mcr~G First tracked 2017-07-13 05:17:00

Flight history for G-TCDD

Route Flight No Date Playback
Dalaman (DLM) - Newcastle (NCL) MT491 2019-06-26 23:09:00
Newcastle (NCL) - Dalaman (DLM) MT336 2019-06-26 19:13:00
Ibiza (IBZ) - Newcastle (NCL) MT1657 2019-06-26 13:37:00
Newcastle (NCL) - Ibiza (IBZ) MT1656 2019-06-26 09:43:00
Nikos Kazantzakis (HER) - Newcastle (NCL) MT1115 2019-06-26 05:33:00
Newcastle (NCL) - Nikos Kazantzakis (HER) MT1114 2019-06-25 17:52:00
Son Sant Joan (PMI) - Newcastle (NCL) MT1367 2019-06-25 13:58:00
Newcastle (NCL) - Son Sant Joan (PMI) MT1366 2019-06-25 07:53:00
Dalaman (DLM) - Newcastle (NCL) MT491 2019-06-25 04:27:00
Newcastle (NCL) - Dalaman (DLM) MT336 2019-06-24 20:22:00
Ioannis Kapodistrias Intl (CFU) - Newcastle (NCL) MT1627 2019-06-24 13:40:00
Newcastle (NCL) - Ioannis Kapodistrias Intl (CFU) MT1626 2019-06-24 10:30:00
???? N/A 2019-06-24 06:00:00
Newcastle (NCL) - Dalaman (DLM) MT490 2019-06-23 21:17:00
Arrecife Airport (ACE) - Newcastle (NCL) MT1371 2019-06-23 15:39:00
Newcastle (NCL) - Arrecife Airport (ACE) MT1370 2019-06-23 12:03:00
Birmingham (BHX) - Gran Canaria (LPA) MT1404 2019-06-23 06:11:00
Newcastle (NCL) - Larnaca International Airport (LCA) MT1108 2019-06-22 21:27:00
Fuerteventura (FUE) - Newcastle (NCL) MT1335 2019-06-22 16:59:00
Newcastle (NCL) - Fuerteventura (FUE) MT1334 2019-06-22 10:10:00
Time Lat Lon Altitude Heading Speed Vertical Rate
2019-05-26 00:22:24 GMT 53.356155 -2.270011 200 231 132 -640
2019-05-26 00:22:19 GMT 53.358078 -2.266087 175 232 134 0
2019-05-26 00:22:08 GMT 53.363434 -2.254865 300 232 135 -768
2019-05-26 00:22:01 GMT 53.365036 -2.251648 350 231 134 -640
2019-05-26 00:21:58 GMT 53.366043 -2.249529 400 232 133 -704
2019-05-26 00:21:52 GMT 53.368332 -2.244821 450 231 132 -768
2019-05-26 00:21:46 GMT 53.370838 -2.239595 550 231 132 -704
2019-05-26 00:21:43 GMT 53.371994 -2.237130 575 231 132 -704
2019-05-26 00:21:38 GMT 53.374050 -2.232971 625 231 132 -768
2019-05-26 00:21:35 GMT 53.374840 -2.231356 650 231 132 -704
2019-05-26 00:21:32 GMT 53.375977 -2.228969 700 231 132 -768
2019-05-26 00:21:26 GMT 53.378937 -2.222954 800 232 133 -704
2019-05-26 00:21:22 GMT 53.380096 -2.220494 825 232 133 -640
2019-05-26 00:21:18 GMT 53.381779 -2.216976 875 232 132 -640
2019-05-26 00:21:15 GMT 53.382710 -2.215038 925 231 132 -704
2019-05-26 00:21:12 GMT 53.384106 -2.212129 950 231 132 -704
2019-05-26 00:21:08 GMT 53.385593 -2.209060 975 232 133 -768
2019-05-26 00:21:05 GMT 53.386734 -2.206761 1,000 232 133 -832
2019-05-26 00:21:02 GMT 53.387741 -2.204721 1,025 232 133 -832
2019-05-26 00:20:59 GMT 53.389069 -2.201896 1,100 232 134 -704
2019-05-26 00:20:56 GMT 53.390297 -2.199285 1,150 232 134 -704
2019-05-26 00:20:52 GMT 53.391769 -2.196245 1,200 232 134 -704
2019-05-26 00:20:48 GMT 53.393600 -2.192419 1,250 232 134 -704
2019-05-26 00:20:45 GMT 53.394562 -2.190438 1,275 232 135 -704
2019-05-26 00:20:41 GMT 53.395836 -2.187733 1,300 232 135 -704
2019-05-26 00:20:35 GMT 53.398636 -2.182042 1,400 232 135 -768
2019-05-26 00:20:32 GMT 53.399597 -2.180001 1,425 232 135 -768
2019-05-26 00:20:27 GMT 53.401608 -2.175858 1,475 231 136 -768
2019-05-26 00:20:24 GMT 53.402756 -2.173410 1,525 231 136 -768
2019-05-26 00:20:21 GMT 53.403797 -2.171335 1,550 232 137 -704
2019-05-26 00:20:17 GMT 53.405777 -2.167210 1,625 232 138 -768
2019-05-26 00:20:12 GMT 53.407753 -2.163095 1,675 232 139 -576
2019-05-26 00:20:09 GMT 53.408936 -2.160540 1,725 232 139 -768
2019-05-26 00:20:05 GMT 53.410629 -2.157087 1,800 232 140 -768
2019-05-26 00:20:02 GMT 53.411636 -2.154968 1,825 232 140 -768
2019-05-26 00:19:57 GMT 53.413788 -2.150495 1,875 231 142 -832
2019-05-26 00:19:54 GMT 53.415016 -2.147908 1,900 231 144 -832
2019-05-26 00:19:51 GMT 53.416039 -2.145808 1,950 231 144 -832
2019-05-26 00:19:47 GMT 53.417999 -2.141785 2,000 232 145 -832
2019-05-26 00:19:44 GMT 53.419437 -2.138780 2,050 232 145 -832
2019-05-26 00:19:37 GMT 53.422211 -2.133074 2,150 232 145 -832
2019-05-26 00:19:34 GMT 53.424728 -2.127816 2,200 232 144 -832
2019-05-26 00:19:31 GMT 53.424728 -2.127816 2,225 232 144 -832
2019-05-26 00:19:26 GMT 53.426514 -2.124128 2,275 232 144 -768
2019-05-26 00:19:23 GMT 53.428116 -2.120754 2,325 232 143 -768
2019-05-26 00:19:20 GMT 53.429123 -2.118635 2,350 232 143 -768
2019-05-26 00:19:17 GMT 53.430908 -2.114868 2,425 232 144 -768
2019-05-26 00:19:14 GMT 53.431961 -2.112768 2,450 232 145 -768
2019-05-26 00:19:11 GMT 53.435028 -2.106315 2,525 233 146 -768
2019-05-26 00:19:06 GMT 53.435028 -2.106315 2,550 232 146 -768
2019-05-26 00:19:01 GMT 53.437176 -2.101782 2,600 233 146 -768
2019-05-26 00:18:56 GMT 53.439331 -2.097055 2,675 233 149 -768
2019-05-26 00:18:53 GMT 53.440659 -2.094230 2,700 233 149 -768
2019-05-26 00:18:50 GMT 53.441666 -2.091954 2,725 233 149 -704
2019-05-26 00:18:46 GMT 53.443451 -2.088030 2,800 233 152 -576
2019-05-26 00:18:41 GMT 53.445507 -2.083525 2,850 234 153 -448
2019-05-26 00:18:38 GMT 53.447044 -2.080051 2,875 234 155 -320
2019-05-26 00:18:34 GMT 53.448624 -2.076494 2,875 234 158 -320
2019-05-26 00:18:31 GMT 53.451607 -2.069873 2,900 234 163 -256
2019-05-26 00:18:28 GMT 53.451607 -2.069873 2,925 234 164 -256
2019-05-26 00:18:25 GMT 53.452492 -2.067772 2,925 234 164 -256
2019-05-26 00:18:21 GMT 53.454536 -2.063087 2,950 236 164 -256
2019-05-26 00:18:16 GMT 53.457050 -2.056786 2,975 241 163 -256
2019-05-26 00:18:13 GMT 53.458191 -2.053423 3,000 245 162 -320
2019-05-26 00:18:10 GMT 53.458694 -2.051697 3,000 248 161 -320
2019-05-26 00:18:05 GMT 53.460079 -2.045961 3,150 289 181 -960
2019-05-26 00:18:01 GMT 53.460846 -2.039926 3,050 262 158 -384
2019-05-26 00:17:55 GMT 53.461243 -2.033198 3,100 265 157 -320
2019-05-26 00:17:50 GMT 53.461578 -2.027134 3,125 266 158 -320
2019-05-26 00:17:47 GMT 53.461754 -2.023423 3,150 267 158 -320
2019-05-26 00:17:43 GMT 53.461945 -2.017639 3,150 269 160 -320
2019-05-26 00:17:40 GMT 53.462032 -2.014537 3,175 271 161 -320
2019-05-26 00:17:35 GMT 53.461990 -2.008379 3,400 289 181 -960
2019-05-26 00:17:30 GMT 53.461380 -2.002016 3,225 285 166 -512
2019-05-26 00:17:27 GMT 53.460823 -1.998865 3,275 289 171 -448
2019-05-26 00:17:23 GMT 53.459801 -1.993776 3,400 289 181 -960
2019-05-26 00:17:20 GMT 53.459015 -1.989859 3,325 289 176 -768
2019-05-26 00:17:17 GMT 53.458218 -1.985860 3,350 289 178 -832
2019-05-26 00:17:14 GMT 53.457191 -1.980770 3,400 289 181 -960
2019-05-26 00:17:10 GMT 53.456261 -1.976166 3,450 289 182 -1088
2019-05-26 00:17:04 GMT 53.454758 -1.968593 3,600 289 184 -1088
2019-05-26 00:17:00 GMT 53.453606 -1.962756 3,650 289 186 -1024
2019-05-26 00:16:54 GMT 53.451977 -1.954355 3,750 288 188 -1472
2019-05-26 00:16:49 GMT 53.450768 -1.948377 3,875 289 188 -1792
2019-05-26 00:16:43 GMT 53.449093 -1.940056 4,050 290 188 -2304
2019-05-26 00:16:40 GMT 53.447929 -1.934402 4,225 290 187 -2496
2019-05-26 00:16:34 GMT 53.446068 -1.925677 4,475 290 185 -2304
2019-05-26 00:16:31 GMT 53.445507 -1.922931 4,600 290 184 -2176
2019-05-26 00:16:28 GMT 53.444622 -1.918811 4,875 290 187 -1536
2019-05-26 00:16:23 GMT 53.443226 -1.912187 4,850 290 187 -1600
2019-05-26 00:16:20 GMT 53.441437 -1.903460 4,950 290 188 -1664
2019-05-26 00:16:17 GMT 53.441437 -1.903460 5,150 290 189 -2048
2019-05-26 00:16:13 GMT 53.440338 -1.898373 5,125 290 189 -1664
2019-05-26 00:16:10 GMT 53.439362 -1.893768 5,275 290 190 -1344
2019-05-26 00:16:04 GMT 53.437637 -1.885960 5,350 291 192 -1216
2019-05-26 00:16:01 GMT 53.436584 -1.881095 5,425 291 195 -1216
2019-05-26 00:15:58 GMT 53.435760 -1.877407 5,475 291 195 -1216
2019-05-26 00:15:54 GMT 53.434570 -1.871835 5,625 290 202 -832
2019-05-26 00:15:51 GMT 53.433517 -1.867048 5,625 290 202 -832
2019-05-26 00:15:48 GMT 53.431503 -1.857710 5,725 290 205 -832
2019-05-26 00:15:45 GMT 53.431503 -1.857710 5,725 290 207 -832
2019-05-26 00:15:42 GMT 53.430565 -1.853458 5,750 290 207 -832
2019-05-26 00:15:39 GMT 53.429726 -1.849500 5,775 290 209 -832
2019-05-26 00:15:36 GMT 53.428711 -1.844840 5,800 290 214 -384
2019-05-26 00:15:33 GMT 53.427658 -1.839975 5,900 290 213 -576
2019-05-26 00:15:30 GMT 53.426285 -1.833697 5,925 290 214 -448
2019-05-26 00:15:27 GMT 53.425674 -1.830920 5,925 290 214 -384
2019-05-26 00:15:24 GMT 53.424557 -1.825669 5,950 290 216 -320
2019-05-26 00:15:18 GMT 53.422806 -1.817374 5,975 290 218 -192
2019-05-26 00:15:15 GMT 53.421432 -1.811096 6,000 290 218 -64
2019-05-26 00:15:12 GMT 53.420368 -1.805958 6,000 290 219 0
2019-05-26 00:15:08 GMT 53.419281 -1.800973 6,000 290 219 0
2019-05-26 00:15:04 GMT 53.417496 -1.792576 6,000 290 219 0
2019-05-26 00:15:01 GMT 53.416969 -1.790044 6,000 290 219 -64
2019-05-26 00:14:57 GMT 53.415344 -1.782610 6,000 290 220 0
2019-05-26 00:14:54 GMT 53.414566 -1.778843 6,000 290 220 0
2019-05-26 00:14:51 GMT 53.413376 -1.773272 6,000 290 220 0
2019-05-26 00:14:48 GMT 53.412270 -1.768153 6,000 290 220 0
2019-05-26 00:14:45 GMT 53.411224 -1.763384 6,000 290 220 0
2019-05-26 00:14:42 GMT 53.410263 -1.758911 6,000 290 219 -64
2019-05-26 00:14:39 GMT 53.409119 -1.753496 6,000 290 219 -64
2019-05-26 00:14:36 GMT 53.408203 -1.749259 6,000 290 219 -64
2019-05-26 00:14:33 GMT 53.407192 -1.744564 6,000 290 219 -64
2019-05-26 00:14:30 GMT 53.404999 -1.734349 6,025 290 218 -64
2019-05-26 00:14:27 GMT 53.404999 -1.734349 6,025 290 218 -64
2019-05-26 00:14:24 GMT 53.404083 -1.730033 6,025 290 217 -64
2019-05-26 00:14:20 GMT 53.402710 -1.723755 6,025 290 216 -64
2019-05-26 00:14:17 GMT 53.401794 -1.719441 6,025 290 216 -64
2019-05-26 00:14:13 GMT 53.400585 -1.713625 6,025 290 217 -192
2019-05-26 00:14:10 GMT 53.399414 -1.707982 6,050 289 218 -512
2019-05-26 00:14:07 GMT 53.398491 -1.703527 6,175 290 220 -704
2019-05-26 00:14:03 GMT 53.397232 -1.697630 6,100 290 221 -832
2019-05-26 00:13:59 GMT 53.394928 -1.686244 6,475 289 225 -832
2019-05-26 00:13:53 GMT 53.393555 -1.679574 6,275 289 227 -832
2019-05-26 00:13:50 GMT 53.392685 -1.675415 6,350 289 228 -832
2019-05-26 00:13:47 GMT 53.391693 -1.670487 6,350 289 228 -768
2019-05-26 00:13:43 GMT 53.390388 -1.664025 6,375 287 248 -704
2019-05-26 00:13:40 GMT 53.389343 -1.658857 6,450 289 234 -576
2019-05-26 00:13:37 GMT 53.388294 -1.653523 6,475 289 233 -576
2019-05-26 00:13:34 GMT 53.387238 -1.648420 6,500 289 234 -576
2019-05-26 00:13:31 GMT 53.384850 -1.636236 6,525 289 235 -576
2019-05-26 00:13:28 GMT 53.384850 -1.636236 6,550 289 236 -576
2019-05-26 00:13:25 GMT 53.383942 -1.631627 6,600 289 237 -576
2019-05-26 00:13:22 GMT 53.383255 -1.628252 6,600 289 237 -576
2019-05-26 00:13:19 GMT 53.382057 -1.622180 6,650 288 243 -640
2019-05-26 00:13:16 GMT 53.381104 -1.617188 6,650 288 241 -576
2019-05-26 00:13:13 GMT 53.379684 -1.609889 6,675 288 243 -640
2019-05-26 00:13:09 GMT 53.378799 -1.605296 6,725 288 245 -704
2019-05-26 00:13:06 GMT 53.377625 -1.598982 6,775 288 246 -704
2019-05-26 00:13:02 GMT 53.376297 -1.592076 6,825 288 248 -768
2019-05-26 00:12:59 GMT 53.374969 -1.585013 6,850 288 249 -768
2019-05-26 00:12:56 GMT 53.374283 -1.581325 7,025 286 253 -1152
2019-05-26 00:12:53 GMT 53.373047 -1.574890 6,925 288 251 -704
2019-05-26 00:12:50 GMT 53.370941 -1.563590 6,975 288 252 -576
2019-05-26 00:12:47 GMT 53.370941 -1.563590 7,000 288 252 -320
2019-05-26 00:12:43 GMT 53.369629 -1.556343 7,025 288 252 -64
2019-05-26 00:12:39 GMT 53.368195 -1.548601 7,025 287 251 -64
2019-05-26 00:12:36 GMT 53.367371 -1.543971 7,025 287 251 -128
2019-05-26 00:12:33 GMT 53.366230 -1.537844 7,075 287 248 -704
2019-05-26 00:12:30 GMT 53.365112 -1.531623 7,050 287 248 -256
2019-05-26 00:12:27 GMT 53.363388 -1.522234 7,050 287 248 -448
2019-05-26 00:12:21 GMT 53.361282 -1.510542 7,125 287 249 -896
2019-05-26 00:12:18 GMT 53.361282 -1.510542 7,125 287 250 -1152
2019-05-26 00:12:15 GMT 53.360092 -1.503714 7,175 287 250 -1344
2019-05-26 00:12:11 GMT 53.358921 -1.497210 7,225 287 250 -1408
2019-05-26 00:12:08 GMT 53.357895 -1.491152 7,350 286 252 -1472
2019-05-26 00:12:05 GMT 53.356750 -1.484331 7,400 286 252 -1344
2019-05-26 00:12:02 GMT 53.356155 -1.480722 7,475 286 252 -1280
2019-05-26 00:11:59 GMT 53.354076 -1.468371 7,575 286 253 -1088
2019-05-26 00:11:56 GMT 53.353287 -1.463686 7,625 286 254 -1024
2019-05-26 00:11:53 GMT 53.353287 -1.463686 7,625 286 254 -960
2019-05-26 00:11:50 GMT 53.351852 -1.455218 7,700 286 256 -896
2019-05-26 00:11:47 GMT 53.351028 -1.450274 7,750 286 257 -896
2019-05-26 00:11:44 GMT 53.349152 -1.438895 7,800 286 258 -960
2019-05-26 00:11:41 GMT 53.349152 -1.438895 7,825 286 259 -1024
2019-05-26 00:11:38 GMT 53.348351 -1.434281 7,900 286 260 -1216
2019-05-26 00:11:35 GMT 53.347515 -1.429273 7,950 286 261 -1280
2019-05-26 00:11:32 GMT 53.346397 -1.422568 7,975 286 261 -1344
2019-05-26 00:11:29 GMT 53.345512 -1.417398 8,025 286 263 -1344
2019-05-26 00:11:26 GMT 53.344482 -1.411351 8,150 287 264 -1280
2019-05-26 00:11:23 GMT 53.343155 -1.403739 8,200 287 264 -1152
2019-05-26 00:11:20 GMT 53.342422 -1.399501 9,625 314 295 -1152
2019-05-26 00:11:17 GMT 53.341415 -1.393648 9,625 314 295 -1152
2019-05-26 00:11:14 GMT 53.340317 -1.387652 8,325 287 267 -768
2019-05-26 00:11:11 GMT 53.339413 -1.382581 8,350 288 269 -768
2019-05-26 00:11:08 GMT 53.338348 -1.376901 8,400 289 270 -768
2019-05-26 00:11:05 GMT 53.336517 -1.368033 8,450 298 272 -1216
2019-05-26 00:11:00 GMT 53.334503 -1.360107 8,500 298 272 -1216
2019-05-26 00:10:57 GMT 53.332710 -1.354469 8,600 305 274 -1728
2019-05-26 00:10:54 GMT 53.330475 -1.348653 8,650 309 275 -1792
2019-05-26 00:10:51 GMT 53.328094 -1.343628 8,750 313 278 -1536
2019-05-26 00:10:48 GMT 53.325634 -1.339040 8,875 314 281 -1152
2019-05-26 00:10:44 GMT 53.322098 -1.332799 8,950 314 285 -960
2019-05-26 00:10:41 GMT 53.319168 -1.327619 8,975 314 286 -960
2019-05-26 00:10:37 GMT 53.315323 -1.320871 9,050 314 290 -1088
2019-05-26 00:10:34 GMT 53.312988 -1.316790 9,075 314 292 -1088
2019-05-26 00:10:31 GMT 53.310013 -1.311611 9,150 314 295 -1152
2019-05-26 00:10:27 GMT 53.305435 -1.303449 9,250 314 299 -1344
2019-05-26 00:10:24 GMT 53.303604 -1.300310 9,275 314 302 -1472
2019-05-26 00:10:21 GMT 53.299805 -1.293719 9,400 314 304 -1664
2019-05-26 00:10:18 GMT 53.297836 -1.290187 9,625 314 305 -2432
2019-05-26 00:10:15 GMT 53.294865 -1.285077 9,575 314 305 -2752
2019-05-26 00:10:12 GMT 53.291325 -1.278857 9,675 314 305 -2880
2019-05-26 00:10:09 GMT 53.289185 -1.275060 9,800 314 307 -2432
2019-05-26 00:10:06 GMT 53.285694 -1.269002 9,900 314 304 -2816
2019-05-26 00:10:03 GMT 53.282684 -1.263742 10,075 314 306 -2560
2019-05-26 00:09:59 GMT 53.279503 -1.258258 10,225 314 307 -2368
2019-05-26 00:09:56 GMT 53.274948 -1.250323 10,400 314 310 -2112
2019-05-26 00:09:53 GMT 53.273026 -1.247027 10,450 314 311 -1920
2019-05-26 00:09:50 GMT 53.267445 -1.237335 10,575 314 317 -1408
2019-05-26 00:09:47 GMT 53.267445 -1.237335 10,625 314 320 -1344
2019-05-26 00:09:44 GMT 53.263954 -1.231277 10,700 314 323 -1536
2019-05-26 00:09:41 GMT 53.260803 -1.225760 10,750 314 328 -1792
2019-05-26 00:09:38 GMT 53.254532 -1.214852 10,900 314 324 -4032
2019-05-26 00:09:35 GMT 53.254532 -1.214852 10,975 314 331 -2496
2019-05-26 00:09:32 GMT 53.252289 -1.210929 11,075 314 332 -3072
2019-05-26 00:09:29 GMT 53.248169 -1.203709 11,150 314 332 -3392
2019-05-26 00:09:26 GMT 53.245605 -1.199236 11,250 314 332 -3584
2019-05-26 00:09:23 GMT 53.241257 -1.191703 11,650 314 330 -4288
2019-05-26 00:09:20 GMT 53.239059 -1.187857 12,175 315 327 -4480
2019-05-26 00:09:16 GMT 53.231647 -1.175133 12,125 315 328 -4544
2019-05-26 00:09:13 GMT 53.231647 -1.175133 12,325 315 327 -4352
2019-05-26 00:09:10 GMT 53.224686 -1.163138 13,475 315 326 -4480
2019-05-26 00:09:07 GMT 53.224686 -1.163138 12,625 315 326 -4480
2019-05-26 00:09:04 GMT 53.221359 -1.157361 12,925 315 325 -4480
2019-05-26 00:09:01 GMT 53.216984 -1.149848 13,025 315 325 -4416
2019-05-26 00:08:58 GMT 53.214249 -1.145089 13,400 314 325 -3968
2019-05-26 00:08:55 GMT 53.212143 -1.141401 13,600 314 325 -3712
2019-05-26 00:08:52 GMT 53.209579 -1.136928 13,800 314 326 -3456
2019-05-26 00:08:48 GMT 53.204693 -1.128522 13,975 314 328 -3392
2019-05-26 00:08:45 GMT 53.201981 -1.123744 14,075 314 329 -3328
2019-05-26 00:08:42 GMT 53.199326 -1.119036 14,200 314 329 -3328
2019-05-26 00:08:39 GMT 53.195801 -1.112850 14,600 313 331 -3520
2019-05-26 00:08:36 GMT 53.192688 -1.107265 14,650 313 331 -3584
2019-05-26 00:08:33 GMT 53.189392 -1.101458 14,750 313 331 -3392
2019-05-26 00:08:30 GMT 53.186302 -1.095967 14,950 313 333 -3008
2019-05-26 00:08:27 GMT 53.183277 -1.090393 15,075 313 334 -3136
2019-05-26 00:08:24 GMT 53.179600 -1.083850 15,250 313 336 -3008
2019-05-26 00:08:21 GMT 53.176853 -1.078922 15,350 313 338 -2944
2019-05-26 00:08:17 GMT 53.172318 -1.070775 15,600 313 341 -2240
2019-05-26 00:08:14 GMT 53.169220 -1.065270 15,825 314 344 -1664
2019-05-26 00:08:11 GMT 53.166428 -1.060261 15,750 314 346 -1408
2019-05-26 00:08:08 GMT 53.163116 -1.054452 15,800 314 358 -1920
2019-05-26 00:08:05 GMT 53.159676 -1.048306 15,925 314 353 -1344
2019-05-26 00:08:02 GMT 53.156139 -1.042086 15,950 314 354 -1472
2019-05-26 00:07:59 GMT 53.151901 -1.034598 15,975 314 354 -1472
2019-05-26 00:07:56 GMT 53.149567 -1.030596 16,025 314 355 -1600
2019-05-26 00:07:53 GMT 53.146084 -1.024475 16,200 314 357 -1792
2019-05-26 00:07:50 GMT 53.142311 -1.017851 16,375 314 358 -1920
2019-05-26 00:07:47 GMT 53.139084 -1.012155 16,475 314 360 -2048
2019-05-26 00:07:44 GMT 53.135002 -1.005087 16,450 314 360 -2048
2019-05-26 00:07:41 GMT 53.132816 -1.001210 16,500 314 360 -2112
2019-05-26 00:07:38 GMT 53.128765 -0.994182 16,625 314 360 -2112
2019-05-26 00:07:35 GMT 53.125462 -0.988285 16,700 314 361 -2112
2019-05-26 00:07:32 GMT 53.121223 -0.980853 16,850 314 362 -2176
2019-05-26 00:07:29 GMT 53.117172 -0.973744 16,975 314 362 -2304
2019-05-26 00:07:26 GMT 53.114986 -0.969867 17,025 314 363 -2304
2019-05-26 00:07:23 GMT 53.110977 -0.962795 17,175 314 363 -2304
2019-05-26 00:07:20 GMT 53.108097 -0.957588 17,300 314 364 -2304
2019-05-26 00:07:17 GMT 53.103607 -0.949690 17,425 314 364 -2432
2019-05-26 00:07:14 GMT 53.099945 -0.943255 17,500 314 364 -2432
2019-05-26 00:07:10 GMT 53.096226 -0.936584 17,700 314 364 -2624
2019-05-26 00:07:04 GMT 53.089523 -0.924656 17,875 313 363 -2688
2019-05-26 00:07:01 GMT 53.086029 -0.918427 17,975 313 363 -2688
2019-05-26 00:06:58 GMT 53.082493 -0.912179 18,475 314 365 -2432
2019-05-26 00:06:54 GMT 53.077419 -0.903155 18,425 314 363 -2368
2019-05-26 00:06:51 GMT 53.074677 -0.898285 18,625 314 364 -2432
2019-05-26 00:06:47 GMT 53.069962 -0.889969 18,575 314 363 -2368
2019-05-26 00:06:44 GMT 53.066433 -0.883850 18,975 314 364 -2432
2019-05-26 00:06:41 GMT 53.062912 -0.877762 18,875 314 364 -2432
2019-05-26 00:06:37 GMT 53.058517 -0.870132 19,025 314 365 -2432
2019-05-26 00:06:34 GMT 53.055027 -0.863996 19,225 313 365 -2496
2019-05-26 00:06:31 GMT 53.050140 -0.855286 19,325 312 365 -2432
2019-05-26 00:06:28 GMT 53.048401 -0.852051 19,375 311 366 -2240
2019-05-26 00:06:25 GMT 53.043667 -0.843044 19,550 310 367 -2112
2019-05-26 00:06:22 GMT 53.041107 -0.837864 19,600 309 367 -1984
2019-05-26 00:06:18 GMT 53.037598 -0.830536 19,700 308 368 -1920
2019-05-26 00:06:15 GMT 53.031418 -0.816727 19,900 306 368 -2048
2019-05-26 00:06:12 GMT 53.031418 -0.816727 20,075 305 369 -1984
2019-05-26 00:06:09 GMT 53.028538 -0.809849 20,275 299 359 -1152
2019-05-26 00:06:06 GMT 53.025467 -0.802080 20,950 288 351 -1152
2019-05-26 00:06:03 GMT 53.022308 -0.793457 20,250 300 367 -1664
2019-05-26 00:06:00 GMT 53.020206 -0.787484 20,350 301 362 -1600
2019-05-26 00:05:55 GMT 53.016296 -0.776027 20,425 301 363 -1664
2019-05-26 00:05:52 GMT 53.013550 -0.768415 20,550 301 361 -1408
2019-05-26 00:05:49 GMT 53.010864 -0.760880 20,650 299 359 -1152
2019-05-26 00:05:46 GMT 53.008381 -0.753505 20,650 299 359 -1152
2019-05-26 00:05:43 GMT 53.005920 -0.745544 20,725 295 355 -1024
2019-05-26 00:05:40 GMT 53.003773 -0.737810 20,800 289 351 -1216
2019-05-26 00:05:37 GMT 53.001892 -0.730362 20,825 291 351 -1216
2019-05-26 00:05:34 GMT 53.000282 -0.723293 20,950 288 351 -1152
2019-05-26 00:05:31 GMT 52.997440 -0.708932 21,100 288 352 -1088
2019-05-26 00:05:28 GMT 52.997440 -0.708932 21,025 288 351 -1152
2019-05-26 00:05:25 GMT 52.994980 -0.695953 21,050 288 352 -1088
2019-05-26 00:05:22 GMT 52.994274 -0.692060 21,150 288 359 -1152
2019-05-26 00:05:19 GMT 52.993011 -0.685501 21,150 288 353 -960
2019-05-26 00:05:16 GMT 52.991299 -0.676522 21,225 288 353 -896
2019-05-26 00:05:10 GMT 52.988663 -0.662613 21,300 288 353 -832
2019-05-26 00:05:07 GMT 52.987202 -0.654942 21,350 288 354 -768
2019-05-26 00:05:04 GMT 52.985386 -0.645525 21,350 288 354 -768
2019-05-26 00:05:01 GMT 52.983902 -0.637665 21,450 288 355 -896
2019-05-26 00:04:58 GMT 52.982803 -0.632019 21,475 288 355 -960
2019-05-26 00:04:55 GMT 52.981110 -0.623169 21,475 288 355 -960
2019-05-26 00:04:52 GMT 52.978355 -0.608800 21,575 288 357 -1024
2019-05-26 00:04:49 GMT 52.976166 -0.597305 21,725 288 358 -1088
2019-05-26 00:04:46 GMT 52.976166 -0.597305 21,650 288 357 -1088
2019-05-26 00:04:43 GMT 52.975159 -0.592117 22,125 288 359 -1088
2019-05-26 00:04:39 GMT 52.973373 -0.582746 21,775 288 358 -1152
2019-05-26 00:04:36 GMT 52.971603 -0.573643 21,825 288 359 -1152
2019-05-26 00:04:33 GMT 52.970535 -0.567915 21,975 288 359 -1152
2019-05-26 00:04:29 GMT 52.967972 -0.554504 21,975 288 359 -1152
2019-05-26 00:04:25 GMT 52.966251 -0.545471 22,125 288 359 -1088
2019-05-26 00:04:22 GMT 52.964527 -0.536604 22,325 288 359 -1024
2019-05-26 00:04:19 GMT 52.962753 -0.527191 22,400 288 359 -1024
2019-05-26 00:04:13 GMT 52.960007 -0.512848 22,250 288 359 -1024
2019-05-26 00:04:10 GMT 52.956757 -0.495682 22,400 288 359 -1088
2019-05-26 00:04:07 GMT 52.956757 -0.495682 22,375 288 359 -1024
2019-05-26 00:04:04 GMT 52.955498 -0.489205 22,400 288 359 -1024
2019-05-26 00:04:00 GMT 52.953094 -0.476456 22,500 288 359 -1024
2019-05-26 00:03:57 GMT 52.951904 -0.470276 22,525 288 360 -960
2019-05-26 00:03:54 GMT 52.950565 -0.463388 22,550 288 360 -960
2019-05-26 00:03:51 GMT 52.949066 -0.455627 22,575 288 360 -960
2019-05-26 00:03:48 GMT 52.947212 -0.445888 22,700 288 360 -1024
2019-05-26 00:03:45 GMT 52.944809 -0.433273 22,800 288 362 -1024
2019-05-26 00:03:42 GMT 52.944809 -0.433273 22,750 288 361 -1024
2019-05-26 00:03:39 GMT 52.942749 -0.422668 22,825 288 362 -1024
2019-05-26 00:03:36 GMT 52.941650 -0.416946 22,850 288 362 -960
2019-05-26 00:03:33 GMT 52.939957 -0.408173 22,900 288 362 -960
2019-05-26 00:03:28 GMT 52.935993 -0.387660 23,075 288 379 -1088
2019-05-26 00:03:25 GMT 52.935993 -0.387660 23,050 288 364 -832
2019-05-26 00:03:22 GMT 52.934372 -0.379257 23,075 288 364 -832
2019-05-26 00:03:19 GMT 52.932873 -0.371573 23,100 288 365 -832
2019-05-26 00:03:15 GMT 52.930779 -0.360744 23,175 288 365 -832
2019-05-26 00:03:12 GMT 52.929245 -0.352707 23,200 288 366 -832
2019-05-26 00:03:09 GMT 52.927708 -0.344892 23,300 288 369 -960
2019-05-26 00:03:05 GMT 52.925613 -0.334063 23,300 288 368 -960
2019-05-26 00:03:02 GMT 52.924118 -0.326385 23,375 288 369 -1024
2019-05-26 00:02:59 GMT 52.922585 -0.318368 23,400 288 370 -1088
2019-05-26 00:02:56 GMT 52.920677 -0.308323 23,450 288 372 -1088
2019-05-26 00:02:53 GMT 52.919266 -0.300980 23,725 288 373 -960
2019-05-26 00:02:50 GMT 52.917892 -0.293884 23,625 288 378 -1088
2019-05-26 00:02:47 GMT 52.915924 -0.283585 23,800 288 376 -832
2019-05-26 00:02:43 GMT 52.914345 -0.275443 23,750 288 378 -1152
2019-05-26 00:02:37 GMT 52.910660 -0.256500 24,025 288 378 -1088
2019-05-26 00:02:34 GMT 52.909130 -0.248683 23,825 288 378 -896
2019-05-26 00:02:28 GMT 52.906357 -0.234299 23,900 288 379 -1088
2019-05-26 00:02:25 GMT 52.904663 -0.225612 23,925 288 379 -1088
2019-05-26 00:02:22 GMT 52.902523 -0.214547 24,025 288 378 -1152
2019-05-26 00:02:19 GMT 52.901405 -0.208897 24,050 288 378 -1152
2019-05-26 00:02:16 GMT 52.899311 -0.198225 24,125 288 378 -1152
2019-05-26 00:02:13 GMT 52.898026 -0.191650 24,275 288 377 -1152
2019-05-26 00:02:10 GMT 52.896652 -0.184555 24,275 288 377 -1152
2019-05-26 00:02:07 GMT 52.894936 -0.175624 24,275 288 377 -1152
2019-05-26 00:02:03 GMT 52.892395 -0.162659 24,375 288 376 -1152
2019-05-26 00:02:00 GMT 52.890793 -0.154672 24,550 288 376 -1088
2019-05-26 00:01:56 GMT 52.889099 -0.145950 24,500 288 376 -1152
2019-05-26 00:01:53 GMT 52.886993 -0.135193 24,550 288 376 -1088
2019-05-26 00:01:50 GMT 52.885986 -0.130005 24,650 288 376 -1024
2019-05-26 00:01:47 GMT 52.884460 -0.122184 24,650 288 376 -1024
2019-05-26 00:01:44 GMT 52.882599 -0.112610 24,850 288 376 -896
2019-05-26 00:01:41 GMT 52.880859 -0.103836 24,750 288 376 -960
2019-05-26 00:01:37 GMT 52.878967 -0.094169 24,800 288 376 -896
2019-05-26 00:01:33 GMT 52.876125 -0.079651 24,875 288 376 -896
2019-05-26 00:01:30 GMT 52.875057 -0.074158 24,900 288 376 -896
2019-05-26 00:01:27 GMT 52.873940 -0.068272 24,950 288 376 -896
2019-05-26 00:01:24 GMT 52.871704 -0.056815 25,025 289 380 -1024
2019-05-26 00:01:21 GMT 52.870308 -0.049831 25,050 288 376 -1024
2019-05-26 00:01:17 GMT 52.866852 -0.032043 25,150 288 378 -1024
2019-05-26 00:01:13 GMT 52.866070 -0.027937 25,175 288 378 -1024
2019-05-26 00:01:10 GMT 52.864471 -0.019913 25,325 289 379 -1024
2019-05-26 00:01:07 GMT 52.863136 -0.013105 25,275 288 379 -1024
2019-05-26 00:01:03 GMT 52.860397 0.000992 25,350 289 380 -1024
2019-05-26 00:01:00 GMT 52.859024 0.007858 25,375 289 387 -896
2019-05-26 00:00:57 GMT 52.857693 0.014596 25,475 289 382 -1024
2019-05-26 00:00:53 GMT 52.854996 0.028152 25,525 289 382 -1088
2019-05-26 00:00:50 GMT 52.852154 0.042454 25,900 289 383 -896
2019-05-26 00:00:43 GMT 52.849686 0.054932 25,925 289 392 -960
2019-05-26 00:00:40 GMT 52.847992 0.063400 25,750 289 383 -896
2019-05-26 00:00:37 GMT 52.846298 0.071869 25,750 289 383 -896
2019-05-26 00:00:34 GMT 52.844563 0.080750 25,850 289 384 -896
2019-05-26 00:00:31 GMT 52.843212 0.087577 25,900 289 387 -896
2019-05-26 00:00:28 GMT 52.841351 0.096994 25,950 289 393 -1024
2019-05-26 00:00:25 GMT 52.839722 0.104998 25,975 289 386 -832
2019-05-26 00:00:22 GMT 52.838013 0.113678 26,025 289 388 -1024
2019-05-26 00:00:19 GMT 52.836319 0.122375 26,075 289 387 -896
2019-05-26 00:00:16 GMT 52.834557 0.130973 26,750 289 392 -960
2019-05-26 00:00:12 GMT 52.832565 0.141144 26,150 289 389 -1088
2019-05-26 00:00:09 GMT 52.830551 0.151215 26,225 289 390 -1152
2019-05-26 00:00:06 GMT 52.828400 0.162048 26,250 289 390 -1152
2019-05-26 00:00:02 GMT 52.826736 0.170524 26,350 289 391 -1216
2019-05-25 23:59:59 GMT 52.823822 0.185089 26,400 289 392 -1152
2019-05-25 23:59:56 GMT 52.823822 0.185089 26,425 289 392 -1152
2019-05-25 23:59:52 GMT 52.821102 0.198774 26,575 289 393 -1024
2019-05-25 23:59:49 GMT 52.819290 0.207825 26,600 289 393 -1024
2019-05-25 23:59:46 GMT 52.817917 0.214844 26,600 289 393 -1024
2019-05-25 23:59:43 GMT 52.816074 0.224200 26,675 289 393 -960
2019-05-25 23:59:40 GMT 52.812424 0.242538 26,750 289 392 -960
2019-05-25 23:59:37 GMT 52.812424 0.242538 26,775 289 392 -960
2019-05-25 23:59:31 GMT 52.809174 0.258789 26,900 289 391 -1088
2019-05-25 23:59:28 GMT 52.807709 0.266190 26,925 289 391 -1088
2019-05-25 23:59:25 GMT 52.805832 0.275497 27,075 289 392 -1664
2019-05-25 23:59:21 GMT 52.803596 0.286743 27,075 289 391 -1472
2019-05-25 23:59:18 GMT 52.802078 0.294418 27,475 289 392 -2304
2019-05-25 23:59:15 GMT 52.799652 0.306473 27,250 289 392 -2176
2019-05-25 23:59:11 GMT 52.797966 0.314915 27,350 289 392 -2240
2019-05-25 23:59:08 GMT 52.796059 0.324489 27,550 289 392 -2368
2019-05-25 23:59:05 GMT 52.794613 0.331866 27,575 289 392 -2368
2019-05-25 23:59:02 GMT 52.792969 0.340118 27,675 289 393 -2176
2019-05-25 23:58:59 GMT 52.791264 0.348659 27,800 289 394 -1856
2019-05-25 23:58:56 GMT 52.789764 0.356064 28,250 289 400 -1664
2019-05-25 23:58:53 GMT 52.785488 0.377380 28,150 289 398 -1920
2019-05-25 23:58:50 GMT 52.785488 0.377380 28,125 289 398 -1920
2019-05-25 23:58:47 GMT 52.783768 0.385971 28,250 289 400 -1664
2019-05-25 23:58:44 GMT 52.782852 0.390320 28,275 289 401 -1600
2019-05-25 23:58:41 GMT 52.780834 0.400452 28,300 289 401 -1536
2019-05-25 23:58:38 GMT 52.779007 0.409546 28,450 289 410 -960
2019-05-25 23:58:35 GMT 52.777248 0.418344 28,500 289 406 -960
2019-05-25 23:58:32 GMT 52.774612 0.431290 28,525 289 425 -896
2019-05-25 23:58:29 GMT 52.773621 0.436236 28,650 289 416 -1024
2019-05-25 23:58:26 GMT 52.772141 0.443649 28,650 289 416 -1024
2019-05-25 23:58:23 GMT 52.769989 0.454254 28,650 289 416 -1024
2019-05-25 23:58:20 GMT 52.768173 0.463152 28,700 289 425 -896
2019-05-25 23:58:17 GMT 52.766190 0.473099 28,750 289 420 -960
2019-05-25 23:58:14 GMT 52.764309 0.482535 28,875 289 428 -896
2019-05-25 23:58:10 GMT 52.762115 0.493469 28,900 289 428 -896
2019-05-25 23:58:07 GMT 52.759918 0.504379 28,925 289 430 -960
2019-05-25 23:58:04 GMT 52.758545 0.511169 29,000 289 433 -1088
2019-05-25 23:58:01 GMT 52.756626 0.520830 29,000 289 433 -1088
2019-05-25 23:57:58 GMT 52.754208 0.532994 29,125 289 437 -1344
2019-05-25 23:57:54 GMT 52.752365 0.542221 29,150 289 441 -1984
2019-05-25 23:57:50 GMT 52.749619 0.555878 29,225 289 443 -2560
2019-05-25 23:57:47 GMT 52.747784 0.564776 29,875 289 444 -3072
2019-05-25 23:57:43 GMT 52.745270 0.577332 29,550 289 444 -2816
2019-05-25 23:57:40 GMT 52.741264 0.597107 29,800 289 444 -3712
2019-05-25 23:57:37 GMT 52.741264 0.597107 30,075 289 443 -3904
2019-05-25 23:57:33 GMT 52.736237 0.621826 30,425 289 442 -3776
2019-05-25 23:57:30 GMT 52.736237 0.621826 30,300 289 442 -3840
2019-05-25 23:57:27 GMT 52.734653 0.629674 30,550 289 442 -3712
2019-05-25 23:57:24 GMT 52.732281 0.641366 30,875 289 441 -3648
2019-05-25 23:57:18 GMT 52.728836 0.658188 31,500 289 440 -3648
2019-05-25 23:57:15 GMT 52.726833 0.668204 31,275 289 440 -3648
2019-05-25 23:57:12 GMT 52.725174 0.676193 31,400 289 440 -3584
2019-05-25 23:57:08 GMT 52.722382 0.690155 31,650 289 440 -3584
2019-05-25 23:57:05 GMT 52.720139 0.701065 32,200 289 439 -3520
2019-05-25 23:57:02 GMT 52.718220 0.710658 32,200 289 439 -3520
2019-05-25 23:56:58 GMT 52.715614 0.723528 32,375 289 438 -3584
2019-05-25 23:56:55 GMT 52.713638 0.733109 32,450 289 437 -3904
2019-05-25 23:56:51 GMT 52.710495 0.748718 32,775 289 436 -4032
2019-05-25 23:56:48 GMT 52.709190 0.755153 33,325 289 431 -4160
2019-05-25 23:56:45 GMT 52.706955 0.765991 33,150 289 433 -4224
2019-05-25 23:56:42 GMT 52.705326 0.774065 33,450 289 432 -4160
2019-05-25 23:56:39 GMT 52.703522 0.782928 33,550 289 432 -4160
2019-05-25 23:56:36 GMT 52.701649 0.792193 33,725 289 430 -4160
2019-05-25 23:56:33 GMT 52.699722 0.801697 33,850 289 429 -4160
2019-05-25 23:56:30 GMT 52.697739 0.811340 34,225 289 426 -3968
2019-05-25 23:56:26 GMT 52.694733 0.826187 34,475 289 425 -3904
2019-05-25 23:56:23 GMT 52.693085 0.834198 34,625 289 424 -3456
2019-05-25 23:56:20 GMT 52.691757 0.840607 34,925 289 423 -3136
2019-05-25 23:56:15 GMT 52.688522 0.856149 35,075 289 423 -2752
2019-05-25 23:56:12 GMT 52.686100 0.868077 35,175 289 423 -2496
2019-05-25 23:56:09 GMT 52.684296 0.876770 35,400 289 424 -1792
2019-05-25 23:56:06 GMT 52.682922 0.883408 35,400 289 424 -1920
2019-05-25 23:56:03 GMT 52.680981 0.892718 35,675 289 426 -1408
2019-05-25 23:55:59 GMT 52.677109 0.911407 35,650 289 426 -1408
2019-05-25 23:55:56 GMT 52.676418 0.914612 35,700 289 426 -1408
2019-05-25 23:55:53 GMT 52.674454 0.924149 35,825 289 428 -1024
2019-05-25 23:55:50 GMT 52.672321 0.934387 35,900 289 428 -896
2019-05-25 23:55:47 GMT 52.670105 0.945053 35,900 289 429 -768
2019-05-25 23:55:44 GMT 52.668365 0.953535 35,975 289 430 -512
2019-05-25 23:55:41 GMT 52.667385 0.958243 36,000 289 431 0
2019-05-25 23:55:38 GMT 52.664967 0.970014 36,000 289 431 0
2019-05-25 23:55:35 GMT 52.662506 0.981979 36,000 289 431 0
2019-05-25 23:55:32 GMT 52.658588 1.001090 36,000 289 431 0
2019-05-25 23:55:29 GMT 52.658588 1.001090 36,000 289 431 0
2019-05-25 23:55:26 GMT 52.657700 1.005325 36,000 289 431 0
2019-05-25 23:55:22 GMT 52.654861 1.018829 36,000 289 431 0
2019-05-25 23:55:19 GMT 52.652298 1.031265 36,000 289 431 0
2019-05-25 23:55:16 GMT 52.650925 1.037903 36,000 289 431 0
2019-05-25 23:55:13 GMT 52.648907 1.047546 36,000 289 431 0
2019-05-25 23:55:10 GMT 52.646858 1.057434 36,000 289 431 0
2019-05-25 23:55:05 GMT 52.644157 1.070618 36,000 289 431 0
2019-05-25 23:55:01 GMT 52.641502 1.083409 36,000 289 431 0
2019-05-25 23:54:58 GMT 52.639481 1.093216 36,025 289 432 0
2019-05-25 23:54:55 GMT 52.637501 1.102713 36,000 289 431 0
2019-05-25 23:54:52 GMT 52.635078 1.114563 36,000 289 431 0
2019-05-25 23:54:49 GMT 52.633682 1.121312 36,000 289 431 -64
2019-05-25 23:54:46 GMT 52.630829 1.135025 36,000 289 432 -64
2019-05-25 23:54:43 GMT 52.629227 1.142731 36,000 289 432 -64
2019-05-25 23:54:40 GMT 52.627899 1.149139 36,000 289 432 -64
2019-05-25 23:54:37 GMT 52.625908 1.158587 36,000 289 432 0
2019-05-25 23:54:34 GMT 52.623917 1.167984 36,025 289 432 0
2019-05-25 23:54:31 GMT 52.622044 1.177107 36,025 289 432 0
2019-05-25 23:54:27 GMT 52.619202 1.190567 36,000 289 432 0
2019-05-25 23:54:24 GMT 52.617508 1.198578 36,025 289 432 0
2019-05-25 23:54:21 GMT 52.614853 1.211472 36,025 289 432 0
2019-05-25 23:54:16 GMT 52.612106 1.224442 36,025 289 432 0
2019-05-25 23:54:13 GMT 52.610687 1.231332 36,025 289 432 0
2019-05-25 23:54:10 GMT 52.608627 1.241074 36,025 289 432 0
2019-05-25 23:54:07 GMT 52.606018 1.253662 36,025 289 432 0
2019-05-25 23:54:04 GMT 52.604645 1.260223 36,000 290 433 0
2019-05-25 23:54:01 GMT 52.602219 1.271896 36,025 289 432 0
2019-05-25 23:53:58 GMT 52.600212 1.281398 36,025 290 432 0
2019-05-25 23:53:54 GMT 52.598236 1.290817 36,025 290 432 0
2019-05-25 23:53:51 GMT 52.595581 1.303406 36,025 290 433 0
2019-05-25 23:53:48 GMT 52.591553 1.322708 36,025 289 433 0
2019-05-25 23:53:45 GMT 52.591553 1.322708 36,025 289 433 0
2019-05-25 23:53:42 GMT 52.589691 1.331543 36,025 290 433 0
2019-05-25 23:53:39 GMT 52.588387 1.337664 36,025 290 433 0
2019-05-25 23:53:35 GMT 52.585007 1.353607 36,025 290 433 0
2019-05-25 23:53:32 GMT 52.583035 1.362932 36,025 290 433 0
2019-05-25 23:53:29 GMT 52.581207 1.371765 36,025 290 433 0
2019-05-25 23:53:26 GMT 52.579880 1.377869 36,025 290 433 0
2019-05-25 23:53:22 GMT 52.577179 1.390686 36,000 290 433 0
2019-05-25 23:53:19 GMT 52.574615 1.402893 36,025 290 433 0
2019-05-25 23:53:16 GMT 52.573380 1.408768 36,000 290 433 0
2019-05-25 23:53:11 GMT 52.570091 1.424220 36,000 290 433 0
2019-05-25 23:53:08 GMT 52.567440 1.436776 36,000 290 434 0
2019-05-25 23:53:02 GMT 52.563576 1.454982 36,000 290 434 64
2019-05-25 23:52:59 GMT 52.561203 1.466141 36,000 290 434 64
2019-05-25 23:52:56 GMT 52.557011 1.485744 36,000 290 434 64
2019-05-25 23:52:52 GMT 52.557011 1.485744 36,000 290 435 64
2019-05-25 23:52:49 GMT 52.554356 1.498300 36,000 290 435 64
2019-05-25 23:52:46 GMT 52.552727 1.506069 36,000 290 435 64
2019-05-25 23:52:43 GMT 52.551144 1.513524 36,000 290 435 0
2019-05-25 23:52:40 GMT 52.546509 1.535263 36,000 290 435 0
2019-05-25 23:52:36 GMT 52.546509 1.535263 36,000 290 435 0
2019-05-25 23:52:33 GMT 52.544449 1.545105 36,000 290 435 0
2019-05-25 23:52:30 GMT 52.542439 1.554487 36,000 290 434 -64
2019-05-25 23:52:26 GMT 52.539742 1.567121 36,000 290 435 0
2019-05-25 23:52:23 GMT 52.537811 1.576233 36,000 290 434 0
2019-05-25 23:52:19 GMT 52.535248 1.588287 36,000 290 434 0
2019-05-25 23:52:15 GMT 52.531826 1.604239 36,000 290 434 -64
2019-05-25 23:52:11 GMT 52.530106 1.612558 36,000 290 434 0
2019-05-25 23:52:08 GMT 52.527962 1.622524 36,000 290 434 0
2019-05-25 23:52:04 GMT 52.525452 1.634293 36,000 290 434 0
2019-05-25 23:52:01 GMT 52.523445 1.643633 36,000 290 434 0
2019-05-25 23:51:58 GMT 52.521118 1.654619 36,000 290 434 0
2019-05-25 23:51:55 GMT 52.518860 1.665115 36,000 290 433 0
2019-05-25 23:51:51 GMT 52.516296 1.677094 36,000 290 433 0
2019-05-25 23:51:48 GMT 52.514557 1.685146 36,000 290 433 0
2019-05-25 23:51:45 GMT 52.512222 1.696243 36,000 290 433 0
2019-05-25 23:51:42 GMT 52.510849 1.702652 36,000 290 433 0
2019-05-25 23:51:39 GMT 52.508083 1.715594 36,000 290 433 0
2019-05-25 23:51:36 GMT 52.506737 1.721872 36,000 290 433 0
2019-05-25 23:51:32 GMT 52.503521 1.736782 36,000 290 433 0
2019-05-25 23:51:26 GMT 52.500126 1.752633 36,000 290 433 0
2019-05-25 23:51:23 GMT 52.498123 1.761932 36,000 290 433 0
2019-05-25 23:51:20 GMT 52.496246 1.770706 36,000 290 433 0
2019-05-25 23:51:17 GMT 52.494305 1.779785 36,000 290 433 0
2019-05-25 23:51:13 GMT 52.490799 1.795883 36,000 290 433 0
2019-05-25 23:51:10 GMT 52.488998 1.804426 36,000 290 433 0
2019-05-25 23:51:04 GMT 52.485367 1.821219 36,000 290 433 0
2019-05-25 23:51:01 GMT 52.483738 1.828831 36,000 290 433 0
2019-05-25 23:50:58 GMT 52.478073 1.854935 36,000 290 433 0
2019-05-25 23:50:54 GMT 52.478073 1.854935 36,000 290 433 64
2019-05-25 23:50:51 GMT 52.475964 1.864615 36,000 290 433 64
2019-05-25 23:50:47 GMT 52.473953 1.874084 36,000 290 433 0
2019-05-25 23:50:44 GMT 52.471775 1.884155 36,000 290 433 0
2019-05-25 23:50:41 GMT 52.469074 1.896633 36,000 290 433 0
2019-05-25 23:50:38 GMT 52.468048 1.901263 36,000 290 433 0
2019-05-25 23:50:35 GMT 52.466419 1.908796 36,000 290 433 0
2019-05-25 23:50:32 GMT 52.464340 1.918488 36,000 290 433 0
2019-05-25 23:50:28 GMT 52.461113 1.933358 36,000 290 433 0
2019-05-25 23:50:25 GMT 52.459717 1.939793 36,000 290 433 0
2019-05-25 23:50:21 GMT 52.456604 1.954041 36,000 290 433 0
2019-05-25 23:50:18 GMT 52.454224 1.964983 36,000 290 433 0
2019-05-25 23:50:15 GMT 52.449966 1.984711 36,000 290 433 0
2019-05-25 23:50:11 GMT 52.449966 1.984711 36,000 290 433 0
2019-05-25 23:50:08 GMT 52.448364 1.992035 36,000 290 433 0
2019-05-25 23:50:05 GMT 52.445847 2.003555 36,000 290 433 0
2019-05-25 23:49:59 GMT 52.442261 2.020072 36,000 290 433 0
2019-05-25 23:49:56 GMT 52.439697 2.031764 36,000 290 433 0
2019-05-25 23:49:53 GMT 52.437332 2.042694 36,000 290 433 0
2019-05-25 23:49:50 GMT 52.434952 2.053604 36,000 290 433 0
2019-05-25 23:49:46 GMT 52.433041 2.062526 36,000 290 434 0
2019-05-25 23:49:42 GMT 52.430435 2.074454 36,000 290 433 0
2019-05-25 23:49:39 GMT 52.428314 2.084274 36,000 290 433 0
2019-05-25 23:49:35 GMT 52.425522 2.097168 36,000 290 434 0
2019-05-25 23:49:32 GMT 52.423874 2.104492 36,000 290 433 0
2019-05-25 23:49:28 GMT 52.421082 2.117462 36,000 290 433 0
2019-05-25 23:49:25 GMT 52.419170 2.126090 36,000 290 433 0
2019-05-25 23:49:21 GMT 52.416138 2.139969 36,000 290 433 0
2019-05-25 23:49:17 GMT 52.414001 2.149789 36,000 290 433 -64
2019-05-25 23:49:14 GMT 52.411972 2.159042 36,000 290 433 0
2019-05-25 23:49:10 GMT 52.409363 2.170715 36,000 290 433 0
2019-05-25 23:49:07 GMT 52.406925 2.181963 36,000 290 433 0
2019-05-25 23:49:04 GMT 52.404877 2.191238 36,000 290 433 0
2019-05-25 23:49:01 GMT 52.401943 2.204485 36,000 290 433 0
2019-05-25 23:48:58 GMT 52.400688 2.210135 36,000 290 433 -64
2019-05-25 23:48:54 GMT 52.397896 2.222927 36,000 290 433 -64
2019-05-25 23:48:49 GMT 52.394775 2.237052 36,000 290 433 0
2019-05-25 23:48:46 GMT 52.392262 2.248587 36,000 290 433 0
2019-05-25 23:48:40 GMT 52.388672 2.264709 36,000 290 433 0
2019-05-25 23:48:37 GMT 52.386581 2.274170 36,000 290 433 0
2019-05-25 23:48:33 GMT 52.383743 2.287118 36,000 290 433 0
2019-05-25 23:48:28 GMT 52.380341 2.302551 36,000 290 433 0
2019-05-25 23:48:25 GMT 52.378326 2.311859 36,000 290 433 0
2019-05-25 23:48:22 GMT 52.375534 2.324371 36,000 290 433 0
2019-05-25 23:48:18 GMT 52.373566 2.333298 36,000 290 433 0
2019-05-25 23:48:15 GMT 52.371506 2.342606 36,000 290 433 0
2019-05-25 23:48:12 GMT 52.369453 2.351937 36,000 290 433 0
2019-05-25 23:48:08 GMT 52.366707 2.364415 36,000 290 434 0
2019-05-25 23:48:05 GMT 52.364750 2.373125 36,000 290 434 0
2019-05-25 23:48:02 GMT 52.362717 2.382355 36,000 290 434 0
2019-05-25 23:47:59 GMT 52.357773 2.404556 36,000 290 434 0
2019-05-25 23:47:56 GMT 52.357773 2.404556 36,000 290 434 0
2019-05-25 23:47:53 GMT 52.356400 2.410660 36,000 290 434 0
2019-05-25 23:47:50 GMT 52.354324 2.420053 36,000 290 434 0
2019-05-25 23:47:47 GMT 52.352280 2.429352 36,000 290 434 0
2019-05-25 23:47:43 GMT 52.349808 2.440456 36,000 290 434 0
2019-05-25 23:47:40 GMT 52.347748 2.449646 36,000 290 434 0
2019-05-25 23:47:36 GMT 52.345047 2.461777 36,000 290 434 0
2019-05-25 23:47:33 GMT 52.343151 2.470354 36,000 290 434 0
2019-05-25 23:47:29 GMT 52.339920 2.484894 36,000 290 434 0
2019-05-25 23:47:26 GMT 52.338135 2.492905 36,000 290 434 0
2019-05-25 23:47:23 GMT 52.336075 2.502058 36,000 290 434 0
2019-05-25 23:47:20 GMT 52.333969 2.511597 36,000 291 434 0
2019-05-25 23:47:17 GMT 52.331314 2.523575 36,000 290 434 0
2019-05-25 23:47:14 GMT 52.327927 2.538783 36,000 290 434 0
2019-05-25 23:47:11 GMT 52.327927 2.538783 36,000 291 434 0
2019-05-25 23:47:08 GMT 52.326096 2.547073 36,000 290 434 0
2019-05-25 23:47:04 GMT 52.320786 2.570801 36,000 290 434 0
2019-05-25 23:47:01 GMT 52.320786 2.570801 36,000 291 434 0
2019-05-25 23:46:58 GMT 52.318909 2.579193 36,000 291 434 0
2019-05-25 23:46:53 GMT 52.315544 2.594186 36,000 291 434 0
2019-05-25 23:46:50 GMT 52.313309 2.604309 36,000 291 434 0
2019-05-25 23:46:46 GMT 52.310852 2.615280 36,000 291 434 0
2019-05-25 23:46:43 GMT 52.308792 2.624398 36,000 291 434 0
2019-05-25 23:46:39 GMT 52.305908 2.637268 36,000 291 434 0
2019-05-25 23:46:33 GMT 52.301811 2.655396 36,000 291 434 0
2019-05-25 23:46:30 GMT 52.299019 2.667951 36,000 291 434 0
2019-05-25 23:46:27 GMT 52.297165 2.676163 36,000 291 434 0
2019-05-25 23:46:24 GMT 52.295746 2.682419 36,000 291 434 0
2019-05-25 23:46:18 GMT 52.288834 2.713318 36,000 291 434 0
2019-05-25 23:46:15 GMT 52.288834 2.713318 36,000 291 434 0
2019-05-25 23:46:12 GMT 52.284348 2.733231 36,000 291 434 0
2019-05-25 23:46:08 GMT 52.284348 2.733231 35,975 291 434 0
2019-05-25 23:46:05 GMT 52.282242 2.742691 36,000 291 434 0
2019-05-25 23:46:02 GMT 52.280548 2.750168 36,000 291 434 0
2019-05-25 23:45:58 GMT 52.275742 2.771458 35,975 291 434 -64
2019-05-25 23:45:52 GMT 52.273727 2.780228 36,000 291 434 -64
2019-05-25 23:45:46 GMT 52.268993 2.801357 36,000 291 434 0
2019-05-25 23:45:43 GMT 52.266769 2.811203 36,000 291 434 0
2019-05-25 23:45:39 GMT 52.264114 2.822876 36,000 291 434 0
2019-05-25 23:45:35 GMT 52.261684 2.833688 36,000 291 434 0
2019-05-25 23:45:32 GMT 52.259262 2.844596 36,000 291 434 0
2019-05-25 23:45:28 GMT 52.255920 2.859421 36,000 291 434 0
2019-05-25 23:45:25 GMT 52.253769 2.868766 36,000 291 434 0
2019-05-25 23:45:22 GMT 52.252373 2.875044 36,000 291 434 0
2019-05-25 23:45:17 GMT 52.249489 2.887835 36,000 291 435 -64
2019-05-25 23:45:14 GMT 52.246647 2.900155 36,000 291 434 0
2019-05-25 23:45:11 GMT 52.244877 2.908003 36,000 291 434 0
2019-05-25 23:45:06 GMT 52.240448 2.927322 36,000 291 434 0
2019-05-25 23:45:03 GMT 52.239029 2.933502 36,000 291 434 0
2019-05-25 23:45:00 GMT 52.237152 2.941742 36,000 291 434 0
2019-05-25 23:44:57 GMT 52.235428 2.949358 36,000 291 435 0
2019-05-25 23:44:54 GMT 52.232777 2.960972 36,000 291 434 0
2019-05-25 23:44:51 GMT 52.230606 2.970276 36,000 291 435 0
2019-05-25 23:44:48 GMT 52.227722 2.982941 36,000 291 435 0
2019-05-25 23:44:44 GMT 52.225792 2.991342 36,000 291 435 0
2019-05-25 23:44:40 GMT 52.223053 3.003387 36,000 291 435 0
2019-05-25 23:44:37 GMT 52.220856 3.012924 36,025 291 435 0
2019-05-25 23:44:34 GMT 52.218716 3.022260 36,025 291 435 0
2019-05-25 23:44:30 GMT 52.215412 3.036700 36,025 291 437 0
2019-05-25 23:44:24 GMT 52.211361 3.054592 36,025 291 435 0
2019-05-25 23:44:20 GMT 52.206207 3.076859 36,025 291 435 0
2019-05-25 23:44:17 GMT 52.206207 3.076859 36,025 291 435 0
2019-05-25 23:44:13 GMT 52.204098 3.086217 36,025 291 437 0
2019-05-25 23:44:10 GMT 52.201397 3.097988 36,025 291 435 0
2019-05-25 23:44:04 GMT 52.197739 3.113937 36,025 291 435 0
2019-05-25 23:44:01 GMT 52.195675 3.122864 36,025 291 435 0
2019-05-25 23:43:57 GMT 52.192787 3.135341 36,025 291 436 0
2019-05-25 23:43:54 GMT 52.190689 3.144455 36,025 291 436 0
2019-05-25 23:43:51 GMT 52.186131 3.164298 36,025 291 436 0
2019-05-25 23:43:48 GMT 52.186131 3.164298 36,025 291 436 0
2019-05-25 23:43:45 GMT 52.184452 3.171674 36,025 291 436 0
2019-05-25 23:43:41 GMT 52.179333 3.193883 36,025 291 436 0
2019-05-25 23:43:38 GMT 52.179333 3.193883 36,025 291 439 64
2019-05-25 23:43:35 GMT 52.177330 3.202672 36,025 291 436 0
2019-05-25 23:43:31 GMT 52.174393 3.215332 36,025 291 436 0
2019-05-25 23:43:28 GMT 52.172256 3.224723 36,025 291 437 0
2019-05-25 23:43:25 GMT 52.170044 3.234177 36,025 291 437 0
2019-05-25 23:43:22 GMT 52.168167 3.242264 36,025 291 437 0
2019-05-25 23:43:19 GMT 52.166157 3.251090 36,025 291 437 0
2019-05-25 23:43:15 GMT 52.162994 3.264847 36,025 291 437 0
2019-05-25 23:43:10 GMT 52.159363 3.280439 36,025 291 437 64
2019-05-25 23:43:07 GMT 52.157639 3.287973 36,025 291 437 64
2019-05-25 23:43:04 GMT 52.155304 3.297958 36,025 291 438 64
2019-05-25 23:43:01 GMT 52.152241 3.311201 36,025 291 439 64
2019-05-25 23:42:58 GMT 52.150131 3.320312 36,025 291 438 64
2019-05-25 23:42:54 GMT 52.146374 3.336469 36,025 291 438 64
2019-05-25 23:42:48 GMT 52.143673 3.348319 36,000 291 439 64
2019-05-25 23:42:45 GMT 52.141525 3.357468 36,000 291 438 64
2019-05-25 23:42:42 GMT 52.139343 3.367074 36,000 291 439 64
2019-05-25 23:42:39 GMT 52.137573 3.374686 36,000 291 439 64
2019-05-25 23:42:36 GMT 52.132782 3.395309 36,000 291 439 64
2019-05-25 23:42:33 GMT 52.132782 3.395309 36,000 291 439 64
2019-05-25 23:42:30 GMT 52.130547 3.404977 36,000 291 439 64
2019-05-25 23:42:27 GMT 52.128777 3.412589 36,000 291 439 64
2019-05-25 23:42:24 GMT 52.125732 3.425522 36,000 291 438 0
2019-05-25 23:42:20 GMT 52.123810 3.433762 36,000 291 439 0
2019-05-25 23:42:17 GMT 52.120834 3.446579 36,000 291 439 0
2019-05-25 23:42:13 GMT 52.118637 3.456039 36,000 291 439 0
2019-05-25 23:42:10 GMT 52.116302 3.466108 36,000 291 439 0
2019-05-25 23:42:07 GMT 52.114391 3.474112 35,975 291 439 0
2019-05-25 23:42:04 GMT 52.111877 3.484942 36,000 291 439 0
2019-05-25 23:42:00 GMT 52.109436 3.495407 36,000 291 439 0
2019-05-25 23:41:57 GMT 52.106918 3.506165 36,000 291 439 0
2019-05-25 23:41:53 GMT 52.104034 3.518600 36,000 291 439 0
2019-05-25 23:41:50 GMT 52.101452 3.529515 36,000 291 439 0
2019-05-25 23:41:47 GMT 52.100006 3.535714 36,000 291 439 0
2019-05-25 23:41:44 GMT 52.097492 3.546622 36,000 291 439 0
2019-05-25 23:41:41 GMT 52.092884 3.566319 36,000 291 438 64
2019-05-25 23:41:38 GMT 52.092884 3.566319 36,000 291 438 64
2019-05-25 23:41:35 GMT 52.091534 3.572205 35,975 291 438 64
2019-05-25 23:41:31 GMT 52.088150 3.586578 35,975 291 438 64
2019-05-25 23:41:27 GMT 52.085342 3.598572 35,975 291 435 0
2019-05-25 23:41:24 GMT 52.082783 3.609480 35,975 291 438 64
2019-05-25 23:41:18 GMT 52.078964 3.625645 35,975 291 438 0
2019-05-25 23:41:15 GMT 52.077198 3.633257 35,975 291 438 0
2019-05-25 23:41:12 GMT 52.074005 3.646927 35,975 291 438 0
2019-05-25 23:41:09 GMT 52.072681 3.652405 35,975 291 437 0
2019-05-25 23:41:06 GMT 52.070076 3.663548 35,975 291 437 0
2019-05-25 23:41:03 GMT 52.067505 3.674469 35,975 291 437 0
2019-05-25 23:41:00 GMT 52.065353 3.683701 35,975 291 437 0
2019-05-25 23:40:56 GMT 52.063000 3.693604 35,975 291 437 0
2019-05-25 23:40:53 GMT 52.060822 3.702850 35,975 291 437 0
2019-05-25 23:40:49 GMT 52.058075 3.714600 35,975 291 437 0
2019-05-25 23:40:46 GMT 52.055504 3.725464 35,975 291 436 0
2019-05-25 23:40:43 GMT 52.053543 3.733673 35,975 291 436 0
2019-05-25 23:40:40 GMT 52.051174 3.743591 35,975 291 436 0
2019-05-25 23:40:37 GMT 52.049423 3.751068 35,975 291 436 0
2019-05-25 23:40:34 GMT 52.047592 3.758774 35,975 291 435 0
2019-05-25 23:40:31 GMT 52.045029 3.769684 35,975 291 435 0
2019-05-25 23:40:28 GMT 52.042889 3.778748 35,975 291 435 0
2019-05-25 23:40:25 GMT 52.040932 3.786987 35,975 291 435 0
2019-05-25 23:40:22 GMT 52.038666 3.796539 35,975 291 435 0
2019-05-25 23:40:18 GMT 52.035782 3.808746 35,975 291 435 0
2019-05-25 23:40:15 GMT 52.033493 3.818436 35,975 291 435 0
2019-05-25 23:40:12 GMT 52.031204 3.828186 35,975 291 435 0
2019-05-25 23:40:08 GMT 52.028179 3.840820 35,975 291 435 0
2019-05-25 23:40:04 GMT 52.025986 3.850098 35,975 291 435 0
2019-05-25 23:40:01 GMT 52.022781 3.863678 35,975 291 435 0
2019-05-25 23:39:57 GMT 52.019943 3.875580 35,975 291 435 0
2019-05-25 23:39:54 GMT 52.018169 3.883118 35,975 291 435 0
2019-05-25 23:39:51 GMT 52.016354 3.890730 35,975 292 436 0
2019-05-25 23:39:47 GMT 52.012802 3.905716 35,975 292 436 0
2019-05-25 23:39:44 GMT 52.010628 3.914900 35,975 292 436 0
2019-05-25 23:39:37 GMT 52.006207 3.933419 35,975 292 436 0
2019-05-25 23:39:34 GMT 52.003967 3.942719 36,000 292 436 0
2019-05-25 23:39:31 GMT 51.999081 3.963239 36,000 292 436 0
2019-05-25 23:39:28 GMT 51.999081 3.963239 36,000 292 436 0
2019-05-25 23:39:25 GMT 51.996780 3.972931 35,975 292 436 0
2019-05-25 23:39:22 GMT 51.994518 3.982465 36,000 292 436 0
2019-05-25 23:39:19 GMT 51.991150 3.996506 36,000 292 436 0
2019-05-25 23:39:12 GMT 51.987946 4.009933 36,000 292 438 0
2019-05-25 23:39:09 GMT 51.986000 4.018014 36,000 292 436 0
2019-05-25 23:39:06 GMT 51.983440 4.028765 36,000 292 435 0
2019-05-25 23:39:02 GMT 51.980324 4.041792 36,000 292 436 0
2019-05-25 23:38:59 GMT 51.978504 4.049247 36,000 292 436 0
2019-05-25 23:38:56 GMT 51.975853 4.060390 36,000 292 436 0
2019-05-25 23:38:53 GMT 51.974411 4.066354 36,000 292 436 0
2019-05-25 23:38:50 GMT 51.972198 4.075546 36,000 292 436 -64
2019-05-25 23:38:47 GMT 51.969498 4.086914 36,000 292 437 0
2019-05-25 23:38:43 GMT 51.966248 4.100342 36,000 292 437 0
2019-05-25 23:38:40 GMT 51.964508 4.107590 36,000 292 437 0
2019-05-25 23:38:37 GMT 51.962631 4.115479 36,000 292 437 0
2019-05-25 23:38:34 GMT 51.960251 4.125366 36,000 292 437 0
2019-05-25 23:38:31 GMT 51.957458 4.136963 36,025 292 437 0
2019-05-25 23:38:28 GMT 51.955276 4.145848 36,025 292 437 0
2019-05-25 23:38:25 GMT 51.952576 4.157070 36,025 292 437 0
2019-05-25 23:38:22 GMT 51.948715 4.173050 36,025 292 437 0
2019-05-25 23:38:16 GMT 51.946930 4.180374 36,025 292 438 0
2019-05-25 23:38:13 GMT 51.944710 4.189636 36,025 292 438 0
2019-05-25 23:38:09 GMT 51.941730 4.202035 36,025 292 438 0
2019-05-25 23:38:06 GMT 51.939404 4.211687 36,025 292 439 0
2019-05-25 23:38:03 GMT 51.937042 4.221573 36,025 292 440 0
2019-05-25 23:38:00 GMT 51.935074 4.229660 36,025 292 440 0
2019-05-25 23:37:57 GMT 51.932510 4.240265 36,025 292 440 0
2019-05-25 23:37:54 GMT 51.930511 4.248492 36,025 292 441 0
2019-05-25 23:37:51 GMT 51.928207 4.258118 36,000 292 441 0
2019-05-25 23:37:48 GMT 51.925949 4.267482 36,025 292 441 0
2019-05-25 23:37:45 GMT 51.923813 4.276276 36,000 292 442 0
2019-05-25 23:37:42 GMT 51.921936 4.284210 36,025 292 441 64
2019-05-25 23:37:39 GMT 51.919235 4.295273 36,025 292 441 64
2019-05-25 23:37:34 GMT 51.915569 4.310407 36,000 292 443 64
2019-05-25 23:37:31 GMT 51.913330 4.319687 36,025 292 442 0
2019-05-25 23:37:28 GMT 51.911144 4.328692 36,000 292 442 0
2019-05-25 23:37:25 GMT 51.908890 4.337997 36,000 292 442 0
2019-05-25 23:37:22 GMT 51.903744 4.359140 36,000 292 442 0
2019-05-25 23:37:19 GMT 51.903744 4.359140 36,000 292 442 0
2019-05-25 23:37:16 GMT 51.902115 4.365731 36,025 292 443 0
2019-05-25 23:37:13 GMT 51.899780 4.375305 36,000 292 443 0
2019-05-25 23:37:09 GMT 51.897274 4.385507 36,000 292 443 0
2019-05-25 23:37:06 GMT 51.894974 4.395065 36,000 292 444 0
2019-05-25 23:37:03 GMT 51.891861 4.407967 36,000 292 443 64
2019-05-25 23:37:00 GMT 51.890350 4.413980 36,000 292 443 0
2019-05-25 23:36:57 GMT 51.887970 4.423779 36,000 292 444 0
2019-05-25 23:36:54 GMT 51.885818 4.432686 36,000 292 444 0
2019-05-25 23:36:51 GMT 51.883724 4.441299 36,000 292 444 0
2019-05-25 23:36:47 GMT 51.876846 4.469654 36,000 292 444 0
2019-05-25 23:36:42 GMT 51.876846 4.469654 36,000 292 444 0
2019-05-25 23:36:39 GMT 51.874420 4.479675 36,000 292 444 0
2019-05-25 23:36:36 GMT 51.872498 4.487470 36,000 292 444 0
2019-05-25 23:36:33 GMT 51.869247 4.500757 36,000 292 444 0
2019-05-25 23:36:30 GMT 51.864990 4.518350 36,000 292 445 0
2019-05-25 23:36:27 GMT 51.864990 4.518350 36,000 292 444 0
2019-05-25 23:36:24 GMT 51.863102 4.525909 36,000 292 444 0
2019-05-25 23:36:21 GMT 51.858719 4.543663 36,025 292 444 0
2019-05-25 23:36:15 GMT 51.856632 4.552155 36,025 292 444 0
2019-05-25 23:36:12 GMT 51.854027 4.562607 36,025 292 444 0
2019-05-25 23:36:09 GMT 51.851257 4.573950 36,025 291 445 0
2019-05-25 23:36:06 GMT 51.848949 4.583588 36,000 291 445 0
2019-05-25 23:36:01 GMT 51.846111 4.596100 36,000 290 446 0
2019-05-25 23:35:58 GMT 51.843933 4.606092 36,000 289 446 0
2019-05-25 23:35:55 GMT 51.841782 4.616114 36,000 289 447 0
2019-05-25 23:35:52 GMT 51.837891 4.635637 36,000 288 447 0
2019-05-25 23:35:49 GMT 51.837891 4.635637 36,000 286 450 0
2019-05-25 23:35:46 GMT 51.834614 4.653320 36,025 287 449 0
2019-05-25 23:35:40 GMT 51.832378 4.665909 36,000 286 450 0
2019-05-25 23:35:37 GMT 51.830517 4.676819 36,000 286 450 0
2019-05-25 23:35:34 GMT 51.829605 4.682032 36,000 286 450 0
2019-05-25 23:35:31 GMT 51.827316 4.695096 36,000 286 451 0
2019-05-25 23:35:28 GMT 51.825722 4.704514 36,000 286 450 0
2019-05-25 23:35:25 GMT 51.824249 4.712764 36,025 286 450 64
2019-05-25 23:35:21 GMT 51.821732 4.727387 36,000 286 450 64
2019-05-25 23:35:18 GMT 51.820042 4.737244 36,000 286 450 64
2019-05-25 23:35:15 GMT 51.818436 4.746391 36,000 286 450 0
2019-05-25 23:35:12 GMT 51.816467 4.757600 36,000 286 450 0
2019-05-25 23:35:08 GMT 51.814735 4.767685 36,000 286 450 0
2019-05-25 23:35:05 GMT 51.813248 4.776077 36,000 286 450 0
2019-05-25 23:35:02 GMT 51.811523 4.785882 36,000 286 451 0
2019-05-25 23:34:59 GMT 51.809010 4.800110 36,000 286 451 64
2019-05-25 23:34:56 GMT 51.807846 4.806976 36,000 286 451 64
2019-05-25 23:34:50 GMT 51.804356 4.826889 36,000 286 451 0
2019-05-25 23:34:46 GMT 51.802734 4.836137 36,000 286 451 0
2019-05-25 23:34:43 GMT 51.800262 4.850464 36,000 286 451 0
2019-05-25 23:34:40 GMT 51.798443 4.860687 36,000 286 451 0
2019-05-25 23:34:37 GMT 51.795044 4.880142 36,000 286 451 0
2019-05-25 23:34:34 GMT 51.795044 4.880142 35,975 286 452 0
2019-05-25 23:34:31 GMT 51.792065 4.897156 36,000 286 451 0
2019-05-25 23:34:28 GMT 51.792065 4.897156 36,000 286 451 0
2019-05-25 23:34:25 GMT 51.790714 4.904709 36,000 286 451 0
2019-05-25 23:34:22 GMT 51.786942 4.926255 36,000 286 451 0
2019-05-25 23:34:19 GMT 51.786942 4.926255 36,000 286 451 0
2019-05-25 23:34:16 GMT 51.784988 4.937363 36,000 286 451 0
2019-05-25 23:34:13 GMT 51.783684 4.944763 36,000 286 451 0
2019-05-25 23:34:10 GMT 51.781403 4.957809 36,000 286 451 0
2019-05-25 23:34:07 GMT 51.780426 4.963226 36,000 286 451 0
2019-05-25 23:34:04 GMT 51.778748 4.972798 36,000 286 451 0
2019-05-25 23:34:01 GMT 51.776840 4.983444 36,000 286 450 0
2019-05-25 23:33:58 GMT 51.774933 4.994278 36,000 286 450 0
2019-05-25 23:33:55 GMT 51.773491 5.002518 36,000 286 450 0
2019-05-25 23:33:52 GMT 51.770233 5.020905 36,000 286 450 0
2019-05-25 23:33:46 GMT 51.767857 5.034409 36,000 286 450 0
2019-05-25 23:33:43 GMT 51.764275 5.054398 36,000 286 450 0
2019-05-25 23:33:40 GMT 51.764275 5.054398 36,000 286 450 0
2019-05-25 23:33:37 GMT 51.761246 5.071487 36,000 286 450 0
2019-05-25 23:33:34 GMT 51.761246 5.071487 36,000 286 450 0
2019-05-25 23:33:31 GMT 51.759758 5.079727 36,000 287 449 0
2019-05-25 23:33:28 GMT 51.757851 5.090485 36,000 286 450 0
2019-05-25 23:33:25 GMT 51.756042 5.100551 36,000 286 450 0
2019-05-25 23:33:22 GMT 51.754311 5.110321 36,000 286 450 0
2019-05-25 23:33:19 GMT 51.752380 5.121188 36,000 287 449 0
2019-05-25 23:33:16 GMT 51.750912 5.129395 36,000 287 449 0
2019-05-25 23:33:13 GMT 51.749176 5.139226 36,000 287 449 0
2019-05-25 23:33:10 GMT 51.747421 5.149002 36,000 287 449 0
2019-05-25 23:33:07 GMT 51.745193 5.161273 36,000 286 450 0
2019-05-25 23:33:04 GMT 51.742348 5.177155 36,000 287 449 0
2019-05-25 23:33:01 GMT 51.742348 5.177155 36,000 287 449 0
2019-05-25 23:32:58 GMT 51.739883 5.190743 36,000 287 449 0
2019-05-25 23:32:55 GMT 51.736622 5.208893 36,000 287 449 0
2019-05-25 23:32:52 GMT 51.736622 5.208893 36,025 287 450 0
2019-05-25 23:32:49 GMT 51.735596 5.214691 36,000 287 450 0
2019-05-25 23:32:46 GMT 51.733177 5.228119 36,000 287 450 0
2019-05-25 23:32:42 GMT 51.730755 5.241241 36,025 287 450 0
2019-05-25 23:32:39 GMT 51.729637 5.247498 36,025 287 450 0
2019-05-25 23:32:36 GMT 51.727684 5.258026 36,025 287 449 0
2019-05-25 23:32:33 GMT 51.725647 5.269503 36,025 287 448 0
2019-05-25 23:32:30 GMT 51.724411 5.276333 36,025 287 449 0
2019-05-25 23:32:27 GMT 51.722610 5.286407 36,025 287 449 64
2019-05-25 23:32:24 GMT 51.720558 5.297699 36,025 287 450 0
2019-05-25 23:32:21 GMT 51.718468 5.309296 36,000 287 450 0
2019-05-25 23:32:18 GMT 51.717407 5.315230 36,000 287 450 0
2019-05-25 23:32:14 GMT 51.715118 5.327850 36,000 287 450 64
2019-05-25 23:32:11 GMT 51.713299 5.338135 36,000 287 450 64
2019-05-25 23:32:08 GMT 51.709900 5.357056 36,000 287 450 0
2019-05-25 23:32:02 GMT 51.707947 5.367889 36,000 287 450 0
2019-05-25 23:31:59 GMT 51.706055 5.378401 36,000 287 450 0
2019-05-25 23:31:56 GMT 51.704636 5.386270 36,000 287 450 0
2019-05-25 23:31:53 GMT 51.702713 5.396959 36,000 287 450 0
2019-05-25 23:31:50 GMT 51.701103 5.406036 36,000 287 450 0
2019-05-25 23:31:47 GMT 51.699566 5.414429 36,000 287 450 0
2019-05-25 23:31:44 GMT 51.697815 5.424054 36,000 287 450 0
2019-05-25 23:31:41 GMT 51.695389 5.437490 36,000 287 450 0
2019-05-25 23:31:38 GMT 51.694118 5.444489 36,000 287 450 0
2019-05-25 23:31:35 GMT 51.691956 5.456419 36,000 287 450 0
2019-05-25 23:31:32 GMT 51.690533 5.464249 36,000 287 450 0
2019-05-25 23:31:29 GMT 51.688293 5.476462 36,000 287 450 0
2019-05-25 23:31:26 GMT 51.687286 5.481955 36,000 287 450 0
2019-05-25 23:31:23 GMT 51.684998 5.494574 36,000 287 450 0
2019-05-25 23:31:20 GMT 51.683598 5.502472 36,000 287 450 0
2019-05-25 23:31:17 GMT 51.681519 5.513875 36,000 287 450 0
2019-05-25 23:31:14 GMT 51.680061 5.521774 36,000 287 450 0
2019-05-25 23:31:11 GMT 51.678337 5.531158 36,000 287 450 0
2019-05-25 23:31:08 GMT 51.676521 5.541153 36,000 287 450 0
2019-05-25 23:31:05 GMT 51.674149 5.554199 36,000 287 449 0
2019-05-25 23:31:02 GMT 51.672985 5.560379 36,000 287 450 0
2019-05-25 23:30:59 GMT 51.671307 5.569687 36,000 287 450 0
2019-05-25 23:30:56 GMT 51.669800 5.577788 36,000 287 449 0
2019-05-25 23:30:53 GMT 51.667770 5.588760 36,000 287 449 0
2019-05-25 23:30:50 GMT 51.665630 5.600433 36,000 287 449 0
2019-05-25 23:30:47 GMT 51.664078 5.608892 36,000 287 449 0
2019-05-25 23:30:44 GMT 51.660645 5.627598 36,000 287 449 0
2019-05-25 23:30:41 GMT 51.658173 5.640960 36,000 287 449 0
2019-05-25 23:30:38 GMT 51.658173 5.640960 36,000 287 449 0
2019-05-25 23:30:35 GMT 51.657028 5.647195 36,000 287 449 64
2019-05-25 23:30:32 GMT 51.655472 5.655806 36,000 287 449 0
2019-05-25 23:30:29 GMT 51.653503 5.666644 36,000 287 449 0
2019-05-25 23:30:26 GMT 51.651848 5.675507 36,000 287 449 0
2019-05-25 23:30:23 GMT 51.649429 5.688934 36,000 287 449 0
2019-05-25 23:30:20 GMT 51.648266 5.695267 36,000 287 449 0
2019-05-25 23:30:17 GMT 51.646774 5.703201 36,000 287 448 0
2019-05-25 23:30:14 GMT 51.645218 5.711851 36,000 287 448 64
2019-05-25 23:30:11 GMT 51.642792 5.724916 36,000 287 448 64
2019-05-25 23:30:08 GMT 51.641373 5.732339 36,000 287 449 64
2019-05-25 23:30:05 GMT 51.639652 5.741806 36,000 287 449 0
2019-05-25 23:30:02 GMT 51.638077 5.750378 36,000 287 449 64
2019-05-25 23:29:59 GMT 51.635975 5.761642 36,000 287 449 0
2019-05-25 23:29:56 GMT 51.633694 5.773926 36,000 287 449 0
2019-05-25 23:29:53 GMT 51.631969 5.783310 36,000 287 449 64
2019-05-25 23:29:50 GMT 51.630108 5.793381 36,000 287 449 64
2019-05-25 23:29:47 GMT 51.628109 5.804214 36,000 287 449 64
2019-05-25 23:29:44 GMT 51.626991 5.810318 36,000 287 449 64
2019-05-25 23:29:41 GMT 51.625595 5.817795 36,000 287 449 64
2019-05-25 23:29:38 GMT 51.623451 5.829391 35,975 287 449 0
2019-05-25 23:29:35 GMT 51.621078 5.842361 35,975 287 449 0
2019-05-25 23:29:32 GMT 51.619820 5.848999 35,975 287 447 0
2019-05-25 23:29:29 GMT 51.618565 5.855942 35,975 287 448 0
2019-05-25 23:29:26 GMT 51.616096 5.869293 35,975 287 448 0
2019-05-25 23:29:19 GMT 51.612328 5.889359 35,975 287 447 0
2019-05-25 23:29:16 GMT 51.610184 5.900879 35,975 287 447 0
2019-05-25 23:29:13 GMT 51.608688 5.908937 36,000 287 448 0
2019-05-25 23:29:10 GMT 51.606319 5.921478 36,000 287 447 0
2019-05-25 23:29:06 GMT 51.602829 5.940094 36,000 287 447 0
2019-05-25 23:29:03 GMT 51.602829 5.940094 36,000 287 447 0
2019-05-25 23:28:59 GMT 51.600361 5.953293 36,000 287 447 0
2019-05-25 23:28:56 GMT 51.598499 5.962982 36,000 287 447 0
2019-05-25 23:28:53 GMT 51.596375 5.974261 36,000 287 447 0
2019-05-25 23:28:50 GMT 51.594402 5.984802 36,000 287 447 0
2019-05-25 23:28:47 GMT 51.592896 5.992968 36,000 287 447 0
2019-05-25 23:28:44 GMT 51.591751 5.999055 36,000 287 447 64
2019-05-25 23:28:41 GMT 51.589561 6.010590 36,000 287 447 0
2019-05-25 23:28:38 GMT 51.587608 6.020966 36,000 287 447 0
2019-05-25 23:28:35 GMT 51.585571 6.031940 36,000 287 447 0
2019-05-25 23:28:32 GMT 51.582626 6.047592 36,000 287 447 0
2019-05-25 23:28:29 GMT 51.580811 6.057104 36,000 288 447 0
2019-05-25 23:28:26 GMT 51.580811 6.057104 36,000 287 446 0
2019-05-25 23:28:23 GMT 51.578430 6.070169 35,975 287 447 0
2019-05-25 23:28:20 GMT 51.576992 6.077728 36,000 287 447 0
2019-05-25 23:28:17 GMT 51.575596 6.085281 36,000 287 447 0
2019-05-25 23:28:14 GMT 51.572800 6.100307 36,000 287 447 0
2019-05-25 23:28:11 GMT 51.571918 6.104889 36,000 287 447 0
2019-05-25 23:28:08 GMT 51.570145 6.114485 36,000 287 448 0
2019-05-25 23:28:05 GMT 51.567902 6.126288 36,000 287 447 0
2019-05-25 23:28:01 GMT 51.565292 6.140244 36,000 287 447 0
2019-05-25 23:27:58 GMT 51.563866 6.147766 36,000 287 448 0
2019-05-25 23:27:55 GMT 51.561630 6.159693 36,000 287 448 0
2019-05-25 23:27:51 GMT 51.559814 6.169281 36,000 287 447 0
2019-05-25 23:27:48 GMT 51.557861 6.179657 36,000 287 447 0
2019-05-25 23:27:45 GMT 51.556324 6.187668 36,000 287 448 0
2019-05-25 23:27:42 GMT 51.554764 6.195918 36,000 287 448 0
2019-05-25 23:27:39 GMT 51.552647 6.207199 36,000 287 448 0
2019-05-25 23:27:36 GMT 51.550365 6.219254 36,000 287 447 0
2019-05-25 23:27:33 GMT 51.549248 6.225052 36,000 287 447 0
2019-05-25 23:27:30 GMT 51.546501 6.239471 36,000 287 447 0
2019-05-25 23:27:27 GMT 51.544922 6.247880 36,000 287 447 0
2019-05-25 23:27:24 GMT 51.543335 6.256104 36,000 287 447 0
2019-05-25 23:27:21 GMT 51.541397 6.266364 36,000 287 447 0
2019-05-25 23:27:18 GMT 51.539799 6.274719 36,000 288 448 0
2019-05-25 23:27:15 GMT 51.538010 6.284105 36,000 287 447 0
2019-05-25 23:27:12 GMT 51.536076 6.294250 36,000 287 447 0
2019-05-25 23:27:08 GMT 51.533844 6.306004 36,000 287 447 0
2019-05-25 23:27:05 GMT 51.532070 6.315308 36,000 288 447 0
2019-05-25 23:27:02 GMT 51.530273 6.324636 36,000 287 447 0
2019-05-25 23:26:58 GMT 51.527229 6.340790 36,000 288 447 0
2019-05-25 23:26:55 GMT 51.525787 6.348242 36,000 287 447 0
2019-05-25 23:26:52 GMT 51.524231 6.356704 36,000 287 447 0
2019-05-25 23:26:48 GMT 51.521503 6.371078 36,025 288 447 0
2019-05-25 23:26:45 GMT 51.518234 6.388179 36,000 288 447 0
2019-05-25 23:26:42 GMT 51.518234 6.388179 36,000 288 447 0
2019-05-25 23:26:39 GMT 51.516129 6.399091 36,025 288 447 0
2019-05-25 23:26:36 GMT 51.514336 6.408463 36,000 288 447 0
2019-05-25 23:26:31 GMT 51.511772 6.421890 36,000 288 448 0
2019-05-25 23:26:27 GMT 51.508327 6.439819 36,025 288 447 0
2019-05-25 23:26:24 GMT 51.507248 6.445486 36,000 287 448 0
2019-05-25 23:26:21 GMT 51.505325 6.455433 36,025 287 448 0
2019-05-25 23:26:18 GMT 51.503487 6.464920 36,025 288 448 0
2019-05-25 23:26:14 GMT 51.500473 6.480746 36,000 287 448 0
2019-05-25 23:26:11 GMT 51.499283 6.486981 36,000 288 449 64
2019-05-25 23:26:08 GMT 51.496857 6.499675 36,000 288 448 0
2019-05-25 23:26:05 GMT 51.495575 6.506430 36,000 288 448 0
2019-05-25 23:26:02 GMT 51.493385 6.517639 36,000 288 448 0
2019-05-25 23:25:59 GMT 51.491196 6.529160 36,000 288 449 0
2019-05-25 23:25:53 GMT 51.487568 6.548080 36,000 288 449 0
2019-05-25 23:25:50 GMT 51.485779 6.557353 36,000 288 449 0
2019-05-25 23:25:47 GMT 51.484543 6.563811 36,000 288 449 0
2019-05-25 23:25:43 GMT 51.481377 6.580200 36,000 288 449 0
2019-05-25 23:25:40 GMT 51.480209 6.586151 36,000 288 449 0
2019-05-25 23:25:37 GMT 51.476486 6.605530 36,000 288 449 0
2019-05-25 23:25:30 GMT 51.474068 6.617966 36,000 288 450 0
2019-05-25 23:25:27 GMT 51.472321 6.627057 36,000 288 449 0
2019-05-25 23:25:24 GMT 51.468384 6.647322 36,000 288 450 0
2019-05-25 23:25:21 GMT 51.468384 6.647322 36,000 288 450 0
2019-05-25 23:25:18 GMT 51.466759 6.655731 36,000 288 450 0
2019-05-25 23:25:15 GMT 51.463531 6.672487 36,000 288 450 0
2019-05-25 23:25:09 GMT 51.461243 6.684216 36,000 288 448 0
2019-05-25 23:25:06 GMT 51.459076 6.695328 36,000 288 449 0
2019-05-25 23:25:02 GMT 51.456703 6.707535 36,000 288 449 0
2019-05-25 23:24:59 GMT 51.454605 6.718511 36,000 288 449 0
2019-05-25 23:24:56 GMT 51.453323 6.725117 36,000 288 449 0
2019-05-25 23:24:53 GMT 51.451584 6.734009 36,000 288 449 0
2019-05-25 23:24:50 GMT 51.449615 6.744047 36,000 288 449 0
2019-05-25 23:24:47 GMT 51.447510 6.754884 36,000 288 449 0
2019-05-25 23:24:44 GMT 51.443436 6.775744 36,000 288 449 0
2019-05-25 23:24:41 GMT 51.443436 6.775744 36,000 288 448 0
2019-05-25 23:24:38 GMT 51.439774 6.794524 36,000 288 448 0
2019-05-25 23:24:35 GMT 51.439774 6.794524 36,000 288 448 0
2019-05-25 23:24:32 GMT 51.438583 6.800686 36,000 288 448 0
2019-05-25 23:24:29 GMT 51.436432 6.811598 36,000 288 432 -64
2019-05-25 23:24:25 GMT 51.433823 6.824737 36,000 288 448 0
2019-05-25 23:24:22 GMT 51.432220 6.832902 36,000 288 447 0
2019-05-25 23:24:19 GMT 51.430161 6.843443 36,000 288 448 0
2019-05-25 23:24:16 GMT 51.428261 6.853256 36,000 288 445 0
2019-05-25 23:24:13 GMT 51.424488 6.872635 36,000 288 447 0
2019-05-25 23:24:10 GMT 51.424488 6.872635 36,000 288 447 0
2019-05-25 23:24:07 GMT 51.423183 6.879272 36,000 288 447 0
2019-05-25 23:24:04 GMT 51.420765 6.891708 36,000 288 446 0
2019-05-25 23:24:00 GMT 51.419037 6.900453 36,000 288 445 0
2019-05-25 23:23:57 GMT 51.417088 6.910477 36,000 288 445 0
2019-05-25 23:23:54 GMT 51.414528 6.923523 36,000 288 444 0
2019-05-25 23:23:51 GMT 51.413040 6.930963 36,000 288 443 0
2019-05-25 23:23:48 GMT 51.411392 6.939499 36,000 288 442 0
2019-05-25 23:23:44 GMT 51.408382 6.954651 36,000 288 441 0
2019-05-25 23:23:41 GMT 51.406906 6.962066 36,000 288 441 0
2019-05-25 23:23:38 GMT 51.404984 6.971893 36,000 288 440 0
2019-05-25 23:23:34 GMT 51.400978 6.991959 36,000 288 439 0
2019-05-25 23:23:31 GMT 51.400978 6.991959 36,000 288 438 0
2019-05-25 23:23:28 GMT 51.398651 7.003860 36,000 288 438 0
2019-05-25 23:23:24 GMT 51.394318 7.025831 36,000 288 436 64
2019-05-25 23:23:21 GMT 51.394318 7.025831 36,000 288 432 -64
2019-05-25 23:23:18 GMT 51.392693 7.034073 36,000 288 434 128
2019-05-25 23:23:15 GMT 51.390793 7.043647 36,000 288 434 64
2019-05-25 23:23:11 GMT 51.388092 7.057602 36,000 288 433 0
2019-05-25 23:23:08 GMT 51.386501 7.065659 36,000 288 433 0
2019-05-25 23:23:05 GMT 51.384933 7.073636 36,000 288 433 0
2019-05-25 23:23:02 GMT 51.381454 7.091378 36,000 288 432 -64
2019-05-25 23:22:56 GMT 51.379566 7.100754 36,000 288 432 -64
2019-05-25 23:22:53 GMT 51.377937 7.109146 36,000 288 432 -64
2019-05-25 23:22:49 GMT 51.375515 7.121429 36,000 288 432 -64
2019-05-25 23:22:46 GMT 51.372894 7.134581 36,000 288 432 -64
2019-05-25 23:22:43 GMT 51.371613 7.141188 36,000 288 433 0
2019-05-25 23:22:37 GMT 51.367996 7.159300 36,000 288 433 0
2019-05-25 23:22:34 GMT 51.366158 7.168503 36,000 288 433 0
2019-05-25 23:22:31 GMT 51.364620 7.176208 36,025 288 433 0
2019-05-25 23:22:28 GMT 51.362480 7.186966 36,025 288 433 0
2019-05-25 23:22:25 GMT 51.359207 7.203245 36,025 288 433 0
2019-05-25 23:22:22 GMT 51.359207 7.203245 36,025 288 433 0
2019-05-25 23:22:19 GMT 51.357147 7.213638 36,025 288 433 0
2019-05-25 23:22:16 GMT 51.355171 7.223358 36,025 288 433 0
2019-05-25 23:22:13 GMT 51.353210 7.233235 36,025 288 433 0
2019-05-25 23:22:10 GMT 51.351585 7.241211 36,025 288 433 0
2019-05-25 23:22:07 GMT 51.348404 7.257212 36,025 288 434 0
2019-05-25 23:22:01 GMT 51.346512 7.266541 36,025 288 434 0
2019-05-25 23:21:58 GMT 51.344326 7.277679 36,025 288 435 64
2019-05-25 23:21:54 GMT 51.341995 7.289132 36,025 288 435 0
2019-05-25 23:21:51 GMT 51.340508 7.296677 36,025 288 435 0
2019-05-25 23:21:48 GMT 51.338287 7.307764 36,025 288 435 0
2019-05-25 23:21:45 GMT 51.336365 7.317429 36,025 288 435 0
2019-05-25 23:21:42 GMT 51.334225 7.328110 36,025 288 435 0
2019-05-25 23:21:39 GMT 51.332657 7.335972 36,025 288 435 64
2019-05-25 23:21:36 GMT 51.330231 7.347849 36,025 288 435 64
2019-05-25 23:21:33 GMT 51.329041 7.353862 36,025 288 435 64
2019-05-25 23:21:30 GMT 51.324589 7.375793 36,025 288 435 64
2019-05-25 23:21:27 GMT 51.324589 7.375793 36,025 288 435 64
2019-05-25 23:21:24 GMT 51.321030 7.393502 36,000 288 435 64
2019-05-25 23:21:20 GMT 51.321030 7.393502 36,000 288 436 64
2019-05-25 23:21:17 GMT 51.319107 7.403226 36,025 288 436 64
2019-05-25 23:21:14 GMT 51.316681 7.415178 36,000 288 437 64
2019-05-25 23:21:11 GMT 51.315556 7.420807 36,000 288 437 0
2019-05-25 23:21:07 GMT 51.313507 7.431107 36,000 288 436 64
2019-05-25 23:21:04 GMT 51.310715 7.444992 36,000 288 437 0
2019-05-25 23:21:01 GMT 51.309036 7.453333 36,000 288 437 0
2019-05-25 23:20:57 GMT 51.307129 7.462769 36,000 288 437 0
2019-05-25 23:20:53 GMT 51.304428 7.476120 36,000 289 437 0
2019-05-25 23:20:50 GMT 51.302288 7.486649 36,000 288 437 64
2019-05-25 23:20:47 GMT 51.300613 7.494977 36,000 288 437 64
2019-05-25 23:20:44 GMT 51.298611 7.504807 36,000 288 437 64
2019-05-25 23:20:41 GMT 51.294655 7.524261 36,000 288 437 64
2019-05-25 23:20:38 GMT 51.294655 7.524261 36,000 288 437 64
2019-05-25 23:20:35 GMT 51.293350 7.530823 36,000 288 437 64
2019-05-25 23:20:32 GMT 51.291164 7.541504 35,975 288 437 64
2019-05-25 23:20:29 GMT 51.288986 7.552136 35,975 288 437 64
2019-05-25 23:20:26 GMT 51.287704 7.558371 35,975 288 437 64
2019-05-25 23:20:23 GMT 51.285507 7.569209 35,975 288 437 64
2019-05-25 23:20:19 GMT 51.282944 7.581680 35,975 288 437 0
2019-05-25 23:20:16 GMT 51.281433 7.589029 35,975 288 438 0
2019-05-25 23:20:13 GMT 51.279282 7.599644 35,975 289 437 0
2019-05-25 23:20:10 GMT 51.277431 7.608719 35,975 288 438 0
2019-05-25 23:20:07 GMT 51.275482 7.618276 35,975 289 437 0
2019-05-25 23:20:04 GMT 51.273750 7.626572 35,975 289 437 0
2019-05-25 23:20:01 GMT 51.268799 7.650641 35,975 288 437 0
2019-05-25 23:19:57 GMT 51.268799 7.650641 35,975 288 437 0
2019-05-25 23:19:54 GMT 51.267838 7.655466 35,975 288 439 0
2019-05-25 23:19:51 GMT 51.264954 7.669678 35,975 288 438 0
2019-05-25 23:19:47 GMT 51.263184 7.678375 35,975 288 438 0
2019-05-25 23:19:44 GMT 51.261089 7.688599 35,975 288 438 0
2019-05-25 23:19:41 GMT 51.259094 7.698373 35,975 288 438 0
2019-05-25 23:19:38 GMT 51.257538 7.705944 35,975 288 438 0
2019-05-25 23:19:35 GMT 51.255642 7.715149 35,975 288 438 0
2019-05-25 23:19:32 GMT 51.251404 7.736008 35,975 288 438 0
2019-05-25 23:19:29 GMT 51.249023 7.747737 35,975 288 438 0
2019-05-25 23:19:26 GMT 51.249023 7.747737 35,975 289 438 0
2019-05-25 23:19:23 GMT 51.247787 7.753750 35,975 289 438 0
2019-05-25 23:19:20 GMT 51.246052 7.762146 35,975 289 438 0
2019-05-25 23:19:16 GMT 51.243355 7.775421 35,975 288 438 0
2019-05-25 23:19:13 GMT 51.242096 7.781372 35,975 288 439 0
2019-05-25 23:19:10 GMT 51.239628 7.793655 35,975 288 438 0
2019-05-25 23:19:07 GMT 51.237991 7.801703 35,975 288 439 0
2019-05-25 23:19:04 GMT 51.235859 7.812195 35,975 288 439 0
2019-05-25 23:19:01 GMT 51.234146 7.820484 35,975 288 439 0
2019-05-25 23:18:58 GMT 51.232227 7.830048 35,975 288 439 0
2019-05-25 23:18:55 GMT 51.230392 7.839116 35,975 288 439 0
2019-05-25 23:18:52 GMT 51.228085 7.850418 35,975 288 439 0
2019-05-25 23:18:49 GMT 51.225082 7.865023 35,975 289 439 0
2019-05-25 23:18:46 GMT 51.225082 7.865023 35,975 289 439 0
2019-05-25 23:18:43 GMT 51.223103 7.874680 35,975 289 439 0
2019-05-25 23:18:40 GMT 51.217850 7.900358 35,975 289 439 0
2019-05-25 23:18:36 GMT 51.217850 7.900358 35,975 289 439 0
2019-05-25 23:18:33 GMT 51.216568 7.906445 35,975 289 439 0
2019-05-25 23:18:30 GMT 51.214096 7.918544 36,000 289 439 -64
2019-05-25 23:18:27 GMT 51.212769 7.925003 36,000 289 439 0
2019-05-25 23:18:24 GMT 51.210533 7.935791 36,000 289 438 0
2019-05-25 23:18:20 GMT 51.208347 7.946396 36,000 289 439 0
2019-05-25 23:18:17 GMT 51.206406 7.955735 36,000 289 440 0
2019-05-25 23:18:14 GMT 51.204483 7.965088 36,000 289 440 0
2019-05-25 23:18:11 GMT 51.202560 7.974441 36,000 289 440 0
2019-05-25 23:18:08 GMT 51.200089 7.986096 36,000 289 440 0
2019-05-25 23:18:05 GMT 51.198853 7.992257 36,000 289 440 0
2019-05-25 23:18:02 GMT 51.196941 8.001328 36,000 289 441 0
2019-05-25 23:17:59 GMT 51.194241 8.014297 36,000 289 441 0
2019-05-25 23:17:55 GMT 51.191772 8.026276 36,000 289 441 0
2019-05-25 23:17:52 GMT 51.190613 8.031748 36,000 289 441 0
2019-05-25 23:17:49 GMT 51.188747 8.040848 36,000 289 441 0
2019-05-25 23:17:46 GMT 51.186813 8.050158 36,000 289 442 0
2019-05-25 23:17:43 GMT 51.184883 8.059464 36,000 289 442 0
2019-05-25 23:17:39 GMT 51.182648 8.070221 36,000 289 442 0
2019-05-25 23:17:36 GMT 51.179901 8.083496 36,000 289 442 0
2019-05-25 23:17:33 GMT 51.176559 8.099373 36,000 289 442 64
2019-05-25 23:17:30 GMT 51.176559 8.099373 36,000 289 442 64
2019-05-25 23:17:27 GMT 51.173950 8.111770 36,000 289 443 64
2019-05-25 23:17:24 GMT 51.170517 8.128101 36,000 289 443 64
2019-05-25 23:17:21 GMT 51.170517 8.128101 36,000 289 443 64
2019-05-25 23:17:18 GMT 51.168358 8.138351 36,000 289 443 64
2019-05-25 23:17:15 GMT 51.166729 8.145905 36,000 289 443 64
2019-05-25 23:17:11 GMT 51.163284 8.162231 36,000 289 443 64
2019-05-25 23:17:08 GMT 51.161423 8.170853 36,000 289 443 64
2019-05-25 23:17:04 GMT 51.159805 8.178505 35,975 290 444 64
2019-05-25 23:17:01 GMT 51.156815 8.192825 35,975 289 445 0
2019-05-25 23:16:58 GMT 51.155548 8.198770 35,975 289 444 0
2019-05-25 23:16:55 GMT 51.153351 8.209237 35,975 289 444 0
2019-05-25 23:16:52 GMT 51.151886 8.216363 35,975 289 445 0
2019-05-25 23:16:48 GMT 51.148899 8.230591 35,975 289 445 0
2019-05-25 23:16:45 GMT 51.146896 8.240117 35,975 289 445 -64
2019-05-25 23:16:42 GMT 51.145203 8.248357 35,975 289 445 0
2019-05-25 23:16:38 GMT 51.142731 8.260011 35,975 289 445 -64
2019-05-25 23:16:35 GMT 51.140396 8.271146 35,975 289 444 -64
2019-05-25 23:16:32 GMT 51.138748 8.278941 35,975 289 445 -64
2019-05-25 23:16:27 GMT 51.135490 8.294373 36,000 289 445 -64
2019-05-25 23:16:24 GMT 51.133259 8.305054 36,000 289 445 -64
2019-05-25 23:16:21 GMT 51.131626 8.312531 36,000 289 446 -64
2019-05-25 23:16:18 GMT 51.128975 8.325195 36,000 289 445 -64
2019-05-25 23:16:15 GMT 51.127350 8.332833 36,000 289 445 0
2019-05-25 23:16:12 GMT 51.125111 8.343658 36,000 289 445 -64
2019-05-25 23:16:09 GMT 51.123760 8.349915 36,000 289 445 -64
2019-05-25 23:16:06 GMT 51.121155 8.362503 36,025 289 446 -64
2019-05-25 23:16:03 GMT 51.119522 8.370172 36,025 289 445 0
2019-05-25 23:16:00 GMT 51.117920 8.377743 36,025 289 445 -64
2019-05-25 23:15:57 GMT 51.115356 8.389992 36,025 289 445 0
2019-05-25 23:15:53 GMT 51.113068 8.400904 36,025 289 446 0
2019-05-25 23:15:50 GMT 51.110680 8.412247 36,025 289 446 0
2019-05-25 23:15:46 GMT 51.106384 8.432378 36,025 289 446 0
2019-05-25 23:15:43 GMT 51.106384 8.432378 36,025 289 446 0
2019-05-25 23:15:40 GMT 51.104965 8.438985 36,025 289 447 64
2019-05-25 23:15:37 GMT 51.102627 8.450012 36,025 289 447 64
2019-05-25 23:15:33 GMT 51.099564 8.464372 36,025 289 447 0
2019-05-25 23:15:30 GMT 51.097046 8.476026 36,025 289 448 0
2019-05-25 23:15:26 GMT 51.094391 8.488423 36,025 289 447 0
2019-05-25 23:15:23 GMT 51.093018 8.495030 36,025 289 447 0
2019-05-25 23:15:20 GMT 51.091278 8.502973 36,025 289 448 0
2019-05-25 23:15:17 GMT 51.089314 8.512192 36,025 289 448 64
2019-05-25 23:15:14 GMT 51.087170 8.522110 36,000 289 451 0
2019-05-25 23:15:10 GMT 51.084915 8.532814 36,025 289 449 64
2019-05-25 23:15:07 GMT 51.082352 8.544988 36,025 289 449 0
2019-05-25 23:15:04 GMT 51.079834 8.556717 36,025 289 450 0
2019-05-25 23:15:00 GMT 51.077908 8.565979 36,000 289 449 64
2019-05-25 23:14:57 GMT 51.075714 8.576314 36,025 289 449 64
2019-05-25 23:14:54 GMT 51.074112 8.583960 36,025 289 450 0
2019-05-25 23:14:51 GMT 51.069714 8.604813 36,000 289 451 0
2019-05-25 23:14:48 GMT 51.069714 8.604813 36,000 289 451 0
2019-05-25 23:14:44 GMT 51.067291 8.616333 36,000 289 451 0
2019-05-25 23:14:40 GMT 51.064911 8.627608 36,025 289 451 -64
2019-05-25 23:14:37 GMT 51.063290 8.635330 36,025 289 451 0
2019-05-25 23:14:34 GMT 51.060452 8.648682 36,025 289 451 0
2019-05-25 23:14:31 GMT 51.058731 8.656781 36,025 289 451 -64
2019-05-25 23:14:28 GMT 51.056213 8.668671 36,025 289 451 -64
2019-05-25 23:14:24 GMT 51.054291 8.677937 36,025 289 451 0
2019-05-25 23:14:21 GMT 51.051418 8.691483 36,025 289 451 0
2019-05-25 23:14:17 GMT 51.049347 8.701395 36,025 289 451 0
2019-05-25 23:14:14 GMT 51.047417 8.710709 36,025 289 451 64
2019-05-25 23:14:11 GMT 51.045551 8.719482 36,025 289 452 64
2019-05-25 23:14:08 GMT 51.043457 8.729477 36,000 289 451 64
2019-05-25 23:14:05 GMT 51.041565 8.738511 36,025 289 451 64
2019-05-25 23:14:01 GMT 51.038105 8.754425 36,025 290 451 64
2019-05-25 23:13:56 GMT 51.033497 8.774948 36,025 291 450 64
2019-05-25 23:13:50 GMT 51.031082 8.785202 36,000 291 450 0
2019-05-25 23:13:47 GMT 51.028889 8.794403 36,000 291 450 0
2019-05-25 23:13:44 GMT 51.026608 8.803864 36,025 291 450 0
2019-05-25 23:13:40 GMT 51.023533 8.816681 36,000 291 450 0
2019-05-25 23:13:37 GMT 51.021423 8.825510 36,000 291 450 -64
2019-05-25 23:13:33 GMT 51.014832 8.852754 36,025 291 450 -64
2019-05-25 23:13:29 GMT 51.014832 8.852754 36,025 291 450 -64
2019-05-25 23:13:26 GMT 51.013733 8.857207 36,025 291 450 -64
2019-05-25 23:13:23 GMT 51.010803 8.869530 36,025 291 450 0
2019-05-25 23:13:20 GMT 51.009018 8.876879 36,025 291 450 0
2019-05-25 23:13:17 GMT 51.006042 8.889201 36,025 291 450 0
2019-05-25 23:13:12 GMT 51.003021 8.901747 36,025 291 450 0
2019-05-25 23:13:09 GMT 51.000771 8.911057 36,025 291 450 64
2019-05-25 23:13:06 GMT 50.998394 8.921051 36,025 291 450 64
2019-05-25 23:13:02 GMT 50.994762 8.936081 36,025 291 450 0
2019-05-25 23:12:59 GMT 50.993275 8.942184 36,025 291 450 0
2019-05-25 23:12:56 GMT 50.990620 8.953094 36,025 291 450 0
2019-05-25 23:12:52 GMT 50.987968 8.964233 36,025 291 450 0
2019-05-25 23:12:49 GMT 50.985535 8.974271 36,025 291 450 0
2019-05-25 23:12:46 GMT 50.983658 8.982066 36,025 292 451 0
2019-05-25 23:12:43 GMT 50.981312 8.991852 36,025 291 450 64
2019-05-25 23:12:38 GMT 50.977661 9.006859 36,025 291 450 64
2019-05-25 23:12:35 GMT 50.975235 9.016955 36,025 291 450 64
2019-05-25 23:12:31 GMT 50.971802 9.031133 36,025 292 450 0
2019-05-25 23:12:28 GMT 50.969952 9.038773 36,025 292 451 0
2019-05-25 23:12:25 GMT 50.967224 9.049988 36,025 292 451 0
2019-05-25 23:12:22 GMT 50.965576 9.056702 36,025 292 450 0
2019-05-25 23:12:19 GMT 50.962456 9.069443 36,025 292 450 0
2019-05-25 23:12:16 GMT 50.960129 9.078864 36,025 292 450 0
2019-05-25 23:12:13 GMT 50.959293 9.082260 36,025 292 450 0
2019-05-25 23:12:10 GMT 50.956787 9.092448 36,025 292 450 0
2019-05-25 23:12:07 GMT 50.954178 9.103064 36,025 292 450 0
2019-05-25 23:12:02 GMT 50.950928 9.116277 36,025 292 450 0
2019-05-25 23:11:59 GMT 50.948135 9.127560 36,025 292 451 0
2019-05-25 23:11:56 GMT 50.945232 9.139557 36,025 292 450 64
2019-05-25 23:11:52 GMT 50.942905 9.149094 36,025 292 450 64
2019-05-25 23:11:49 GMT 50.939835 9.161530 36,025 292 450 0
2019-05-25 23:11:46 GMT 50.938389 9.167480 36,025 292 450 64
2019-05-25 23:11:42 GMT 50.933128 9.188766 36,025 292 450 64
2019-05-25 23:11:39 GMT 50.933128 9.188766 36,000 292 450 64
2019-05-25 23:11:36 GMT 50.930103 9.201126 36,025 292 450 64
2019-05-25 23:11:33 GMT 50.928986 9.205856 36,000 292 450 64
2019-05-25 23:11:30 GMT 50.926239 9.217072 36,000 292 450 64
2019-05-25 23:11:27 GMT 50.923920 9.226437 36,000 292 450 64
2019-05-25 23:11:24 GMT 50.922134 9.233712 36,000 292 450 64
2019-05-25 23:11:21 GMT 50.919434 9.244698 36,000 292 450 64
2019-05-25 23:11:18 GMT 50.917164 9.253998 36,000 292 450 64
2019-05-25 23:11:12 GMT 50.912086 9.274826 36,000 291 449 64
2019-05-25 23:11:09 GMT 50.910507 9.281443 36,000 291 449 64
2019-05-25 23:11:06 GMT 50.908585 9.289312 36,000 291 449 64
2019-05-25 23:11:03 GMT 50.905197 9.303207 35,975 292 450 64
2019-05-25 23:11:00 GMT 50.904099 9.307721 35,975 292 449 64
2019-05-25 23:10:57 GMT 50.901306 9.319079 35,975 292 449 64
2019-05-25 23:10:54 GMT 50.899429 9.326576 35,975 292 449 64
2019-05-25 23:10:51 GMT 50.896866 9.336968 35,975 292 449 64
2019-05-25 23:10:48 GMT 50.894630 9.346085 35,975 292 449 0
2019-05-25 23:10:44 GMT 50.891830 9.357308 35,975 292 449 0
2019-05-25 23:10:40 GMT 50.888580 9.370499 35,975 292 449 0
2019-05-25 23:10:37 GMT 50.886383 9.379429 35,975 292 449 0
2019-05-25 23:10:34 GMT 50.883968 9.389191 35,975 292 449 0
2019-05-25 23:10:30 GMT 50.881393 9.399546 35,975 292 448 64
2019-05-25 23:10:27 GMT 50.878990 9.409409 35,975 292 448 64
2019-05-25 23:10:24 GMT 50.876614 9.418945 35,975 292 448 64
2019-05-25 23:10:21 GMT 50.874435 9.427903 35,950 292 447 0
2019-05-25 23:10:18 GMT 50.872051 9.437561 35,975 292 447 0
2019-05-25 23:10:15 GMT 50.869263 9.448762 35,950 292 447 0
2019-05-25 23:10:10 GMT 50.866425 9.460268 35,950 292 447 0
2019-05-25 23:10:07 GMT 50.863815 9.470809 35,950 292 447 0
2019-05-25 23:10:03 GMT 50.860973 9.482346 35,950 292 446 0
2019-05-25 23:09:58 GMT 50.857452 9.496344 35,950 292 446 0
2019-05-25 23:09:53 GMT 50.853340 9.513016 35,950 292 446 0
2019-05-25 23:09:48 GMT 50.849625 9.527893 35,950 292 446 0
2019-05-25 23:09:45 GMT 50.847382 9.537048 35,950 292 445 0
2019-05-25 23:09:42 GMT 50.845005 9.546509 35,950 292 446 0
2019-05-25 23:09:37 GMT 50.838303 9.573288 35,950 292 446 0
2019-05-25 23:09:34 GMT 50.838303 9.573288 35,950 292 446 0
2019-05-25 23:09:31 GMT 50.836815 9.579315 35,950 292 446 0
2019-05-25 23:09:28 GMT 50.834564 9.588244 35,975 292 445 -64
2019-05-25 23:09:25 GMT 50.832157 9.597855 35,975 292 445 0
2019-05-25 23:09:22 GMT 50.827377 9.616823 35,975 292 445 0
2019-05-25 23:09:19 GMT 50.827377 9.616823 35,975 292 444 0
2019-05-25 23:09:16 GMT 50.824802 9.627075 35,975 292 445 0
2019-05-25 23:09:13 GMT 50.822937 9.634416 35,975 292 444 64
2019-05-25 23:09:10 GMT 50.818611 9.651642 35,975 292 445 0
2019-05-25 23:09:07 GMT 50.815063 9.665593 35,975 292 445 0
2019-05-25 23:09:03 GMT 50.813023 9.673767 35,975 292 445 0
2019-05-25 23:08:57 GMT 50.810669 9.683038 35,975 292 445 -64
2019-05-25 23:08:53 GMT 50.807327 9.696474 35,975 292 445 -64
2019-05-25 23:08:50 GMT 50.805679 9.703006 35,975 292 445 0
2019-05-25 23:08:46 GMT 50.802612 9.715403 35,975 292 445 0
2019-05-25 23:08:42 GMT 50.799011 9.729919 35,975 292 445 0
2019-05-25 23:08:39 GMT 50.796616 9.739528 36,000 292 445 -64
2019-05-25 23:08:36 GMT 50.794312 9.748688 36,000 292 445 0
2019-05-25 23:08:31 GMT 50.791031 9.761798 36,000 292 444 0
2019-05-25 23:08:26 GMT 50.786816 9.778595 36,000 292 445 -64
2019-05-25 23:08:23 GMT 50.785278 9.784698 35,975 292 444 0
2019-05-25 23:08:20 GMT 50.782764 9.794693 36,000 292 445 0
2019-05-25 23:08:17 GMT 50.780228 9.804852 36,000 292 445 -64
2019-05-25 23:08:14 GMT 50.777878 9.814224 36,000 292 446 -64
2019-05-25 23:08:10 GMT 50.774803 9.826508 36,025 292 445 0
2019-05-25 23:08:06 GMT 50.772011 9.837646 36,000 292 446 0
2019-05-25 23:08:01 GMT 50.768417 9.851916 36,000 292 446 -64
2019-05-25 23:07:58 GMT 50.766495 9.859561 36,000 292 446 -64
2019-05-25 23:07:55 GMT 50.763153 9.872775 36,025 292 446 0
2019-05-25 23:07:52 GMT 50.761166 9.880524 36,025 292 446 0
2019-05-25 23:07:48 GMT 50.758896 9.889477 36,000 292 446 0
2019-05-25 23:07:45 GMT 50.755875 9.901428 36,000 292 447 0
2019-05-25 23:07:42 GMT 50.753906 9.909000 36,025 292 447 0
2019-05-25 23:07:39 GMT 50.751671 9.917908 36,025 292 446 0
2019-05-25 23:07:34 GMT 50.747726 9.933274 36,025 292 448 0
2019-05-25 23:07:31 GMT 50.745804 9.940796 36,025 292 448 0
2019-05-25 23:07:28 GMT 50.743469 9.950050 36,025 292 448 0
2019-05-25 23:07:24 GMT 50.739704 9.964828 36,025 292 448 0
2019-05-25 23:07:21 GMT 50.737518 9.973433 36,025 292 448 64
2019-05-25 23:07:17 GMT 50.734631 9.984741 36,025 292 448 64
2019-05-25 23:07:13 GMT 50.731743 9.996109 36,000 292 448 64
2019-05-25 23:07:10 GMT 50.729092 10.006638 36,000 292 451 0
2019-05-25 23:07:07 GMT 50.726852 10.015597 36,025 292 450 -64
2019-05-25 23:07:03 GMT 50.723648 10.028068 36,025 292 450 -64
2019-05-25 23:07:00 GMT 50.721363 10.037155 36,025 292 451 0
2019-05-25 23:06:56 GMT 50.718338 10.049210 36,000 292 450 0
2019-05-25 23:06:52 GMT 50.714893 10.062790 36,025 292 450 64
2019-05-25 23:06:49 GMT 50.712936 10.070529 36,025 292 450 64
2019-05-25 23:06:46 GMT 50.710922 10.078249 36,025 292 451 0
2019-05-25 23:06:43 GMT 50.705395 10.100098 36,025 292 451 0
2019-05-25 23:06:40 GMT 50.705395 10.100098 36,025 292 451 0
2019-05-25 23:06:37 GMT 50.703552 10.107422 36,025 292 451 0
2019-05-25 23:06:34 GMT 50.701252 10.116425 36,025 292 452 0
2019-05-25 23:06:31 GMT 50.698929 10.125534 36,025 292 452 0
2019-05-25 23:06:27 GMT 50.696087 10.136719 36,025 292 452 0
2019-05-25 23:06:24 GMT 50.693432 10.147018 36,025 292 451 0
2019-05-25 23:06:20 GMT 50.690826 10.157306 36,025 292 451 0
2019-05-25 23:06:17 GMT 50.688263 10.167236 36,025 292 451 0
2019-05-25 23:06:13 GMT 50.684875 10.180540 36,025 292 452 0
2019-05-25 23:06:10 GMT 50.682724 10.188780 36,025 292 452 0
2019-05-25 23:06:06 GMT 50.679932 10.199766 36,025 292 452 0
2019-05-25 23:06:03 GMT 50.677185 10.210530 36,025 292 452 0
2019-05-25 23:06:00 GMT 50.674671 10.220261 36,000 292 452 0
2019-05-25 23:05:56 GMT 50.671738 10.231686 36,000 292 452 0
2019-05-25 23:05:53 GMT 50.668945 10.242655 36,025 292 452 0
2019-05-25 23:05:49 GMT 50.666573 10.251951 36,025 293 453 0
2019-05-25 23:05:46 GMT 50.663086 10.265495 36,025 292 452 0
2019-05-25 23:05:43 GMT 50.661545 10.271549 36,025 293 453 0
2019-05-25 23:05:40 GMT 50.658890 10.281867 36,025 292 452 64
2019-05-25 23:05:37 GMT 50.657028 10.289142 36,025 293 453 0
2019-05-25 23:05:34 GMT 50.654526 10.298888 36,025 293 453 0
2019-05-25 23:05:29 GMT 50.650650 10.314009 36,025 293 453 -64
2019-05-25 23:05:26 GMT 50.645855 10.332567 36,025 293 453 0
2019-05-25 23:05:23 GMT 50.645855 10.332567 36,025 293 453 -64
2019-05-25 23:05:19 GMT 50.642349 10.346158 36,025 293 453 -64
2019-05-25 23:05:12 GMT 50.637360 10.365384 36,025 293 453 -64
2019-05-25 23:05:09 GMT 50.634018 10.378249 36,025 293 453 0
2019-05-25 23:05:04 GMT 50.630817 10.390691 36,025 293 453 0
2019-05-25 23:05:01 GMT 50.628723 10.398708 36,025 293 453 0
2019-05-25 23:04:58 GMT 50.626373 10.407811 36,025 293 453 64
2019-05-25 23:04:54 GMT 50.622810 10.421571 36,025 293 453 64
2019-05-25 23:04:51 GMT 50.620811 10.429366 36,025 293 453 64
2019-05-25 23:04:47 GMT 50.617401 10.442722 36,025 293 453 64
2019-05-25 23:04:44 GMT 50.615067 10.451612 36,025 293 453 0
2019-05-25 23:04:41 GMT 50.612228 10.462743 36,025 293 453 0
2019-05-25 23:04:37 GMT 50.609390 10.473512 36,000 293 453 0
2019-05-25 23:04:33 GMT 50.606140 10.486161 36,025 293 453 0
2019-05-25 23:04:29 GMT 50.603306 10.497140 36,000 293 453 0
2019-05-25 23:04:26 GMT 50.600700 10.507384 36,000 293 453 0
2019-05-25 23:04:21 GMT 50.597023 10.521413 36,025 293 452 64
2019-05-25 23:04:18 GMT 50.594650 10.530685 36,025 293 452 64
2019-05-25 23:04:15 GMT 50.592415 10.539303 36,000 293 452 64
2019-05-25 23:04:12 GMT 50.586823 10.560752 36,000 293 452 64
2019-05-25 23:04:08 GMT 50.586823 10.560752 36,000 293 452 64
2019-05-25 23:04:05 GMT 50.584499 10.569738 36,000 293 452 64
2019-05-25 23:04:02 GMT 50.581924 10.579689 36,000 293 452 64
2019-05-25 23:03:59 GMT 50.579132 10.590387 36,000 293 452 64
2019-05-25 23:03:56 GMT 50.575928 10.602602 36,000 293 452 64
2019-05-25 23:03:53 GMT 50.574646 10.607589 36,000 293 452 64
2019-05-25 23:03:50 GMT 50.572208 10.616876 36,000 293 452 64
2019-05-25 23:03:46 GMT 50.569244 10.628261 36,000 293 451 0
2019-05-25 23:03:40 GMT 50.564297 10.647088 36,000 293 451 0
2019-05-25 23:03:36 GMT 50.561325 10.658473 36,000 293 451 0
2019-05-25 23:03:33 GMT 50.559406 10.665869 36,000 293 451 0
2019-05-25 23:03:30 GMT 50.555916 10.679305 36,000 293 452 -64
2019-05-25 23:03:25 GMT 50.552307 10.693022 36,000 293 451 0
2019-05-25 23:03:22 GMT 50.550003 10.701797 36,000 293 451 0
2019-05-25 23:03:18 GMT 50.547455 10.711381 36,000 293 450 0
2019-05-25 23:03:15 GMT 50.541859 10.732752 36,000 293 450 0
2019-05-25 23:03:12 GMT 50.540367 10.738393 36,000 293 449 0
2019-05-25 23:03:06 GMT 50.536785 10.751978 36,000 293 449 0
2019-05-25 23:03:03 GMT 50.534912 10.759157 36,000 293 449 0
2019-05-25 23:03:00 GMT 50.533218 10.765662 36,000 293 449 0
2019-05-25 23:02:57 GMT 50.529831 10.778600 36,000 293 449 0
2019-05-25 23:02:53 GMT 50.527084 10.789008 36,000 293 449 0
2019-05-25 23:02:49 GMT 50.521141 10.811512 36,000 293 449 0
2019-05-25 23:02:45 GMT 50.521141 10.811512 36,000 293 449 0
2019-05-25 23:02:42 GMT 50.518257 10.822498 36,000 293 449 0
2019-05-25 23:02:39 GMT 50.516441 10.829476 36,000 293 449 64
2019-05-25 23:02:35 GMT 50.513367 10.841205 36,000 293 449 64
2019-05-25 23:02:32 GMT 50.510063 10.853750 36,000 293 448 64
2019-05-25 23:02:29 GMT 50.507996 10.861575 36,000 293 449 64
2019-05-25 23:02:22 GMT 50.502777 10.881380 36,000 293 449 0
2019-05-25 23:02:18 GMT 50.499664 10.893017 36,000 293 449 0
2019-05-25 23:02:13 GMT 50.495178 10.909930 36,000 293 448 64
2019-05-25 23:02:10 GMT 50.493210 10.917447 36,000 293 448 64
2019-05-25 23:02:07 GMT 50.490929 10.925978 36,000 293 448 64
2019-05-25 23:02:01 GMT 50.486134 10.944164 35,975 293 448 0
2019-05-25 23:01:58 GMT 50.483295 10.954780 35,975 293 447 0
2019-05-25 23:01:51 GMT 50.477600 10.976281 35,975 293 448 0
2019-05-25 23:01:48 GMT 50.475540 10.984087 36,000 293 448 0
2019-05-25 23:01:44 GMT 50.472336 10.996230 35,975 293 448 0
2019-05-25 23:01:40 GMT 50.468956 11.009043 35,975 293 447 0
2019-05-25 23:01:37 GMT 50.467236 11.015353 35,975 293 447 0
2019-05-25 23:01:32 GMT 50.462254 11.033911 36,000 293 447 0
2019-05-25 23:01:29 GMT 50.459564 11.043862 36,000 288 450 -64
2019-05-25 23:01:26 GMT 50.456806 11.054028 35,975 293 447 0
2019-05-25 23:01:19 GMT 50.452057 11.071761 35,975 293 448 -64
2019-05-25 23:01:16 GMT 50.450409 11.077905 36,000 292 447 -64
2019-05-25 23:01:09 GMT 50.444798 11.100497 36,000 290 449 -64
2019-05-25 23:01:05 GMT 50.442188 11.111409 36,000 290 449 -64
2019-05-25 23:01:02 GMT 50.439789 11.122139 36,000 289 450 -64
2019-05-25 23:00:58 GMT 50.436264 11.138763 36,000 288 450 -64
2019-05-25 23:00:55 GMT 50.435028 11.144690 36,000 288 450 0
2019-05-25 23:00:50 GMT 50.431530 11.162481 36,000 288 450 0
2019-05-25 23:00:47 GMT 50.430271 11.168716 36,025 288 450 0
2019-05-25 23:00:44 GMT 50.428391 11.178155 36,025 288 450 0
2019-05-25 23:00:41 GMT 50.425919 11.190587 36,000 288 450 0
2019-05-25 23:00:38 GMT 50.424637 11.197020 36,000 288 450 0
2019-05-25 23:00:34 GMT 50.422440 11.208078 36,000 288 450 -64
2019-05-25 23:00:31 GMT 50.420357 11.218600 36,025 288 450 -64
2019-05-25 23:00:28 GMT 50.418262 11.228992 36,025 288 450 0
2019-05-25 23:00:25 GMT 50.416679 11.237084 36,025 288 450 0
2019-05-25 23:00:22 GMT 50.414818 11.246511 36,025 288 448 0
2019-05-25 23:00:18 GMT 50.411930 11.260986 36,025 288 450 0
2019-05-25 23:00:15 GMT 50.409695 11.272195 36,025 288 449 -64
2019-05-25 23:00:12 GMT 50.408707 11.276960 36,025 288 449 0
2019-05-25 23:00:08 GMT 50.405739 11.291793 36,025 288 449 0
2019-05-25 23:00:05 GMT 50.403763 11.301679 36,025 288 449 0
2019-05-25 23:00:02 GMT 50.401875 11.311167 36,025 288 449 0
2019-05-25 22:59:56 GMT 50.398636 11.327555 36,025 288 449 0
2019-05-25 22:59:53 GMT 50.396057 11.340489 36,050 288 449 0
2019-05-25 22:59:50 GMT 50.395157 11.344829 36,025 288 449 0
2019-05-25 22:59:47 GMT 50.392822 11.356683 36,025 288 449 0
2019-05-25 22:59:43 GMT 50.390396 11.368826 36,025 288 449 0
2019-05-25 22:59:39 GMT 50.388420 11.378421 36,025 288 449 0
2019-05-25 22:59:35 GMT 50.385582 11.392674 36,050 288 449 0
2019-05-25 22:59:32 GMT 50.383987 11.400628 36,025 288 448 64
2019-05-25 22:59:29 GMT 50.381905 11.410712 36,025 288 448 0
2019-05-25 22:59:25 GMT 50.379044 11.424842 36,025 288 448 64
2019-05-25 22:59:22 GMT 50.377670 11.431636 36,050 288 448 0
2019-05-25 22:59:18 GMT 50.374146 11.449055 36,050 288 448 0
2019-05-25 22:59:15 GMT 50.372589 11.456789 36,050 288 448 0
2019-05-25 22:59:12 GMT 50.371105 11.464233 36,050 288 446 64
2019-05-25 22:59:08 GMT 50.369110 11.473991 36,050 288 448 0
2019-05-25 22:59:05 GMT 50.366730 11.485772 36,050 288 448 0
2019-05-25 22:59:02 GMT 50.364773 11.495559 36,050 288 448 64
2019-05-25 22:58:59 GMT 50.362885 11.504926 36,050 288 448 64
2019-05-25 22:58:55 GMT 50.360676 11.515676 36,050 288 448 64
2019-05-25 22:58:52 GMT 50.358486 11.526514 36,050 288 448 0
2019-05-25 22:58:49 GMT 50.356068 11.538465 36,025 288 448 0
2019-05-25 22:58:45 GMT 50.354187 11.547932 36,025 288 448 0
2019-05-25 22:58:41 GMT 50.351925 11.558953 36,050 288 448 0
2019-05-25 22:58:38 GMT 50.350067 11.568242 36,025 288 447 0
2019-05-25 22:58:34 GMT 50.347549 11.580602 36,025 288 448 -64
2019-05-25 22:58:31 GMT 50.345592 11.590279 36,025 288 448 0
2019-05-25 22:58:28 GMT 50.343704 11.599539 36,025 288 448 -64
2019-05-25 22:58:24 GMT 50.340565 11.614850 36,025 288 446 64
2019-05-25 22:58:20 GMT 50.338470 11.625094 36,050 288 448 -64
2019-05-25 22:58:17 GMT 50.336842 11.633185 36,050 288 448 0
2019-05-25 22:58:14 GMT 50.334606 11.644172 36,050 288 446 0
2019-05-25 22:58:10 GMT 50.332397 11.655049 36,000 288 445 64
2019-05-25 22:58:07 GMT 50.330338 11.665023 36,025 288 446 64
2019-05-25 22:58:03 GMT 50.326080 11.686056 36,050 288 446 64
2019-05-25 22:58:00 GMT 50.326080 11.686056 36,050 288 446 64
2019-05-25 22:57:53 GMT 50.321320 11.709619 36,025 288 446 64
2019-05-25 22:57:50 GMT 50.319244 11.719740 36,025 288 445 64
2019-05-25 22:57:47 GMT 50.315708 11.737184 36,025 288 446 64
2019-05-25 22:57:43 GMT 50.315708 11.737184 36,025 288 446 64
2019-05-25 22:57:40 GMT 50.313583 11.747637 36,025 288 446 64
2019-05-25 22:57:37 GMT 50.311798 11.756336 36,025 288 446 64
2019-05-25 22:57:32 GMT 50.308685 11.771561 36,025 288 444 128
2019-05-25 22:57:29 GMT 50.306122 11.783993 36,000 288 445 128
2019-05-25 22:57:26 GMT 50.302826 11.800111 36,000 288 445 64
2019-05-25 22:57:23 GMT 50.302826 11.800111 36,000 288 444 128
2019-05-25 22:57:19 GMT 50.300217 11.812832 36,000 288 445 64
2019-05-25 22:57:12 GMT 50.295876 11.833908 36,000 288 444 64
2019-05-25 22:57:09 GMT 50.294292 11.841777 36,000 288 442 64
2019-05-25 22:57:06 GMT 50.292435 11.850851 35,975 288 444 128
2019-05-25 22:57:02 GMT 50.289639 11.864269 35,975 288 444 128
2019-05-25 22:56:58 GMT 50.286846 11.877854 35,975 288 443 64
2019-05-25 22:56:52 GMT 50.283306 11.894927 35,950 288 443 64
2019-05-25 22:56:49 GMT 50.281403 11.904265 35,950 288 443 64
2019-05-25 22:56:46 GMT 50.279488 11.913337 35,950 289 441 -64
2019-05-25 22:56:41 GMT 50.276184 11.929418 35,950 288 442 64
2019-05-25 22:56:37 GMT 50.273941 11.940115 35,950 288 442 64
2019-05-25 22:56:34 GMT 50.272293 11.947993 35,950 288 441 64
2019-05-25 22:56:30 GMT 50.269730 11.960353 35,950 289 441 64
2019-05-25 22:56:27 GMT 50.266159 11.977266 35,950 289 439 -64
2019-05-25 22:56:21 GMT 50.264221 11.986307 35,950 289 439 -64
2019-05-25 22:56:18 GMT 50.261993 11.997070 35,950 289 439 -64
2019-05-25 22:56:15 GMT 50.259842 12.007262 35,950 289 439 -64
2019-05-25 22:56:12 GMT 50.257748 12.017261 35,950 288 439 0
2019-05-25 22:56:09 GMT 50.256088 12.025187 35,950 288 439 64
2019-05-25 22:56:06 GMT 50.253571 12.037474 35,950 288 438 64
2019-05-25 22:56:03 GMT 50.252243 12.043762 35,950 288 438 64
2019-05-25 22:55:58 GMT 50.249680 12.056339 35,950 288 438 0
2019-05-25 22:55:54 GMT 50.247253 12.068048 35,950 288 438 0
2019-05-25 22:55:49 GMT 50.243832 12.084441 35,950 288 437 -64
2019-05-25 22:55:46 GMT 50.241875 12.093869 35,950 288 437 -64
2019-05-25 22:55:43 GMT 50.240337 12.101292 35,950 288 437 -64
2019-05-25 22:55:38 GMT 50.233822 12.132544 35,975 289 436 0
2019-05-25 22:55:33 GMT 50.233822 12.132544 35,950 289 436 0
2019-05-25 22:55:30 GMT 50.231773 12.142416 35,975 289 436 0
2019-05-25 22:55:27 GMT 50.229950 12.150951 35,950 289 436 0
2019-05-25 22:55:23 GMT 50.225117 12.174039 35,975 288 436 0
2019-05-25 22:55:20 GMT 50.225117 12.174039 35,975 289 436 0
2019-05-25 22:55:13 GMT 50.221531 12.191187 35,975 289 436 0
2019-05-25 22:55:10 GMT 50.219833 12.199161 35,975 288 436 0
2019-05-25 22:55:07 GMT 50.217667 12.209671 35,975 289 435 0
2019-05-25 22:55:03 GMT 50.214890 12.222868 35,975 305 434 0
2019-05-25 22:55:00 GMT 50.213104 12.231346 35,975 290 435 0
2019-05-25 22:54:57 GMT 50.211475 12.238844 35,975 290 435 0
2019-05-25 22:54:53 GMT 50.208435 12.252286 35,975 292 434 0
2019-05-25 22:54:50 GMT 50.206310 12.261188 35,975 292 434 0
2019-05-25 22:54:46 GMT 50.202713 12.275632 35,975 293 434 0
2019-05-25 22:54:43 GMT 50.200790 12.283076 35,975 293 433 0
2019-05-25 22:54:37 GMT 50.196487 12.298905 35,975 294 433 0
2019-05-25 22:54:32 GMT 50.192596 12.312638 35,975 295 433 0
2019-05-25 22:54:26 GMT 50.187836 12.328539 36,000 296 433 -64
2019-05-25 22:54:22 GMT 50.182983 12.343790 36,000 298 433 -64
2019-05-25 22:54:16 GMT 50.178635 12.356873 36,000 299 432 0
2019-05-25 22:54:13 GMT 50.175816 12.365112 36,000 300 432 -64
2019-05-25 22:54:10 GMT 50.172913 12.373352 36,000 300 432 0
2019-05-25 22:54:07 GMT 50.169479 12.382821 36,000 301 432 0
2019-05-25 22:54:04 GMT 50.166180 12.391613 36,000 303 432 0
2019-05-25 22:54:01 GMT 50.163948 12.397403 36,000 302 431 0
2019-05-25 22:53:58 GMT 50.161285 12.404215 36,000 303 432 0
2019-05-25 22:53:55 GMT 50.154190 12.421417 36,025 304 432 0
2019-05-25 22:53:52 GMT 50.149567 12.432187 36,025 305 432 0
2019-05-25 22:53:49 GMT 50.149567 12.432187 36,025 305 432 0
2019-05-25 22:53:46 GMT 50.146351 12.439493 36,025 305 432 0
2019-05-25 22:53:43 GMT 50.144672 12.443353 36,025 305 432 0
2019-05-25 22:53:40 GMT 50.140732 12.452208 36,025 305 434 0
2019-05-25 22:53:37 GMT 50.137024 12.460520 36,025 305 432 0
2019-05-25 22:53:34 GMT 50.133316 12.468889 36,025 305 433 0
2019-05-25 22:53:29 GMT 50.128895 12.478910 36,025 305 433 0
2019-05-25 22:53:26 GMT 50.125168 12.487263 36,025 305 434 0
2019-05-25 22:53:21 GMT 50.118027 12.503309 36,025 305 434 0
2019-05-25 22:53:18 GMT 50.115345 12.509271 36,025 305 434 0
2019-05-25 22:53:15 GMT 50.110737 12.519663 36,025 305 434 0
2019-05-25 22:53:12 GMT 50.108318 12.525082 36,025 305 433 0
2019-05-25 22:53:08 GMT 50.104202 12.534388 36,025 305 434 0
2019-05-25 22:53:05 GMT 50.101055 12.541487 36,025 305 434 64
2019-05-25 22:53:02 GMT 50.097473 12.549567 36,000 305 435 64
2019-05-25 22:52:59 GMT 50.092804 12.560120 36,025 305 435 64
2019-05-25 22:52:56 GMT 50.089741 12.566949 36,000 305 435 64
2019-05-25 22:52:51 GMT 50.083374 12.581297 36,025 305 436 0
2019-05-25 22:52:45 GMT 50.077011 12.595608 36,000 305 436 64
2019-05-25 22:52:42 GMT 50.074860 12.600523 36,025 305 436 0
2019-05-25 22:52:39 GMT 50.069687 12.612088 36,025 305 436 0
2019-05-25 22:52:35 GMT 50.066116 12.620111 36,000 305 436 0
2019-05-25 22:52:32 GMT 50.062603 12.627968 36,000 305 436 0
2019-05-25 22:52:29 GMT 50.059158 12.635723 36,000 305 436 0
2019-05-25 22:52:26 GMT 50.055862 12.643168 36,000 305 436 0
2019-05-25 22:52:23 GMT 50.053059 12.649346 36,000 305 437 0
2019-05-25 22:52:20 GMT 50.049637 12.656973 36,000 305 437 0
2019-05-25 22:52:16 GMT 50.044785 12.667887 36,000 305 437 0
2019-05-25 22:52:13 GMT 50.041283 12.675699 36,000 305 437 0
2019-05-25 22:52:10 GMT 50.037277 12.684607 36,000 305 438 0
2019-05-25 22:52:06 GMT 50.031971 12.696409 36,000 305 438 0
2019-05-25 22:51:59 GMT 50.021030 12.720832 36,000 305 438 -64
2019-05-25 22:51:53 GMT 50.011723 12.741617 36,000 305 438 0
2019-05-25 22:51:49 GMT 50.011723 12.741617 36,000 305 438 0
2019-05-25 22:51:46 GMT 50.009300 12.746961 36,000 305 438 0
2019-05-25 22:51:43 GMT 50.006927 12.752306 36,000 305 438 0
2019-05-25 22:51:38 GMT 49.998825 12.770305 36,000 305 438 0
2019-05-25 22:51:34 GMT 49.995426 12.777916 36,000 305 438 0
2019-05-25 22:51:25 GMT 49.985558 12.799889 36,000 305 438 0
2019-05-25 22:51:22 GMT 49.981556 12.808797 36,000 305 438 0
2019-05-25 22:51:16 GMT 49.974434 12.824682 36,000 305 438 -64
2019-05-25 22:51:13 GMT 49.971779 12.830621 36,000 305 438 -64
2019-05-25 22:51:09 GMT 49.967312 12.840494 36,000 305 438 -64
2019-05-25 22:51:06 GMT 49.963120 12.849847 36,025 305 438 -128
2019-05-25 22:51:02 GMT 49.958370 12.860314 36,025 305 438 -128
2019-05-25 22:50:56 GMT 49.950302 12.878289 36,025 305 438 -128
2019-05-25 22:50:53 GMT 49.947922 12.883566 36,050 305 438 -64
2019-05-25 22:50:47 GMT 49.941891 12.896984 36,050 305 438 -64
2019-05-25 22:50:42 GMT 49.935379 12.911465 36,050 305 438 0
2019-05-25 22:50:37 GMT 49.929604 12.924302 36,050 305 438 0
2019-05-25 22:50:32 GMT 49.923889 12.936907 36,050 305 439 0
2019-05-25 22:50:28 GMT 49.919128 12.947460 36,050 305 439 0
2019-05-25 22:50:24 GMT 49.914459 12.957796 36,050 305 439 0
2019-05-25 22:50:21 GMT 49.909744 12.968204 36,050 305 439 0
2019-05-25 22:50:18 GMT 49.907501 12.973191 36,050 305 439 0
2019-05-25 22:50:14 GMT 49.901905 12.985543 36,050 305 440 0
2019-05-25 22:50:11 GMT 49.898209 12.993790 36,050 305 439 0
2019-05-25 22:50:08 GMT 49.895782 12.999139 36,050 305 439 0
2019-05-25 22:50:04 GMT 49.891251 13.009114 36,050 306 440 0
2019-05-25 22:50:01 GMT 49.887085 13.018293 36,050 306 440 0
2019-05-25 22:49:58 GMT 49.884075 13.025034 36,050 306 440 0
2019-05-25 22:49:53 GMT 49.878067 13.038169 36,050 306 440 0
2019-05-25 22:49:50 GMT 49.874622 13.045819 36,050 305 439 64
2019-05-25 22:49:47 GMT 49.871319 13.053094 36,050 305 439 64
2019-05-25 22:49:42 GMT 49.864105 13.069105 36,025 305 439 64
2019-05-25 22:49:39 GMT 49.862427 13.072765 36,025 306 440 64
2019-05-25 22:49:36 GMT 49.858284 13.081896 36,025 306 440 64
2019-05-25 22:49:31 GMT 49.852112 13.095414 36,025 306 440 64
2019-05-25 22:49:28 GMT 49.849411 13.101413 36,025 306 440 128
2019-05-25 22:49:25 GMT 49.845997 13.108916 36,025 306 440 64
2019-05-25 22:49:20 GMT 49.839798 13.122518 36,000 306 439 64
2019-05-25 22:49:16 GMT 49.833618 13.136107 36,000 306 439 64
2019-05-25 22:49:11 GMT 49.828903 13.146443 36,000 306 438 128
2019-05-25 22:49:08 GMT 49.821533 13.162561 36,000 306 438 64
2019-05-25 22:49:04 GMT 49.821533 13.162561 35,975 306 438 128
2019-05-25 22:49:01 GMT 49.816956 13.172607 35,975 306 438 128
2019-05-25 22:48:58 GMT 49.814529 13.177956 35,950 306 437 192
2019-05-25 22:48:54 GMT 49.808613 13.190943 35,975 306 437 192
2019-05-25 22:48:51 GMT 49.805008 13.198845 35,950 306 437 128
2019-05-25 22:48:48 GMT 49.802490 13.204410 35,950 306 437 64
2019-05-25 22:48:45 GMT 49.799351 13.211282 35,950 306 437 0
2019-05-25 22:48:42 GMT 49.794601 13.221749 35,950 306 437 0
2019-05-25 22:48:38 GMT 49.790085 13.231548 35,950 306 437 0
2019-05-25 22:48:34 GMT 49.786102 13.240332 35,950 306 436 0
2019-05-25 22:48:30 GMT 49.781101 13.251293 35,950 306 436 0
2019-05-25 22:48:26 GMT 49.776817 13.260647 35,950 306 436 0
2019-05-25 22:48:23 GMT 49.774025 13.266659 35,950 306 436 0
2019-05-25 22:48:20 GMT 49.769852 13.275821 35,950 306 436 0
2019-05-25 22:48:17 GMT 49.766857 13.282248 35,950 306 436 0
2019-05-25 22:48:13 GMT 49.761642 13.293605 35,950 306 436 0
2019-05-25 22:48:10 GMT 49.758774 13.299818 35,950 306 436 0
2019-05-25 22:48:07 GMT 49.754196 13.309792 35,950 306 436 0
2019-05-25 22:48:03 GMT 49.748886 13.321357 35,950 306 436 0
2019-05-25 22:48:00 GMT 49.745300 13.329088 35,950 306 436 0
2019-05-25 22:47:57 GMT 49.741837 13.336752 35,950 306 435 0
2019-05-25 22:47:54 GMT 49.739761 13.341262 35,950 306 435 0
2019-05-25 22:47:51 GMT 49.735806 13.349873 35,950 306 435 0
2019-05-25 22:47:47 GMT 49.726364 13.370506 35,950 306 436 -64
2019-05-25 22:47:43 GMT 49.726364 13.370506 35,950 306 435 -64
2019-05-25 22:47:40 GMT 49.719791 13.384837 35,950 306 434 0
2019-05-25 22:47:37 GMT 49.715462 13.394264 35,950 306 435 0
2019-05-25 22:47:33 GMT 49.715462 13.394264 35,975 306 435 -64
2019-05-25 22:47:29 GMT 49.710762 13.404434 35,950 306 435 -64
2019-05-25 22:47:26 GMT 49.706570 13.413564 35,950 306 435 -64
2019-05-25 22:47:23 GMT 49.702988 13.421433 35,975 306 436 -128
2019-05-25 22:47:18 GMT 49.693222 13.442640 35,975 306 436 -64
2019-05-25 22:47:14 GMT 49.693222 13.442640 35,975 306 436 -64
2019-05-25 22:47:09 GMT 49.686813 13.456517 36,000 306 436 -64
2019-05-25 22:47:06 GMT 49.683929 13.462878 36,000 306 436 -64
2019-05-25 22:47:03 GMT 49.679901 13.471623 36,000 306 436 -64
2019-05-25 22:46:58 GMT 49.674030 13.484456 36,000 306 436 -64
2019-05-25 22:46:54 GMT 49.668583 13.496333 36,000 306 436 -64
2019-05-25 22:46:51 GMT 49.664394 13.505389 36,000 306 436 -64
2019-05-25 22:46:47 GMT 49.661461 13.511773 36,000 306 436 0
2019-05-25 22:46:44 GMT 49.654713 13.526471 36,000 306 436 0
2019-05-25 22:46:37 GMT 49.649731 13.537309 36,000 306 436 0
2019-05-25 22:46:32 GMT 49.643681 13.550448 36,000 306 437 0
2019-05-25 22:46:29 GMT 49.639389 13.559659 36,000 306 438 0
2019-05-25 22:46:26 GMT 49.632431 13.574693 36,025 306 438 -64
2019-05-25 22:46:22 GMT 49.632431 13.574693 36,000 306 438 0
2019-05-25 22:46:19 GMT 49.624687 13.591424 36,025 306 439 -64
2019-05-25 22:46:16 GMT 49.624687 13.591424 36,025 306 439 -64
2019-05-25 22:46:11 GMT 49.619377 13.602930 36,025 306 439 -64
2019-05-25 22:46:07 GMT 49.614632 13.613174 36,025 306 438 -64
2019-05-25 22:46:03 GMT 49.609882 13.623418 36,025 306 439 -64
2019-05-25 22:46:00 GMT 49.605877 13.632103 36,025 306 439 -64
2019-05-25 22:45:57 GMT 49.602448 13.639454 36,025 306 440 -64
2019-05-25 22:45:53 GMT 49.594528 13.656656 36,025 306 440 0
2019-05-25 22:45:47 GMT 49.591167 13.663949 36,050 306 440 0
2019-05-25 22:45:44 GMT 49.587479 13.671835 36,025 306 442 0
2019-05-25 22:45:41 GMT 49.583221 13.681086 36,025 306 441 0
2019-05-25 22:45:37 GMT 49.578972 13.690153 36,025 306 441 0
2019-05-25 22:45:34 GMT 49.570358 13.708711 36,025 306 442 0
2019-05-25 22:45:29 GMT 49.570358 13.708711 36,025 306 442 0
2019-05-25 22:45:25 GMT 49.565376 13.719474 36,025 306 442 64
2019-05-25 22:45:22 GMT 49.560444 13.730089 36,025 306 442 64
2019-05-25 22:45:18 GMT 49.556255 13.739071 36,025 306 442 0
2019-05-25 22:45:15 GMT 49.548573 13.755551 36,025 306 441 0
2019-05-25 22:45:12 GMT 49.548573 13.755551 36,025 306 442 0
2019-05-25 22:45:09 GMT 49.545734 13.761638 36,025 306 442 0
2019-05-25 22:45:05 GMT 49.541264 13.771214 36,025 306 442 0
2019-05-25 22:45:02 GMT 49.537075 13.780196 36,025 306 443 0
2019-05-25 22:44:58 GMT 49.533096 13.788709 36,025 306 443 0
2019-05-25 22:44:54 GMT 49.528336 13.798973 36,025 306 444 0
2019-05-25 22:44:50 GMT 49.523392 13.809525 36,025 306 444 0
2019-05-25 22:44:47 GMT 49.520084 13.816570 36,025 306 444 0
2019-05-25 22:44:43 GMT 49.514820 13.827853 36,025 306 444 0
2019-05-25 22:44:40 GMT 49.507420 13.843813 36,025 306 444 -64
2019-05-25 22:44:37 GMT 49.507420 13.843813 36,025 306 444 0
2019-05-25 22:44:34 GMT 49.504395 13.850290 36,025 306 444 0
2019-05-25 22:44:31 GMT 49.499222 13.861349 36,025 306 444 0
2019-05-25 22:44:25 GMT 49.492401 13.875877 36,025 306 444 0
2019-05-25 22:44:20 GMT 49.486752 13.887981 36,025 306 444 0
2019-05-25 22:44:16 GMT 49.477116 13.908543 36,025 306 444 64
2019-05-25 22:44:12 GMT 49.477116 13.908543 36,025 306 444 0
2019-05-25 22:44:09 GMT 49.474693 13.913665 36,025 306 444 64
2019-05-25 22:44:06 GMT 49.470085 13.923464 36,025 306 444 64
2019-05-25 22:44:03 GMT 49.466873 13.930293 36,025 306 445 64
2019-05-25 22:43:59 GMT 49.461456 13.941940 36,025 306 445 64
2019-05-25 22:43:54 GMT 49.454956 13.955754 36,025 306 444 64
2019-05-25 22:43:49 GMT 49.449600 13.967165 36,000 306 445 64
2019-05-25 22:43:45 GMT 49.444656 13.977645 36,000 306 445 64
2019-05-25 22:43:42 GMT 49.442139 13.982994 36,000 306 445 64
2019-05-25 22:43:38 GMT 49.436337 13.995320 36,000 306 445 64
2019-05-25 22:43:32 GMT 49.429367 14.010098 36,000 306 446 0
2019-05-25 22:43:28 GMT 49.424469 14.020456 36,000 306 446 0
2019-05-25 22:43:25 GMT 49.419708 14.030527 36,000 306 446 0
2019-05-25 22:43:22 GMT 49.417923 14.034400 36,000 306 445 0
2019-05-25 22:43:19 GMT 49.413071 14.044753 35,975 306 445 0
2019-05-25 22:43:13 GMT 49.406250 14.059260 36,000 306 445 0
2019-05-25 22:43:10 GMT 49.401398 14.069472 36,000 306 445 0
2019-05-25 22:43:07 GMT 49.398926 14.074754 35,975 306 445 0
2019-05-25 22:43:02 GMT 49.393021 14.087290 36,000 306 445 0
2019-05-25 22:42:59 GMT 49.389503 14.094736 36,000 306 445 0
2019-05-25 22:42:56 GMT 49.386200 14.101797 35,975 306 445 0
2019-05-25 22:42:52 GMT 49.380981 14.112854 35,975 306 444 0
2019-05-25 22:42:49 GMT 49.376266 14.122854 35,975 306 444 0
2019-05-25 22:42:46 GMT 49.373795 14.127995 35,975 306 444 0
2019-05-25 22:42:41 GMT 49.368275 14.139693 35,975 306 444 0
2019-05-25 22:42:36 GMT 49.361431 14.154149 35,975 306 444 0
2019-05-25 22:42:31 GMT 49.355988 14.165714 35,975 306 444 0
2019-05-25 22:42:28 GMT 49.350864 14.176555 35,975 306 444 0
2019-05-25 22:42:25 GMT 49.348446 14.181615 35,975 306 444 0
2019-05-25 22:42:21 GMT 49.343788 14.191517 35,975 306 444 0
2019-05-25 22:42:15 GMT 49.336388 14.207202 35,975 306 444 0
2019-05-25 22:42:11 GMT 49.331360 14.217858 35,975 306 444 0
2019-05-25 22:42:04 GMT 49.323761 14.233985 35,975 306 444 0
2019-05-25 22:42:01 GMT 49.318863 14.244338 35,975 306 444 0
2019-05-25 22:41:56 GMT 49.312878 14.257074 35,975 306 444 0
2019-05-25 22:41:50 GMT 49.306732 14.270043 35,975 306 444 0
2019-05-25 22:41:44 GMT 49.298492 14.287431 35,975 306 443 0
2019-05-25 22:41:40 GMT 49.294327 14.296241 35,975 306 443 0
2019-05-25 22:41:30 GMT 49.282246 14.321763 35,975 306 443 64
2019-05-25 22:41:22 GMT 49.273540 14.340122 35,975 306 443 64
2019-05-25 22:41:19 GMT 49.269260 14.349156 35,975 306 442 0
2019-05-25 22:41:12 GMT 49.261158 14.366142 35,975 307 443 64
2019-05-25 22:41:09 GMT 49.257343 14.374165 35,975 307 443 64
2019-05-25 22:41:02 GMT 49.249374 14.390752 35,975 307 443 0
2019-05-25 22:40:59 GMT 49.244888 14.400118 35,975 307 443 0
2019-05-25 22:40:55 GMT 49.238983 14.412443 35,975 307 443 -64
2019-05-25 22:40:47 GMT 49.229179 14.432999 35,975 307 441 0
2019-05-25 22:40:44 GMT 49.226807 14.437937 35,975 307 441 0
2019-05-25 22:40:41 GMT 49.224010 14.443914 35,975 307 440 0
2019-05-25 22:40:38 GMT 49.219170 14.454032 35,975 307 441 0
2019-05-25 22:40:33 GMT 49.212524 14.467867 35,975 307 442 0
2019-05-25 22:40:30 GMT 49.210182 14.472825 35,975 307 442 0
2019-05-25 22:40:26 GMT 49.204876 14.483884 35,975 307 442 0
2019-05-25 22:40:23 GMT 49.201355 14.491248 35,975 307 441 0
2019-05-25 22:40:20 GMT 49.198082 14.498050 35,975 307 441 0
2019-05-25 22:40:17 GMT 49.195007 14.504411 35,975 307 441 0
2019-05-25 22:40:14 GMT 49.190445 14.513951 35,975 307 441 -64
2019-05-25 22:40:07 GMT 49.182346 14.530792 35,975 307 442 -64
2019-05-25 22:40:04 GMT 49.177784 14.540261 36,000 307 442 -64
2019-05-25 22:40:01 GMT 49.174896 14.546321 36,000 307 442 -64
2019-05-25 22:39:57 GMT 49.170151 14.556234 36,000 307 442 -64
2019-05-25 22:39:53 GMT 49.165680 14.565486 36,000 307 442 -64
2019-05-25 22:39:49 GMT 49.159817 14.577629 36,000 307 440 -64
2019-05-25 22:39:45 GMT 49.155533 14.586604 36,025 307 442 -64
2019-05-25 22:39:42 GMT 49.144638 14.609214 36,025 307 442 -64
2019-05-25 22:39:36 GMT 49.144638 14.609214 36,025 307 441 -64
2019-05-25 22:39:33 GMT 49.141148 14.616442 36,025 307 441 -64
2019-05-25 22:39:29 GMT 49.136864 14.625260 36,025 307 442 -64
2019-05-25 22:39:26 GMT 49.133057 14.633085 36,025 307 442 -64
2019-05-25 22:39:23 GMT 49.128754 14.641958 36,050 307 442 0
2019-05-25 22:39:19 GMT 49.124577 14.650630 36,050 307 442 -64
2019-05-25 22:39:16 GMT 49.120880 14.658297 36,050 307 442 0
2019-05-25 22:39:13 GMT 49.115982 14.668438 36,050 307 442 0
2019-05-25 22:39:08 GMT 49.110470 14.679830 36,050 307 442 0
2019-05-25 22:39:04 GMT 49.106506 14.688016 36,050 307 442 0
2019-05-25 22:38:58 GMT 49.097855 14.706068 36,050 307 442 64
2019-05-25 22:38:53 GMT 49.092827 14.716476 36,050 307 443 0
2019-05-25 22:38:50 GMT 49.084396 14.734075 36,025 307 443 0
2019-05-25 22:38:46 GMT 49.080860 14.741484 36,050 307 443 0
2019-05-25 22:38:43 GMT 49.080860 14.741484 36,025 307 443 -64
2019-05-25 22:38:40 GMT 49.077026 14.749498 36,050 307 442 -64
2019-05-25 22:38:35 GMT 49.066292 14.771624 36,050 307 442 -64
2019-05-25 22:38:32 GMT 49.066292 14.771624 36,050 307 443 0
2019-05-25 22:38:29 GMT 49.064476 14.775455 36,050 307 443 0
2019-05-25 22:38:26 GMT 49.060135 14.784429 36,050 307 443 0
2019-05-25 22:38:23 GMT 49.056515 14.791862 36,050 307 443 0
2019-05-25 22:38:20 GMT 49.051998 14.801186 36,050 307 443 0
2019-05-25 22:38:16 GMT 49.048187 14.809077 36,050 307 443 0
2019-05-25 22:38:13 GMT 49.039524 14.826989 36,050 307 443 64
2019-05-25 22:38:10 GMT 49.039524 14.826989 36,025 307 444 0
2019-05-25 22:38:07 GMT 49.035645 14.834994 36,050 307 443 64
2019-05-25 22:38:04 GMT 49.032959 14.840505 36,025 307 443 64
2019-05-25 22:38:01 GMT 49.029373 14.847952 36,025 307 443 0
2019-05-25 22:37:58 GMT 49.026718 14.853375 36,025 307 444 0
2019-05-25 22:37:54 GMT 49.020252 14.866670 36,025 307 444 0
2019-05-25 22:37:51 GMT 49.017876 14.871585 36,025 307 444 0
2019-05-25 22:37:48 GMT 49.014404 14.878728 36,025 307 443 0
2019-05-25 22:37:45 GMT 49.008755 14.890305 36,025 307 444 0
2019-05-25 22:37:41 GMT 49.004704 14.898690 36,025 307 443 0
2019-05-25 22:37:38 GMT 49.000839 14.906568 36,025 307 443 0
2019-05-25 22:37:34 GMT 48.995903 14.916615 36,025 307 443 0
2019-05-25 22:37:31 GMT 48.992889 14.922814 36,025 307 442 0
2019-05-25 22:37:28 GMT 48.989319 14.930068 36,050 307 441 0
2019-05-25 22:37:24 GMT 48.978867 14.951381 36,025 307 442 0
2019-05-25 22:37:20 GMT 48.978867 14.951381 36,025 307 442 0
2019-05-25 22:37:16 GMT 48.973652 14.962150 36,050 307 442 0
2019-05-25 22:37:13 GMT 48.971603 14.966270 36,025 307 441 0
2019-05-25 22:37:10 GMT 48.965832 14.978124 36,025 307 441 0
2019-05-25 22:37:07 GMT 48.963409 14.983028 36,050 307 441 0
2019-05-25 22:37:04 GMT 48.959782 14.990483 36,050 307 441 0
2019-05-25 22:37:00 GMT 48.954800 15.000675 36,050 307 441 0
2019-05-25 22:36:57 GMT 48.951324 15.007817 36,025 307 441 0
2019-05-25 22:36:52 GMT 48.945831 15.019015 36,025 307 441 0
2019-05-25 22:36:47 GMT 48.937855 15.035296 36,025 307 440 0
2019-05-25 22:36:44 GMT 48.935200 15.040717 36,025 307 440 0
2019-05-25 22:36:41 GMT 48.932686 15.045849 36,025 307 440 0
2019-05-25 22:36:38 GMT 48.927986 15.055462 36,025 307 440 64
2019-05-25 22:36:35 GMT 48.925610 15.060377 36,025 307 439 64
2019-05-25 22:36:32 GMT 48.920628 15.070712 36,025 307 440 64
2019-05-25 22:36:27 GMT 48.914658 15.082820 36,025 308 440 128
2019-05-25 22:36:23 GMT 48.909851 15.092468 36,025 309 440 128
2019-05-25 22:36:19 GMT 48.904633 15.102469 36,000 310 441 128
2019-05-25 22:36:16 GMT 48.900242 15.110610 36,000 311 441 64
2019-05-25 22:36:13 GMT 48.894012 15.121836 36,000 312 441 128
2019-05-25 22:36:06 GMT 48.887997 15.132438 36,000 313 441 128
2019-05-25 22:36:03 GMT 48.884274 15.138654 36,000 313 440 64
2019-05-25 22:36:00 GMT 48.875519 15.152963 36,000 314 440 0
2019-05-25 22:35:57 GMT 48.875519 15.152963 36,000 314 441 0
2019-05-25 22:35:54 GMT 48.871143 15.159976 36,000 314 441 0
2019-05-25 22:35:51 GMT 48.867653 15.165542 35,975 314 434 0
2019-05-25 22:35:47 GMT 48.861465 15.175429 36,000 314 439 0
2019-05-25 22:35:44 GMT 48.855927 15.184232 36,000 314 439 0
2019-05-25 22:35:41 GMT 48.853222 15.188599 36,000 314 439 0
2019-05-25 22:35:35 GMT 48.844891 15.201898 35,975 314 439 0
2019-05-25 22:35:32 GMT 48.840820 15.208388 35,975 314 434 0
2019-05-25 22:35:29 GMT 48.835007 15.217684 36,000 314 438 0
2019-05-25 22:35:24 GMT 48.828781 15.227701 36,000 314 438 -64
2019-05-25 22:35:21 GMT 48.823929 15.235431 36,000 314 437 -64
2019-05-25 22:35:17 GMT 48.818436 15.244094 36,000 314 437 -64
2019-05-25 22:35:13 GMT 48.809921 15.257686 36,000 314 436 -64
2019-05-25 22:35:10 GMT 48.809921 15.257686 35,975 314 431 -64
2019-05-25 22:35:06 GMT 48.804249 15.266732 36,000 314 436 -64
2019-05-25 22:35:03 GMT 48.799988 15.273461 36,000 314 435 0
2019-05-25 22:34:59 GMT 48.793716 15.283391 36,000 314 435 0
2019-05-25 22:34:54 GMT 48.788040 15.292335 36,000 314 435 0
2019-05-25 22:34:51 GMT 48.777237 15.309448 36,025 314 434 0
2019-05-25 22:34:47 GMT 48.777237 15.309448 36,000 314 434 0
2019-05-25 22:34:44 GMT 48.773617 15.315158 36,000 314 434 0
2019-05-25 22:34:40 GMT 48.768677 15.323040 36,000 314 433 64
2019-05-25 22:34:36 GMT 48.762955 15.332125 36,000 314 433 64
2019-05-25 22:34:33 GMT 48.759373 15.337854 36,000 314 433 64
2019-05-25 22:34:30 GMT 48.753273 15.347539 36,000 314 433 64
2019-05-25 22:34:27 GMT 48.750000 15.352760 36,000 314 433 64
2019-05-25 22:34:23 GMT 48.745640 15.359682 36,000 314 433 64
2019-05-25 22:34:20 GMT 48.740616 15.367619 36,000 314 431 64
2019-05-25 22:34:17 GMT 48.735352 15.375859 35,975 314 432 64
2019-05-25 22:34:13 GMT 48.730545 15.383536 35,975 314 432 64
2019-05-25 22:34:10 GMT 48.726227 15.390400 35,975 314 432 64
2019-05-25 22:34:07 GMT 48.722828 15.395749 35,975 314 432 64
2019-05-25 22:34:04 GMT 48.718872 15.401987 35,975 314 432 64
2019-05-25 22:34:01 GMT 48.713425 15.410579 35,975 314 432 64
2019-05-25 22:33:58 GMT 48.710632 15.415016 35,975 314 432 64
2019-05-25 22:33:54 GMT 48.705048 15.423889 35,975 314 432 64
2019-05-25 22:33:51 GMT 48.699188 15.433185 35,950 314 431 0
2019-05-25 22:33:48 GMT 48.696945 15.436707 35,950 314 431 0
2019-05-25 22:33:45 GMT 48.691956 15.444594 35,950 314 431 0
2019-05-25 22:33:42 GMT 48.687683 15.451331 35,950 314 431 -64
2019-05-25 22:33:37 GMT 48.681911 15.460438 35,975 314 431 -64
2019-05-25 22:33:34 GMT 48.677719 15.467060 35,975 314 430 -64
2019-05-25 22:33:31 GMT 48.673763 15.473304 35,975 314 430 -64
2019-05-25 22:33:28 GMT 48.668083 15.482194 35,975 314 430 -64
2019-05-25 22:33:24 GMT 48.664078 15.488469 35,975 314 429 -64
2019-05-25 22:33:21 GMT 48.658493 15.497343 35,975 314 429 0
2019-05-25 22:33:18 GMT 48.654350 15.503877 35,975 314 429 -64
2019-05-25 22:33:15 GMT 48.651604 15.508142 35,975 314 429 -64
2019-05-25 22:33:12 GMT 48.646206 15.516671 35,975 314 428 -64
2019-05-25 22:33:08 GMT 48.642105 15.523118 35,975 314 427 0
2019-05-25 22:33:05 GMT 48.636795 15.531499 35,975 314 427 0
2019-05-25 22:33:01 GMT 48.632423 15.538354 35,975 314 427 0
2019-05-25 22:32:58 GMT 48.628006 15.545373 36,000 314 427 0
2019-05-25 22:32:55 GMT 48.623291 15.552767 35,975 314 427 0
2019-05-25 22:32:50 GMT 48.617249 15.562275 35,975 314 427 64
2019-05-25 22:32:47 GMT 48.607517 15.577601 35,975 314 427 0
2019-05-25 22:32:43 GMT 48.607517 15.577601 35,975 314 427 0
2019-05-25 22:32:40 GMT 48.603561 15.583754 35,975 314 427 0
2019-05-25 22:32:37 GMT 48.598766 15.591262 35,975 314 427 0
2019-05-25 22:32:34 GMT 48.594624 15.597767 35,975 314 427 0
2019-05-25 22:32:30 GMT 48.589783 15.605375 35,975 314 427 0
2019-05-25 22:32:27 GMT 48.584839 15.613122 35,975 314 427 0
2019-05-25 22:32:23 GMT 48.575306 15.628052 35,975 314 427 0
2019-05-25 22:32:20 GMT 48.575306 15.628052 35,975 314 427 0
2019-05-25 22:32:16 GMT 48.565475 15.643475 35,975 314 426 0
2019-05-25 22:32:13 GMT 48.565475 15.643475 35,975 314 426 0
2019-05-25 22:32:09 GMT 48.561062 15.650458 35,975 314 426 0
2019-05-25 22:32:06 GMT 48.556313 15.657903 35,975 314 426 -64
2019-05-25 22:32:03 GMT 48.551937 15.664697 35,975 314 425 0
2019-05-25 22:31:59 GMT 48.546616 15.673053 35,975 314 425 -64
2019-05-25 22:31:55 GMT 48.542160 15.680020 35,975 314 425 0
2019-05-25 22:31:52 GMT 48.537365 15.687537 35,975 314 425 -64
2019-05-25 22:31:49 GMT 48.534012 15.692813 35,975 314 425 -64
2019-05-25 22:31:46 GMT 48.528336 15.701704 36,000 314 425 -64
2019-05-25 22:31:38 GMT 48.518875 15.716576 36,000 314 425 0
2019-05-25 22:31:35 GMT 48.514088 15.723965 36,000 314 425 0
2019-05-25 22:31:29 GMT 48.506126 15.736469 36,000 314 425 0
2019-05-25 22:31:26 GMT 48.500587 15.745143 36,000 314 425 0
2019-05-25 22:31:19 GMT 48.491730 15.758902 36,000 314 425 0
2019-05-25 22:31:15 GMT 48.485687 15.768339 36,000 314 425 0
2019-05-25 22:31:11 GMT 48.480106 15.777090 36,000 314 425 -64
2019-05-25 22:31:08 GMT 48.477402 15.781297 36,000 315 425 -64
2019-05-25 22:31:03 GMT 48.470032 15.792776 36,000 315 425 -64
2019-05-25 22:30:58 GMT 48.463299 15.803255 36,000 315 425 0
2019-05-25 22:30:53 GMT 48.456924 15.813157 36,000 315 425 0
2019-05-25 22:30:50 GMT 48.451336 15.821830 36,000 314 425 0
2019-05-25 22:30:47 GMT 48.448868 15.825661 36,000 315 425 0
2019-05-25 22:30:43 GMT 48.442429 15.835736 36,000 314 426 0
2019-05-25 22:30:39 GMT 48.436905 15.844309 36,000 315 425 0
2019-05-25 22:30:36 GMT 48.434006 15.848835 36,000 314 426 0
2019-05-25 22:30:33 GMT 48.429363 15.856018 36,000 314 426 0
2019-05-25 22:30:28 GMT 48.421913 15.867583 36,000 314 426 0
2019-05-25 22:30:25 GMT 48.418304 15.873272 36,000 315 427 0
2019-05-25 22:30:22 GMT 48.413490 15.880737 36,025 315 427 0
2019-05-25 22:30:18 GMT 48.407719 15.889700 36,000 315 427 0
2019-05-25 22:30:15 GMT 48.404922 15.894037 36,000 315 427 0
2019-05-25 22:30:11 GMT 48.398987 15.903273 36,000 315 426 0
2019-05-25 22:30:08 GMT 48.390564 15.916302 36,000 315 426 0
2019-05-25 22:30:05 GMT 48.390564 15.916302 36,000 315 426 0
2019-05-25 22:30:02 GMT 48.386490 15.922587 36,000 315 426 0
2019-05-25 22:29:59 GMT 48.383278 15.927574 36,000 315 426 0
2019-05-25 22:29:55 GMT 48.376968 15.937359 36,000 315 427 0
2019-05-25 22:29:51 GMT 48.372105 15.944848 36,000 315 427 0
2019-05-25 22:29:46 GMT 48.364929 15.955881 36,000 315 427 64
2019-05-25 22:29:43 GMT 48.359985 15.963487 36,000 315 427 64
2019-05-25 22:29:39 GMT 48.353622 15.973326 36,000 315 427 0
2019-05-25 22:29:35 GMT 48.343414 15.989051 36,000 315 427 0
2019-05-25 22:29:30 GMT 48.343414 15.989051 36,000 315 427 0
2019-05-25 22:29:27 GMT 48.339237 15.995588 36,000 315 427 0
2019-05-25 22:29:24 GMT 48.334255 16.003248 36,000 315 427 0
2019-05-25 22:29:20 GMT 48.329910 16.009968 36,000 315 427 0
2019-05-25 22:29:14 GMT 48.315399 16.032433 35,975 315 428 64
2019-05-25 22:29:10 GMT 48.315399 16.032433 35,975 315 427 64
2019-05-25 22:29:05 GMT 48.307938 16.043913 35,975 315 427 64
2019-05-25 22:28:59 GMT 48.300926 16.054785 35,975 315 427 0
2019-05-25 22:28:53 GMT 48.291458 16.069407 35,975 315 428 -64
2019-05-25 22:28:50 GMT 48.287334 16.075745 35,975 315 427 -64
2019-05-25 22:28:46 GMT 48.281654 16.084417 35,975 315 427 -64
2019-05-25 22:28:40 GMT 48.272808 16.098150 35,975 315 428 -64
2019-05-25 22:28:36 GMT 48.266895 16.107185 35,975 315 427 0
2019-05-25 22:28:32 GMT 48.262756 16.113564 35,975 315 427 0
2019-05-25 22:28:29 GMT 48.258564 16.119980 35,975 315 427 0
2019-05-25 22:28:25 GMT 48.253162 16.128290 35,975 315 427 0
2019-05-25 22:28:22 GMT 48.247810 16.136459 35,975 315 427 0
2019-05-25 22:28:17 GMT 48.242039 16.145350 35,975 315 427 0
2019-05-25 22:28:14 GMT 48.236404 16.153950 35,975 315 428 0
2019-05-25 22:28:10 GMT 48.232121 16.160526 35,975 315 428 0
2019-05-25 22:28:07 GMT 48.228584 16.165949 35,975 315 428 -64
2019-05-25 22:28:03 GMT 48.222519 16.175325 35,975 315 428 -64
2019-05-25 22:27:59 GMT 48.217087 16.183657 35,975 315 428 -64
2019-05-25 22:27:56 GMT 48.212009 16.191462 36,000 315 428 -64
2019-05-25 22:27:52 GMT 48.203304 16.204834 36,000 315 427 -64
2019-05-25 22:27:49 GMT 48.203304 16.204834 36,000 315 428 -64
2019-05-25 22:27:43 GMT 48.194183 16.218849 36,000 315 428 -64
2019-05-25 22:27:38 GMT 48.182693 16.236456 36,025 315 428 -64
2019-05-25 22:27:30 GMT 48.176308 16.246250 36,025 315 428 -64
2019-05-25 22:27:27 GMT 48.172813 16.251598 36,025 315 428 -64
2019-05-25 22:27:22 GMT 48.166031 16.261950 36,025 315 428 0
2019-05-25 22:27:19 GMT 48.161270 16.269274 36,025 315 428 0
2019-05-25 22:27:15 GMT 48.156754 16.276033 36,025 315 428 0
2019-05-25 22:27:12 GMT 48.151634 16.283852 36,025 315 428 0
2019-05-25 22:27:08 GMT 48.146187 16.292162 36,025 315 428 0
2019-05-25 22:27:05 GMT 48.142090 16.298424 36,025 315 429 0
2019-05-25 22:27:01 GMT 48.137203 16.305824 36,025 315 429 0
2019-05-25 22:26:58 GMT 48.133163 16.312019 36,025 315 429 -64
2019-05-25 22:26:55 GMT 48.128777 16.318712 36,025 315 429 0
2019-05-25 22:26:49 GMT 48.118973 16.333717 36,025 315 429 0
2019-05-25 22:26:45 GMT 48.114902 16.339909 36,025 315 429 0
2019-05-25 22:26:41 GMT 48.108261 16.350128 36,025 315 429 0
2019-05-25 22:26:38 GMT 48.104523 16.355755 36,025 315 429 0
2019-05-25 22:26:35 GMT 48.099472 16.363449 36,025 315 429 0
2019-05-25 22:26:30 GMT 48.091873 16.374985 36,025 315 430 0
2019-05-25 22:26:27 GMT 48.088928 16.379488 36,025 315 429 0
2019-05-25 22:26:20 GMT 48.075661 16.399841 36,025 315 431 0
2019-05-25 22:26:17 GMT 48.075661 16.399841 36,025 315 429 64
2019-05-25 22:26:14 GMT 48.065277 16.415688 36,000 315 430 64
2019-05-25 22:26:10 GMT 48.065277 16.415688 36,000 315 430 0
2019-05-25 22:26:07 GMT 48.060287 16.423256 36,000 315 431 0
2019-05-25 22:26:03 GMT 48.056900 16.428434 36,000 315 431 0
2019-05-25 22:25:59 GMT 48.051033 16.437449 36,000 315 431 0
2019-05-25 22:25:53 GMT 48.042839 16.449915 36,000 315 431 0
2019-05-25 22:25:49 GMT 48.037067 16.458647 36,000 315 431 0
2019-05-25 22:25:46 GMT 48.031483 16.467169 36,000 315 430 0
2019-05-25 22:25:43 GMT 48.028828 16.471111 36,000 315 430 0
2019-05-25 22:25:40 GMT 48.024124 16.478256 36,000 315 430 0
2019-05-25 22:25:37 GMT 48.020309 16.484070 36,000 315 430 0
2019-05-25 22:25:33 GMT 48.014862 16.492310 36,000 315 431 0
2019-05-25 22:25:29 GMT 48.006855 16.504494 36,000 315 431 0
2019-05-25 22:25:26 GMT 48.003922 16.508930 36,000 315 431 0
2019-05-25 22:25:23 GMT 47.999771 16.515198 36,000 315 429 -64
2019-05-25 22:25:20 GMT 47.995358 16.521959 36,000 315 430 -64
2019-05-25 22:25:16 GMT 47.988693 16.532089 36,000 315 430 -64
2019-05-25 22:25:13 GMT 47.985764 16.536552 36,000 315 430 -64
2019-05-25 22:25:08 GMT 47.979309 16.546303 36,000 315 429 0
2019-05-25 22:25:05 GMT 47.974640 16.553307 36,000 315 429 0
2019-05-25 22:25:02 GMT 47.971252 16.558456 36,000 315 429 0
2019-05-25 22:24:57 GMT 47.963840 16.569635 36,000 315 429 0
2019-05-25 22:24:54 GMT 47.958160 16.578232 36,000 315 429 0
2019-05-25 22:24:48 GMT 47.950390 16.589989 36,025 315 429 0
2019-05-25 22:24:45 GMT 47.946854 16.595329 36,000 315 429 0
2019-05-25 22:24:42 GMT 47.943283 16.600685 36,025 315 429 0
2019-05-25 22:24:39 GMT 47.937168 16.609850 36,025 315 429 0
2019-05-25 22:24:36 GMT 47.935089 16.613045 36,025 315 429 0
2019-05-25 22:24:33 GMT 47.929001 16.622108 36,025 315 429 0
2019-05-25 22:24:30 GMT 47.925995 16.626610 36,025 315 428 0
2019-05-25 22:24:26 GMT 47.920223 16.635344 36,025 315 429 0
2019-05-25 22:24:22 GMT 47.914902 16.643326 36,025 315 429 0
2019-05-25 22:24:19 GMT 47.910416 16.649986 36,025 315 428 0
2019-05-25 22:24:16 GMT 47.906845 16.655411 36,025 315 429 0
2019-05-25 22:24:12 GMT 47.899693 16.666189 36,025 315 429 0
2019-05-25 22:24:07 GMT 47.894943 16.673302 36,025 315 429 0
2019-05-25 22:24:03 GMT 47.888706 16.682739 36,025 315 429 0
2019-05-25 22:23:59 GMT 47.878784 16.697639 36,025 315 429 0
2019-05-25 22:23:53 GMT 47.874462 16.704149 36,025 315 429 0
2019-05-25 22:23:47 GMT 47.866127 16.716614 36,025 315 429 0
2019-05-25 22:23:44 GMT 47.862808 16.721603 36,025 315 429 0
2019-05-25 22:23:41 GMT 47.856812 16.730598 36,025 315 429 0
2019-05-25 22:23:38 GMT 47.852024 16.737812 36,025 315 428 0
2019-05-25 22:23:34 GMT 47.848068 16.743782 36,025 315 429 0
2019-05-25 22:23:30 GMT 47.842438 16.752228 36,000 315 429 0
2019-05-25 22:23:24 GMT 47.834061 16.764793 36,025 315 429 0
2019-05-25 22:23:20 GMT 47.827396 16.774784 36,025 315 429 0
2019-05-25 22:23:15 GMT 47.821014 16.784294 36,000 315 429 0
2019-05-25 22:23:12 GMT 47.815853 16.792040 36,000 315 429 0
2019-05-25 22:23:09 GMT 47.813061 16.796265 36,025 315 429 0
2019-05-25 22:23:04 GMT 47.805611 16.807322 36,025 315 428 0
2019-05-25 22:23:01 GMT 47.801376 16.813751 36,025 315 428 0
2019-05-25 22:22:57 GMT 47.796810 16.820560 36,025 315 428 0
2019-05-25 22:22:53 GMT 47.791180 16.828941 36,000 315 428 0
2019-05-25 22:22:49 GMT 47.785732 16.837181 36,000 315 428 -64
2019-05-25 22:22:43 GMT 47.776520 16.850967 36,000 315 427 -64
2019-05-25 22:22:39 GMT 47.770935 16.859276 36,000 315 427 0
2019-05-25 22:22:36 GMT 47.767365 16.864632 36,000 315 427 0
2019-05-25 22:22:33 GMT 47.762558 16.871773 36,000 315 427 0
2019-05-25 22:22:28 GMT 47.755054 16.883028 36,025 315 427 0
2019-05-25 22:22:23 GMT 47.747360 16.894501 36,025 315 427 64
2019-05-25 22:22:20 GMT 47.743744 16.899860 36,000 315 427 64
2019-05-25 22:22:15 GMT 47.738064 16.908382 36,000 315 427 64
2019-05-25 22:22:12 GMT 47.733223 16.915565 36,000 315 427 64
2019-05-25 22:22:07 GMT 47.725342 16.927322 36,000 315 427 0
2019-05-25 22:22:03 GMT 47.720421 16.934650 36,000 315 427 0
2019-05-25 22:21:59 GMT 47.715672 16.941692 36,000 315 427 0
2019-05-25 22:21:56 GMT 47.710224 16.949720 36,000 315 427 0
2019-05-25 22:21:52 GMT 47.705151 16.957327 36,000 315 427 0
2019-05-25 22:21:47 GMT 47.695221 16.972160 36,000 315 426 0
2019-05-25 22:21:44 GMT 47.695221 16.972160 36,000 315 426 0
2019-05-25 22:21:41 GMT 47.690907 16.978525 36,000 315 426 0
2019-05-25 22:21:37 GMT 47.684189 16.988503 36,000 315 426 64
2019-05-25 22:21:34 GMT 47.676334 17.000216 36,000 315 426 64
2019-05-25 22:21:31 GMT 47.676334 17.000216 36,000 315 425 64
2019-05-25 22:21:27 GMT 47.671635 17.007189 36,000 315 425 64
2019-05-25 22:21:23 GMT 47.664917 17.017204 35,975 315 425 0
2019-05-25 22:21:18 GMT 47.658417 17.026886 35,975 315 424 0
2019-05-25 22:21:14 GMT 47.648438 17.041718 35,975 315 424 0
2019-05-25 22:21:11 GMT 47.648438 17.041718 35,975 315 424 0
2019-05-25 22:21:08 GMT 47.644119 17.048105 35,975 315 424 64
2019-05-25 22:21:03 GMT 47.636993 17.058746 35,975 315 424 0
2019-05-25 22:21:00 GMT 47.632576 17.065289 35,975 315 424 0
2019-05-25 22:20:57 GMT 47.629642 17.069654 35,975 315 424 0
2019-05-25 22:20:54 GMT 47.621777 17.081347 35,975 315 424 0
2019-05-25 22:20:51 GMT 47.615864 17.090149 35,975 315 424 0
2019-05-25 22:20:48 GMT 47.615864 17.090149 35,975 315 424 0
2019-05-25 22:20:44 GMT 47.611023 17.097332 35,975 315 424 0
2019-05-25 22:20:41 GMT 47.601379 17.111687 35,975 315 423 0
2019-05-25 22:20:37 GMT 47.601379 17.111687 35,975 315 423 64
2019-05-25 22:20:32 GMT 47.594559 17.121780 35,975 315 423 0
2019-05-25 22:20:29 GMT 47.591003 17.127052 35,975 315 423 0
2019-05-25 22:20:26 GMT 47.586868 17.133179 35,975 315 423 0
2019-05-25 22:20:22 GMT 47.580578 17.142475 35,975 315 422 0
2019-05-25 22:20:19 GMT 47.576668 17.148251 35,975 315 422 0
2019-05-25 22:20:15 GMT 47.571266 17.156279 35,975 316 423 0
2019-05-25 22:20:12 GMT 47.565449 17.164869 35,975 316 422 0
2019-05-25 22:20:09 GMT 47.562561 17.169090 35,975 316 422 0
2019-05-25 22:20:06 GMT 47.558578 17.174927 35,975 316 422 0
2019-05-25 22:20:01 GMT 47.551346 17.185501 35,975 316 422 0
2019-05-25 22:19:55 GMT 47.543659 17.196842 35,975 316 422 -64
2019-05-25 22:19:52 GMT 47.538261 17.204802 35,975 316 422 -64
2019-05-25 22:19:49 GMT 47.535515 17.208815 35,975 315 422 -64
2019-05-25 22:19:46 GMT 47.531296 17.215027 35,975 315 422 -64
2019-05-25 22:19:43 GMT 47.527088 17.221210 35,975 315 422 0
2019-05-25 22:19:38 GMT 47.519455 17.232477 36,000 316 422 0
2019-05-25 22:19:35 GMT 47.515682 17.238043 35,975 316 422 0
2019-05-25 22:19:32 GMT 47.511520 17.244209 35,975 316 422 0
2019-05-25 22:19:28 GMT 47.506256 17.251968 35,975 315 422 -64
2019-05-25 22:19:25 GMT 47.502090 17.258043 35,975 315 421 -64
2019-05-25 22:19:21 GMT 47.496319 17.266563 36,000 315 422 -64
2019-05-25 22:19:18 GMT 47.491058 17.274311 36,000 315 422 -64
2019-05-25 22:19:15 GMT 47.487717 17.279228 36,000 315 422 -64
2019-05-25 22:19:12 GMT 47.483963 17.284859 36,000 315 422 -64
2019-05-25 22:19:07 GMT 47.477230 17.294733 36,000 316 422 0
2019-05-25 22:19:03 GMT 47.470642 17.304428 36,000 316 422 0
2019-05-25 22:18:59 GMT 47.465149 17.312531 36,000 316 422 0
2019-05-25 22:18:56 GMT 47.462173 17.316925 36,000 316 422 0
2019-05-25 22:18:51 GMT 47.454838 17.327623 36,000 316 422 0
2019-05-25 22:18:46 GMT 47.448303 17.337250 36,000 316 422 0
2019-05-25 22:18:40 GMT 47.438732 17.351286 36,000 316 422 0
2019-05-25 22:18:36 GMT 47.433975 17.358261 36,000 316 422 0
2019-05-25 22:18:33 GMT 47.430584 17.363188 36,000 316 422 0
2019-05-25 22:18:30 GMT 47.426376 17.369316 36,000 316 422 0
2019-05-25 22:18:25 GMT 47.419552 17.379314 36,000 316 422 0
2019-05-25 22:18:20 GMT 47.412506 17.389641 36,000 316 422 0
2019-05-25 22:18:15 GMT 47.400002 17.407907 36,000 316 423 0
2019-05-25 22:18:12 GMT 47.400002 17.407907 36,000 316 423 0
2019-05-25 22:18:04 GMT 47.384628 17.430496 36,000 316 423 0
2019-05-25 22:18:00 GMT 47.384628 17.430496 36,000 316 423 0
2019-05-25 22:17:55 GMT 47.377048 17.441570 36,000 316 423 0
2019-05-25 22:17:49 GMT 47.368423 17.454185 36,000 316 422 0
2019-05-25 22:17:44 GMT 47.354939 17.473896 36,000 316 421 0
2019-05-25 22:17:39 GMT 47.354939 17.473896 36,000 316 422 0
2019-05-25 22:17:35 GMT 47.347771 17.484388 36,000 316 423 0
2019-05-25 22:17:30 GMT 47.340637 17.494766 36,000 316 423 0
2019-05-25 22:17:24 GMT 47.334183 17.504173 36,000 316 423 0
2019-05-25 22:17:20 GMT 47.327614 17.513756 36,000 316 423 0
2019-05-25 22:17:13 GMT 47.319511 17.525517 36,000 316 422 0
2019-05-25 22:17:09 GMT 47.312943 17.535072 36,000 316 422 0
2019-05-25 22:17:03 GMT 47.305733 17.545519 36,000 316 422 0
2019-05-25 22:16:57 GMT 47.295227 17.560822 36,025 316 422 0
2019-05-25 22:16:53 GMT 47.290882 17.567139 36,000 316 423 0
2019-05-25 22:16:50 GMT 47.286804 17.573044 36,000 316 422 64
2019-05-25 22:16:46 GMT 47.280918 17.581646 36,000 316 423 64
2019-05-25 22:16:42 GMT 47.276459 17.588081 36,000 316 423 0
2019-05-25 22:16:37 GMT 47.268444 17.599747 36,000 316 423 0
2019-05-25 22:16:32 GMT 47.261089 17.610451 36,000 316 423 0
2019-05-25 22:16:26 GMT 47.253407 17.621649 36,000 316 423 0
2019-05-25 22:16:23 GMT 47.248672 17.628525 36,000 316 424 0
2019-05-25 22:16:20 GMT 47.245651 17.632851 36,000 316 424 0
2019-05-25 22:16:15 GMT 47.238186 17.643761 36,000 316 424 0
2019-05-25 22:16:10 GMT 47.230412 17.655029 36,000 316 424 0
2019-05-25 22:16:05 GMT 47.224731 17.663269 36,000 316 424 0
2019-05-25 22:16:01 GMT 47.218002 17.673019 36,000 316 424 -64
2019-05-25 22:15:55 GMT 47.209511 17.685312 36,000 316 424 0
2019-05-25 22:15:50 GMT 47.203079 17.694580 36,000 316 424 0
2019-05-25 22:15:45 GMT 47.194660 17.706861 36,000 316 424 0
2019-05-25 22:15:42 GMT 47.191120 17.711933 36,000 316 424 0
2019-05-25 22:15:33 GMT 47.179901 17.728130 36,000 316 422 -64
2019-05-25 22:15:29 GMT 47.165749 17.748554 36,000 316 423 0
2019-05-25 22:15:23 GMT 47.165749 17.748554 36,000 316 422 0
2019-05-25 22:15:18 GMT 47.158630 17.758781 36,000 316 423 0
2019-05-25 22:15:12 GMT 47.149082 17.772570 36,000 316 422 0
2019-05-25 22:15:09 GMT 47.144897 17.778557 36,000 316 423 0
2019-05-25 22:15:03 GMT 47.137726 17.788979 36,000 316 422 0
2019-05-25 22:15:00 GMT 47.133774 17.794624 36,000 316 423 0
2019-05-25 22:14:57 GMT 47.128143 17.802727 36,000 316 423 0
2019-05-25 22:14:52 GMT 47.120453 17.813768 36,025 316 422 0
2019-05-25 22:14:47 GMT 47.115147 17.821444 36,025 316 423 0
2019-05-25 22:14:43 GMT 47.110165 17.828627 36,025 316 423 0
2019-05-25 22:14:40 GMT 47.105232 17.835670 36,000 316 423 0
2019-05-25 22:14:36 GMT 47.100174 17.843033 36,025 316 423 0
2019-05-25 22:14:32 GMT 47.094177 17.851685 36,025 316 424 0
2019-05-25 22:14:27 GMT 47.087029 17.861938 36,025 316 424 0
2019-05-25 22:14:23 GMT 47.080811 17.870911 36,025 316 424 0
2019-05-25 22:14:18 GMT 47.075317 17.878738 36,025 316 424 0
2019-05-25 22:14:14 GMT 47.069138 17.887596 36,000 316 424 0
2019-05-25 22:14:09 GMT 47.060169 17.900461 36,000 316 424 0
2019-05-25 22:14:05 GMT 47.055725 17.906822 36,000 316 424 0
2019-05-25 22:13:59 GMT 47.048672 17.916941 36,000 316 424 0
2019-05-25 22:13:56 GMT 47.042526 17.925814 36,000 316 424 0
2019-05-25 22:13:52 GMT 47.037640 17.932716 36,000 316 424 0
2019-05-25 22:13:49 GMT 47.033524 17.938683 36,000 316 424 0
2019-05-25 22:13:46 GMT 47.029072 17.945040 36,000 316 424 0
2019-05-25 22:13:43 GMT 47.025349 17.950394 36,025 316 424 0
2019-05-25 22:13:35 GMT 47.012741 17.968483 36,000 316 424 0
2019-05-25 22:13:30 GMT 47.002815 17.982647 36,000 316 423 0
2019-05-25 22:13:27 GMT 47.002815 17.982647 36,000 316 424 0
2019-05-25 22:13:23 GMT 46.996902 17.991142 36,000 316 424 0
2019-05-25 22:13:20 GMT 46.987473 18.004601 36,000 316 423 0
2019-05-25 22:13:16 GMT 46.987473 18.004601 36,000 316 424 0
2019-05-25 22:13:12 GMT 46.981682 18.012930 36,000 316 424 0
2019-05-25 22:13:06 GMT 46.973255 18.024973 36,000 316 424 0
2019-05-25 22:13:03 GMT 46.969112 18.030888 36,000 316 424 0
2019-05-25 22:12:59 GMT 46.963303 18.039207 36,000 316 423 0
2019-05-25 22:12:56 GMT 46.960373 18.043396 36,000 316 422 0
2019-05-25 22:12:53 GMT 46.953735 18.052872 36,000 316 423 0
2019-05-25 22:12:49 GMT 46.950352 18.057720 36,000 316 423 0
2019-05-25 22:12:45 GMT 46.943848 18.067017 36,000 316 422 0
2019-05-25 22:12:41 GMT 46.938480 18.074623 36,000 316 423 0
2019-05-25 22:12:34 GMT 46.928658 18.088636 36,000 316 422 0
2019-05-25 22:12:30 GMT 46.923019 18.096748 36,000 316 422 0
2019-05-25 22:12:24 GMT 46.914089 18.109413 36,000 316 422 0
2019-05-25 22:12:20 GMT 46.909698 18.115700 36,000 316 422 0
2019-05-25 22:12:14 GMT 46.898773 18.131245 36,000 316 422 0
2019-05-25 22:12:09 GMT 46.893265 18.139046 36,000 316 422 0
2019-05-25 22:12:02 GMT 46.884201 18.151878 36,000 316 422 0
2019-05-25 22:11:59 GMT 46.879303 18.158821 36,000 316 422 0
2019-05-25 22:11:51 GMT 46.868698 18.173922 36,000 316 422 0
2019-05-25 22:11:46 GMT 46.861725 18.183847 36,000 316 422 0
2019-05-25 22:11:43 GMT 46.856323 18.191551 36,000 316 422 0
2019-05-25 22:11:39 GMT 46.850555 18.199722 36,000 316 422 0
2019-05-25 22:11:32 GMT 46.842178 18.211514 36,000 316 422 0
2019-05-25 22:11:28 GMT 46.836365 18.219820 36,000 316 423 0
2019-05-25 22:11:25 GMT 46.832764 18.224876 36,000 316 423 0
2019-05-25 22:11:22 GMT 46.828583 18.230873 36,000 316 424 64
2019-05-25 22:11:18 GMT 46.822174 18.239918 36,000 316 424 64
2019-05-25 22:11:12 GMT 46.813210 18.252617 35,975 316 425 64
2019-05-25 22:11:04 GMT 46.802444 18.267920 35,925 316 425 0
2019-05-25 22:11:00 GMT 46.797226 18.275288 35,975 316 425 320
2019-05-25 22:10:56 GMT 46.791092 18.283997 35,950 316 424 640
2019-05-25 22:10:50 GMT 46.783127 18.295183 35,925 316 424 704
2019-05-25 22:10:40 GMT 46.767868 18.316750 35,800 316 425 640
2019-05-25 22:10:35 GMT 46.762096 18.324921 35,775 316 425 640
2019-05-25 22:10:32 GMT 46.755569 18.334105 35,725 316 425 640
2019-05-25 22:10:26 GMT 46.748268 18.344353 35,650 316 425 576
2019-05-25 22:10:20 GMT 46.741058 18.354605 35,550 316 425 512
2019-05-25 22:10:15 GMT 46.733604 18.365158 35,550 316 425 512
2019-05-25 22:10:07 GMT 46.720154 18.384109 35,475 316 424 512
2019-05-25 22:09:59 GMT 46.709198 18.399487 35,400 316 424 640
2019-05-25 22:09:55 GMT 46.705395 18.404846 35,375 316 424 640
2019-05-25 22:09:49 GMT 46.696426 18.417440 35,175 317 425 832
2019-05-25 22:09:44 GMT 46.689194 18.427574 35,225 317 425 832
2019-05-25 22:09:33 GMT 46.673973 18.448929 35,075 317 425 960
2019-05-25 22:09:29 GMT 46.667999 18.457232 35,000 316 425 1024
2019-05-25 22:09:24 GMT 46.661030 18.467056 34,900 316 427 1024
2019-05-25 22:09:16 GMT 46.645760 18.488548 34,750 316 427 1024
2019-05-25 22:09:13 GMT 46.645760 18.488548 34,650 316 429 960
2019-05-25 22:09:08 GMT 46.638657 18.498566 34,625 316 429 960
2019-05-25 22:09:02 GMT 46.630142 18.510555 34,550 316 429 832
2019-05-25 22:08:55 GMT 46.619972 18.524803 34,450 316 429 768
2019-05-25 22:08:52 GMT 46.616272 18.530050 34,400 316 429 768
2019-05-25 22:08:48 GMT 46.608521 18.540871 34,325 316 429 768
2019-05-25 22:08:42 GMT 46.601257 18.551085 34,275 316 429 768
2019-05-25 22:08:34 GMT 46.590134 18.566694 34,175 317 429 704
2019-05-25 22:08:31 GMT 46.586498 18.571770 34,150 317 429 704
2019-05-25 22:08:27 GMT 46.579891 18.581039 34,100 317 429 512
2019-05-25 22:08:21 GMT 46.571835 18.592300 34,050 317 429 384
2019-05-25 22:08:16 GMT 46.564636 18.602331 34,025 317 429 64
2019-05-25 22:08:10 GMT 46.556351 18.613920 34,000 317 429 0
2019-05-25 22:08:06 GMT 46.549446 18.623543 34,025 317 429 0
2019-05-25 22:08:00 GMT 46.542114 18.633751 34,000 317 429 0
2019-05-25 22:07:50 GMT 46.526962 18.654919 34,000 317 429 0
2019-05-25 22:07:39 GMT 46.511784 18.676071 34,000 317 430 0
2019-05-25 22:07:29 GMT 46.496796 18.696945 34,000 317 430 -64
2019-05-25 22:07:18 GMT 46.481506 18.718159 34,025 317 430 -64
2019-05-25 22:07:07 GMT 46.465557 18.740410 34,025 317 430 0
2019-05-25 22:06:58 GMT 46.452301 18.758886 34,025 317 430 0
2019-05-25 22:06:55 GMT 46.447823 18.765060 34,025 317 430 0
2019-05-25 22:06:45 GMT 46.434505 18.783531 34,000 317 431 0
2019-05-25 22:06:35 GMT 46.420261 18.803238 34,000 317 431 0
2019-05-25 22:06:26 GMT 46.406479 18.822260 34,000 317 430 0
2019-05-25 22:06:14 GMT 46.388981 18.846565 34,000 317 431 0
2019-05-25 22:06:05 GMT 46.376362 18.864075 34,000 317 430 0
2019-05-25 22:05:54 GMT 46.360703 18.885698 34,000 317 431 0
2019-05-25 22:05:51 GMT 46.355274 18.893257 34,000 317 431 0
2019-05-25 22:05:42 GMT 46.342285 18.911110 34,000 317 431 0
2019-05-25 22:05:33 GMT 46.329952 18.928139 34,000 317 430 0
2019-05-25 22:05:24 GMT 46.316822 18.946266 34,025 317 430 0
2019-05-25 22:05:20 GMT 46.309795 18.955948 34,025 317 430 -64
2019-05-25 22:05:12 GMT 46.299591 18.969906 34,025 317 430 0
2019-05-25 22:05:08 GMT 46.293732 18.977989 34,025 317 430 0
2019-05-25 22:05:03 GMT 46.286545 18.987858 34,025 317 430 0
2019-05-25 22:04:59 GMT 46.280605 18.996048 34,025 317 430 64
2019-05-25 22:04:53 GMT 46.271988 19.007889 34,025 317 430 0
2019-05-25 22:04:50 GMT 46.268555 19.012646 34,025 317 430 0
2019-05-25 22:04:40 GMT 46.252628 19.034569 34,025 317 430 0
2019-05-25 22:04:29 GMT 46.238102 19.054550 34,000 317 429 0
2019-05-25 22:04:19 GMT 46.223671 19.074326 34,000 317 429 0
2019-05-25 22:04:13 GMT 46.214874 19.086411 34,000 317 429 0
2019-05-25 22:04:10 GMT 46.211334 19.091225 34,000 317 429 0
2019-05-25 22:04:07 GMT 46.206635 19.097672 34,000 317 430 0
2019-05-25 22:04:01 GMT 46.197369 19.110374 34,000 317 429 0
2019-05-25 22:03:57 GMT 46.182220 19.131016 34,000 317 429 0
2019-05-25 22:03:50 GMT 46.182220 19.131016 34,000 317 428 0
2019-05-25 22:03:47 GMT 46.177002 19.138184 34,000 317 427 0
2019-05-25 22:03:40 GMT 46.167801 19.150778 34,000 317 428 0
2019-05-25 22:03:34 GMT 46.159332 19.162300 34,000 317 428 64
2019-05-25 22:03:30 GMT 46.152740 19.171345 34,000 317 428 0
2019-05-25 22:03:24 GMT 46.144958 19.181995 34,000 317 428 0
2019-05-25 22:03:14 GMT 46.130493 19.201824 34,000 317 428 64
2019-05-25 22:03:09 GMT 46.122746 19.212410 34,000 317 428 0
2019-05-25 22:03:03 GMT 46.114738 19.223328 33,975 317 427 0
2019-05-25 22:02:58 GMT 46.106964 19.233912 33,975 317 427 0
2019-05-25 22:02:54 GMT 46.100822 19.242210 33,975 317 427 0
2019-05-25 22:02:47 GMT 46.091415 19.255051 33,975 317 427 0
2019-05-25 22:02:42 GMT 46.083755 19.265532 33,975 317 427 0
2019-05-25 22:02:37 GMT 46.076477 19.275446 33,975 317 427 0
2019-05-25 22:02:31 GMT 46.067871 19.287235 33,975 317 427 0
2019-05-25 22:02:25 GMT 46.059574 19.298515 33,975 317 427 0
2019-05-25 22:02:22 GMT 46.054783 19.305038 33,975 317 427 0
2019-05-25 22:02:16 GMT 46.047455 19.314970 33,975 317 426 0
2019-05-25 22:02:11 GMT 46.039032 19.326426 33,975 317 426 0
2019-05-25 22:02:00 GMT 46.023312 19.347748 33,975 317 425 -64
2019-05-25 22:01:49 GMT 46.007675 19.368963 33,975 317 424 0
2019-05-25 22:01:38 GMT 45.992615 19.389395 33,975 317 425 -64
2019-05-25 22:01:31 GMT 45.982159 19.403435 34,000 323 428 0
2019-05-25 22:01:26 GMT 45.974991 19.413111 33,975 317 425 -64
2019-05-25 22:01:17 GMT 45.962280 19.430283 34,000 317 425 -64
2019-05-25 22:01:05 GMT 45.944916 19.453697 34,000 317 425 0
2019-05-25 22:00:53 GMT 45.927460 19.477112 34,000 318 426 0
2019-05-25 22:00:42 GMT 45.906979 19.502106 34,000 322 427 0
2019-05-25 22:00:33 GMT 45.897854 19.512474 34,000 323 428 0
2019-05-25 22:00:24 GMT 45.883118 19.528131 34,000 324 429 0
2019-05-25 22:00:15 GMT 45.868710 19.543167 34,000 324 430 0
2019-05-25 22:00:12 GMT 45.863937 19.548094 34,000 324 430 0
2019-05-25 22:00:02 GMT 45.847778 19.564909 34,000 324 430 0
2019-05-25 21:59:56 GMT 45.837982 19.575090 34,000 324 430 0
2019-05-25 21:59:51 GMT 45.830120 19.583267 34,000 324 430 0
2019-05-25 21:59:41 GMT 45.814293 19.599678 34,000 324 430 0
2019-05-25 21:59:35 GMT 45.804050 19.610321 34,000 325 431 0
2019-05-25 21:59:31 GMT 45.797348 19.617325 34,000 325 431 0
2019-05-25 21:59:28 GMT 45.792435 19.622387 33,975 325 431 0
2019-05-25 21:59:23 GMT 45.785290 19.629822 33,975 325 431 0
2019-05-25 21:59:18 GMT 45.775841 19.639641 34,000 325 431 0
2019-05-25 21:59:13 GMT 45.769321 19.646370 34,000 325 431 0
2019-05-25 21:59:10 GMT 45.763039 19.652893 34,000 325 431 0
2019-05-25 21:59:02 GMT 45.751556 19.664789 34,000 324 431 0
2019-05-25 21:58:58 GMT 45.745010 19.671623 34,000 325 431 0
2019-05-25 21:58:52 GMT 45.734035 19.682968 34,000 325 431 -64
2019-05-25 21:58:46 GMT 45.725693 19.691586 34,000 325 431 -64
2019-05-25 21:58:40 GMT 45.714844 19.702841 34,000 325 431 -64
2019-05-25 21:58:35 GMT 45.706898 19.711052 34,000 325 431 0
2019-05-25 21:58:30 GMT 45.698608 19.719566 34,000 325 431 0
2019-05-25 21:58:26 GMT 45.692230 19.726219 34,000 325 431 0
2019-05-25 21:58:15 GMT 45.674377 19.744642 34,000 325 431 0
2019-05-25 21:58:11 GMT 45.666023 19.753281 34,000 325 434 0
2019-05-25 21:58:05 GMT 45.658035 19.761457 34,000 325 432 0
2019-05-25 21:57:59 GMT 45.647308 19.772507 34,000 325 431 0
2019-05-25 21:57:54 GMT 45.638699 19.781433 34,000 325 434 0
2019-05-25 21:57:46 GMT 45.627197 19.793243 34,000 325 433 0
2019-05-25 21:57:42 GMT 45.621002 19.799641 34,000 325 434 0
2019-05-25 21:57:35 GMT 45.609604 19.811371 34,000 325 434 0
2019-05-25 21:57:23 GMT 45.590839 19.830666 34,000 325 434 -64
2019-05-25 21:57:13 GMT 45.573895 19.848038 34,000 325 434 -64
2019-05-25 21:57:10 GMT 45.567566 19.854561 34,000 325 434 -64
2019-05-25 21:56:48 GMT 45.533432 19.889635 34,025 325 433 -64
2019-05-25 21:56:39 GMT 45.518730 19.904680 34,050 325 433 -64
2019-05-25 21:56:31 GMT 45.505463 19.918213 34,050 325 433 0
2019-05-25 21:56:28 GMT 45.501343 19.922464 34,050 325 433 0
2019-05-25 21:56:19 GMT 45.486610 19.937506 34,050 325 433 0
2019-05-25 21:56:16 GMT 45.481934 19.942278 34,050 325 433 0
2019-05-25 21:56:07 GMT 45.466873 19.957670 34,050 325 433 0
2019-05-25 21:55:59 GMT 45.452953 19.971872 34,050 325 434 0
2019-05-25 21:55:56 GMT 45.448975 19.975958 34,050 325 434 0
2019-05-25 21:55:48 GMT 45.435745 19.989492 34,050 325 434 0
2019-05-25 21:55:44 GMT 45.429565 19.995836 34,050 325 434 0
2019-05-25 21:55:38 GMT 45.414780 20.010927 34,050 325 434 64
2019-05-25 21:55:32 GMT 45.408775 20.016956 34,050 325 434 64
2019-05-25 21:55:26 GMT 45.400360 20.025591 34,025 325 434 64
2019-05-25 21:55:22 GMT 45.393723 20.032328 34,025 325 434 64
2019-05-25 21:55:16 GMT 45.383331 20.042921 34,025 325 434 64
2019-05-25 21:55:12 GMT 45.376740 20.049656 34,025 325 434 64
2019-05-25 21:55:04 GMT 45.364563 20.062016 34,025 325 434 64
2019-05-25 21:55:01 GMT 45.358200 20.068489 34,000 325 434 64
2019-05-25 21:54:55 GMT 45.348495 20.078365 34,000 325 433 64
2019-05-25 21:54:50 GMT 45.340343 20.086624 34,000 325 432 64
2019-05-25 21:54:44 GMT 45.330475 20.096741 34,000 325 432 64
2019-05-25 21:54:36 GMT 45.316040 20.111389 33,975 325 432 64
2019-05-25 21:54:27 GMT 45.304314 20.123268 33,975 325 432 64
2019-05-25 21:54:21 GMT 45.293930 20.133854 33,975 325 431 64
2019-05-25 21:54:17 GMT 45.287132 20.140753 33,975 325 430 0
2019-05-25 21:54:13 GMT 45.266281 20.161940 33,975 325 430 0
2019-05-25 21:54:04 GMT 45.266281 20.161940 33,975 325 430 0
2019-05-25 21:53:53 GMT 45.247925 20.180447 33,975 325 429 0
2019-05-25 21:53:43 GMT 45.231812 20.196795 33,975 325 428 0
2019-05-25 21:53:33 GMT 45.216095 20.212633 33,975 325 427 0
2019-05-25 21:53:22 GMT 45.198669 20.230276 33,975 325 426 0
2019-05-25 21:53:11 GMT 45.180531 20.248608 33,975 325 426 -64
2019-05-25 21:53:00 GMT 45.163605 20.265656 33,975 325 425 -64
2019-05-25 21:52:52 GMT 45.149109 20.280293 34,000 325 425 -64
2019-05-25 21:52:40 GMT 45.131332 20.298222 34,000 325 425 -64
2019-05-25 21:52:37 GMT 45.126480 20.303137 34,000 325 424 0
2019-05-25 21:52:30 GMT 45.115356 20.314308 34,000 325 424 -64
2019-05-25 21:52:26 GMT 45.109131 20.320587 34,000 325 424 -64
2019-05-25 21:52:20 GMT 45.099243 20.330526 34,000 325 424 -64
2019-05-25 21:52:14 GMT 45.088867 20.340919 34,000 325 423 -64
2019-05-25 21:52:10 GMT 45.082352 20.347485 34,025 325 423 -64
2019-05-25 21:51:59 GMT 45.065048 20.364859 34,025 325 423 0
2019-05-25 21:51:49 GMT 45.048752 20.381208 34,025 325 423 0
2019-05-25 21:51:42 GMT 45.038773 20.391214 34,025 325 423 0
2019-05-25 21:51:37 GMT 45.029526 20.400499 34,025 325 423 0
2019-05-25 21:51:30 GMT 45.019638 20.410374 34,025 325 423 -64
2019-05-25 21:51:27 GMT 45.013596 20.416391 34,025 325 423 0
2019-05-25 21:51:20 GMT 45.003845 20.426134 34,025 325 423 0
2019-05-25 21:51:17 GMT 44.996090 20.433901 34,025 325 423 0
2019-05-25 21:51:10 GMT 44.986591 20.443480 34,025 325 422 0
2019-05-25 21:51:06 GMT 44.980122 20.449911 34,025 325 422 0
2019-05-25 21:51:02 GMT 44.975189 20.454908 34,025 325 422 0
2019-05-25 21:50:58 GMT 44.966717 20.463375 34,025 325 422 0
2019-05-25 21:50:54 GMT 44.961868 20.468248 34,025 325 422 0
2019-05-25 21:50:51 GMT 44.956707 20.473425 34,025 325 421 0
2019-05-25 21:50:47 GMT 44.936005 20.494144 34,025 325 421 0
2019-05-25 21:50:38 GMT 44.936005 20.494144 34,025 325 421 0
2019-05-25 21:50:35 GMT 44.931381 20.498747 34,025 325 421 0
2019-05-25 21:50:29 GMT 44.916916 20.513241 34,000 325 420 0
2019-05-25 21:50:26 GMT 44.916916 20.513241 34,025 325 420 0
2019-05-25 21:50:19 GMT 44.905872 20.524269 34,000 325 420 0
2019-05-25 21:50:16 GMT 44.899448 20.530634 34,000 325 420 0
2019-05-25 21:50:08 GMT 44.888306 20.541752 34,000 325 420 0
2019-05-25 21:50:03 GMT 44.880779 20.549257 34,000 325 420 0
2019-05-25 21:49:56 GMT 44.869583 20.560455 34,000 325 419 0
2019-05-25 21:49:52 GMT 44.863312 20.566668 34,000 325 419 0
2019-05-25 21:49:42 GMT 44.847244 20.582624 34,000 325 418 0
2019-05-25 21:49:31 GMT 44.829899 20.599901 34,025 325 418 -64
2019-05-25 21:49:19 GMT 44.810997 20.618658 34,025 325 418 0
2019-05-25 21:49:09 GMT 44.795170 20.634401 34,025 325 417 0
2019-05-25 21:49:04 GMT 44.785954 20.643513 34,025 325 416 0
2019-05-25 21:48:58 GMT 44.777939 20.651485 34,000 325 416 0
2019-05-25 21:48:50 GMT 44.763062 20.666199 34,000 325 416 0
2019-05-25 21:48:47 GMT 44.759903 20.669271 34,000 325 416 64
2019-05-25 21:48:39 GMT 44.748154 20.680893 34,000 325 416 64
2019-05-25 21:48:36 GMT 44.743469 20.685556 34,000 325 416 0
2019-05-25 21:48:28 GMT 44.730148 20.698700 34,000 325 416 64
2019-05-25 21:48:25 GMT 44.726273 20.702597 34,000 325 416 64
2019-05-25 21:48:20 GMT 44.718338 20.710470 34,000 325 415 0
2019-05-25 21:48:17 GMT 44.713749 20.715057 34,000 325 415 0
2019-05-25 21:48:14 GMT 44.709045 20.719692 34,000 325 415 0
2019-05-25 21:48:06 GMT 44.695724 20.732967 33,975 325 414 0
2019-05-25 21:48:02 GMT 44.690002 20.738590 33,975 325 414 0
2019-05-25 21:47:59 GMT 44.685539 20.743057 33,975 326 415 0
2019-05-25 21:47:56 GMT 44.680710 20.747810 33,975 325 414 0
2019-05-25 21:47:52 GMT 44.674255 20.754089 33,975 325 414 0
2019-05-25 21:47:45 GMT 44.663940 20.764294 33,975 325 413 0
2019-05-25 21:47:41 GMT 44.657330 20.770792 33,975 325 413 64
2019-05-25 21:47:36 GMT 44.648392 20.779568 33,975 325 412 0
2019-05-25 21:47:28 GMT 44.637039 20.790775 33,975 325 412 64
2019-05-25 21:47:25 GMT 44.631680 20.796114 33,975 325 411 64
2019-05-25 21:47:19 GMT 44.622459 20.805159 33,950 325 412 0
2019-05-25 21:47:14 GMT 44.615158 20.812357 33,975 325 412 0
2019-05-25 21:47:08 GMT 44.605499 20.821903 33,975 325 411 0
2019-05-25 21:47:04 GMT 44.599731 20.827593 33,950 325 411 0
2019-05-25 21:46:57 GMT 44.587826 20.839390 33,950 325 411 0
2019-05-25 21:46:54 GMT 44.583847 20.843353 33,975 325 411 0
2019-05-25 21:46:43 GMT 44.566879 20.860090 33,950 325 410 0
2019-05-25 21:46:33 GMT 44.550339 20.876312 33,975 325 410 -64
2019-05-25 21:46:23 GMT 44.534897 20.891441 33,975 325 410 -64
2019-05-25 21:46:12 GMT 44.517792 20.908224 33,975 326 410 0
2019-05-25 21:46:02 GMT 44.502502 20.923265 33,975 326 410 -64
2019-05-25 21:45:55 GMT 44.492161 20.933376 33,975 326 410 -64
2019-05-25 21:45:52 GMT 44.486622 20.938803 33,975 326 410 0
2019-05-25 21:45:44 GMT 44.474148 20.950994 33,975 326 410 0
2019-05-25 21:45:40 GMT 44.468582 20.956421 34,000 326 410 0
2019-05-25 21:45:29 GMT 44.451569 20.973101 34,000 326 410 0
2019-05-25 21:45:18 GMT 44.434021 20.990295 34,000 326 410 0
2019-05-25 21:45:10 GMT 44.422577 21.001413 34,000 325 410 -64
2019-05-25 21:45:00 GMT 44.405666 21.017984 34,000 325 411 64
2019-05-25 21:44:55 GMT 44.398453 21.025085 34,000 325 411 64
2019-05-25 21:44:49 GMT 44.389606 21.033661 34,000 326 412 64
2019-05-25 21:44:45 GMT 44.382439 21.040693 34,000 326 412 -64
2019-05-25 21:44:39 GMT 44.373501 21.049402 34,000 326 412 -64
2019-05-25 21:44:33 GMT 44.363525 21.059156 34,000 326 412 -64
2019-05-25 21:44:28 GMT 44.356339 21.066088 34,000 326 412 0
2019-05-25 21:44:22 GMT 44.346451 21.075701 34,000 326 413 -64
2019-05-25 21:44:18 GMT 44.341095 21.080933 34,000 326 413 0
2019-05-25 21:44:10 GMT 44.328644 21.093031 34,000 326 413 0
2019-05-25 21:44:07 GMT 44.323921 21.097569 34,000 326 413 0
2019-05-25 21:43:57 GMT 44.308186 21.112909 34,025 326 413 -64
2019-05-25 21:43:47 GMT 44.291569 21.129053 34,025 326 413 -64
2019-05-25 21:43:37 GMT 44.275742 21.144394 34,025 326 414 0
2019-05-25 21:43:26 GMT 44.259201 21.160387 34,025 326 414 0
2019-05-25 21:43:16 GMT 44.242500 21.176617 34,025 326 415 0
2019-05-25 21:43:05 GMT 44.225883 21.192760 34,025 326 415 0
2019-05-25 21:42:54 GMT 44.207821 21.210245 34,025 326 415 0
2019-05-25 21:42:43 GMT 44.190643 21.226894 34,025 326 416 0
2019-05-25 21:42:32 GMT 44.173092 21.243767 34,025 326 416 0
2019-05-25 21:42:23 GMT 44.159779 21.256647 34,025 326 416 0
2019-05-25 21:42:20 GMT 44.154968 21.261292 34,025 326 416 0
2019-05-25 21:42:13 GMT 44.144093 21.271820 34,025 326 416 0
2019-05-25 21:42:10 GMT 44.138672 21.277067 34,025 326 416 0
2019-05-25 21:42:02 GMT 44.126816 21.288502 34,025 326 416 0
2019-05-25 21:41:58 GMT 44.120453 21.294634 34,025 326 416 0
2019-05-25 21:41:52 GMT 44.110245 21.304405 34,025 326 416 0
2019-05-25 21:41:48 GMT 44.103882 21.310602 34,025 326 416 0
2019-05-25 21:41:42 GMT 44.094635 21.319418 34,025 326 416 0
2019-05-25 21:41:37 GMT 44.086319 21.327471 34,025 326 415 0
2019-05-25 21:41:30 GMT 44.076187 21.337238 34,000 326 415 0
2019-05-25 21:41:26 GMT 44.068768 21.344408 34,000 326 415 0
2019-05-25 21:41:22 GMT 44.062298 21.350620 34,025 326 415 0
2019-05-25 21:41:14 GMT 44.050735 21.361830 34,000 326 415 0
2019-05-25 21:41:10 GMT 44.044418 21.367962 34,000 326 415 0
2019-05-25 21:41:04 GMT 44.033810 21.378086 34,000 326 415 0
2019-05-25 21:41:00 GMT 44.028946 21.382845 34,000 326 414 0
2019-05-25 21:40:53 GMT 44.017422 21.393847 34,000 326 414 0
2019-05-25 21:40:50 GMT 44.012283 21.398811 34,000 326 414 0
2019-05-25 21:40:45 GMT 44.003952 21.406796 34,000 326 414 0
2019-05-25 21:40:42 GMT 44.000198 21.410393 34,000 326 414 0
2019-05-25 21:40:37 GMT 43.992004 21.418240 33,975 326 414 0
2019-05-25 21:40:31 GMT 43.983112 21.426741 33,975 326 414 0
2019-05-25 21:40:27 GMT 43.974335 21.435221 33,975 326 414 0
2019-05-25 21:40:18 GMT 43.961884 21.447102 33,975 326 414 0
2019-05-25 21:40:15 GMT 43.957649 21.451134 33,975 326 414 0
2019-05-25 21:40:05 GMT 43.939728 21.468307 33,975 326 413 0
2019-05-25 21:39:56 GMT 43.927963 21.479549 33,975 326 413 0
2019-05-25 21:39:45 GMT 43.907654 21.499067 33,975 326 413 0
2019-05-25 21:39:36 GMT 43.895222 21.510902 33,975 326 412 -64
2019-05-25 21:39:33 GMT 43.891220 21.514763 33,975 326 412 0
2019-05-25 21:39:23 GMT 43.874588 21.530647 33,975 326 411 0
2019-05-25 21:39:18 GMT 43.867310 21.537609 34,000 326 411 0
2019-05-25 21:39:12 GMT 43.858566 21.545979 33,975 326 411 0
2019-05-25 21:39:08 GMT 43.851974 21.552238 33,975 326 411 0
2019-05-25 21:39:01 GMT 43.840755 21.563023 33,975 326 411 0
2019-05-25 21:38:58 GMT 43.836044 21.567503 34,000 326 411 0
2019-05-25 21:38:52 GMT 43.826233 21.576887 33,975 326 411 0
2019-05-25 21:38:48 GMT 43.820251 21.582579 34,000 326 410 -64
2019-05-25 21:38:41 GMT 43.809036 21.593309 33,975 326 410 0
2019-05-25 21:38:37 GMT 43.803097 21.598925 33,975 326 410 0
2019-05-25 21:38:29 GMT 43.790359 21.611067 34,000 326 410 0
2019-05-25 21:38:17 GMT 43.771954 21.628550 34,000 326 411 -64
2019-05-25 21:38:07 GMT 43.756962 21.642738 34,000 326 411 -64
2019-05-25 21:38:04 GMT 43.752365 21.647154 34,000 326 410 -64
2019-05-25 21:37:56 GMT 43.739273 21.659546 34,025 326 411 0
2019-05-25 21:37:46 GMT 43.723480 21.674557 34,025 326 411 0
2019-05-25 21:37:36 GMT 43.703056 21.693878 34,025 326 411 0
2019-05-25 21:37:33 GMT 43.703056 21.693878 34,025 326 411 64
2019-05-25 21:37:25 GMT 43.690857 21.705454 34,025 326 411 0
2019-05-25 21:37:17 GMT 43.678150 21.717485 34,025 326 411 0
2019-05-25 21:37:14 GMT 43.674042 21.721376 34,000 326 411 0
2019-05-25 21:37:11 GMT 43.669258 21.725922 34,000 326 411 0
2019-05-25 21:37:04 GMT 43.657928 21.736643 34,025 326 411 0
2019-05-25 21:37:00 GMT 43.649048 21.745073 34,025 326 411 0
2019-05-25 21:36:53 GMT 43.640953 21.752733 34,025 326 411 -64
2019-05-25 21:36:50 GMT 43.636093 21.757273 34,025 326 411 0
2019-05-25 21:36:43 GMT 43.624802 21.767969 34,025 326 412 0
2019-05-25 21:36:39 GMT 43.618793 21.773594 34,025 326 412 0
2019-05-25 21:36:33 GMT 43.608353 21.783461 34,025 326 412 0
2019-05-25 21:36:28 GMT 43.601532 21.789913 34,025 326 412 0
2019-05-25 21:36:21 GMT 43.589539 21.801155 34,025 326 412 0
2019-05-25 21:36:18 GMT 43.584393 21.806030 34,000 326 412 0
2019-05-25 21:36:12 GMT 43.576584 21.813417 34,000 326 411 0
2019-05-25 21:36:06 GMT 43.567017 21.822426 34,000 326 411 0
2019-05-25 21:36:00 GMT 43.557037 21.831942 34,000 326 411 0
2019-05-25 21:35:56 GMT 43.550674 21.837881 34,000 326 411 0
2019-05-25 21:35:52 GMT 43.543892 21.844286 34,025 326 411 0
2019-05-25 21:35:46 GMT 43.534302 21.853376 34,000 326 411 0
2019-05-25 21:35:42 GMT 43.528065 21.859262 34,000 326 411 0
2019-05-25 21:35:36 GMT 43.518906 21.867903 34,000 326 411 0
2019-05-25 21:35:30 GMT 43.499901 21.885813 34,000 326 410 0
2019-05-25 21:35:25 GMT 43.499901 21.885813 34,000 326 410 0
2019-05-25 21:35:21 GMT 43.495193 21.890196 34,000 326 410 0
2019-05-25 21:35:14 GMT 43.484119 21.900591 34,000 326 411 0
2019-05-25 21:35:10 GMT 43.478989 21.905397 34,000 326 411 0
2019-05-25 21:35:04 GMT 43.468918 21.914850 34,000 326 411 0
2019-05-25 21:34:59 GMT 43.461823 21.921452 34,000 326 411 0
2019-05-25 21:34:54 GMT 43.451580 21.931065 34,000 326 410 0
2019-05-25 21:34:48 GMT 43.443970 21.938229 34,000 326 410 -64
2019-05-25 21:34:43 GMT 43.435703 21.945974 34,000 326 410 0
2019-05-25 21:34:37 GMT 43.426952 21.954149 34,000 326 410 64
2019-05-25 21:34:33 GMT 43.418472 21.962116 34,000 326 410 64
2019-05-25 21:34:26 GMT 43.408939 21.971022 34,000 326 410 0
2019-05-25 21:34:22 GMT 43.403458 21.976105 34,000 326 410 0
2019-05-25 21:34:19 GMT 43.398277 21.981028 34,000 326 410 0
2019-05-25 21:34:15 GMT 43.391693 21.987156 34,000 326 410 0
2019-05-25 21:34:11 GMT 43.385567 21.992863 34,000 326 409 0
2019-05-25 21:34:04 GMT 43.374939 22.002806 34,000 326 409 0
2019-05-25 21:34:01 GMT 43.363689 22.013332 34,000 326 409 -64
2019-05-25 21:33:53 GMT 43.355404 22.021048 34,000 326 408 -64
2019-05-25 21:33:46 GMT 43.347382 22.028482 33,975 326 409 0
2019-05-25 21:33:42 GMT 43.339760 22.035631 34,000 326 409 -64
2019-05-25 21:33:34 GMT 43.327423 22.047207 34,000 326 409 -64
2019-05-25 21:33:29 GMT 43.320164 22.054007 34,000 326 408 -64
2019-05-25 21:33:26 GMT 43.315613 22.058247 34,000 326 408 -64
2019-05-25 21:33:22 GMT 43.308430 22.064995 34,025 326 408 0
2019-05-25 21:33:19 GMT 43.304615 22.068525 34,025 326 409 0
2019-05-25 21:33:12 GMT 43.293732 22.078688 34,000 326 408 0
2019-05-25 21:33:09 GMT 43.289299 22.082781 34,025 326 408 0
2019-05-25 21:33:05 GMT 43.282688 22.088928 34,000 326 409 0
2019-05-25 21:33:02 GMT 43.278534 22.092802 34,000 326 409 0
2019-05-25 21:32:57 GMT 43.269379 22.101297 34,000 326 408 0
2019-05-25 21:32:54 GMT 43.266083 22.104364 34,000 326 408 0
2019-05-25 21:32:51 GMT 43.261135 22.109003 34,000 326 408 0
2019-05-25 21:32:47 GMT 43.254803 22.114889 34,000 326 408 0
2019-05-25 21:32:42 GMT 43.245911 22.123196 34,000 326 408 0
2019-05-25 21:32:39 GMT 43.240128 22.128572 34,000 326 409 0
2019-05-25 21:32:33 GMT 43.233017 22.135162 34,000 326 409 0
2019-05-25 21:32:28 GMT 43.224152 22.143391 34,000 326 408 0
2019-05-25 21:32:23 GMT 43.217236 22.149811 34,000 326 408 0
2019-05-25 21:32:15 GMT 43.204529 22.161583 34,000 326 408 0
2019-05-25 21:32:11 GMT 43.198566 22.167074 34,000 326 408 0
2019-05-25 21:32:05 GMT 43.188232 22.176752 34,000 326 408 0
2019-05-25 21:32:01 GMT 43.182274 22.182312 34,000 326 408 0
2019-05-25 21:31:56 GMT 43.173801 22.190159 34,000 326 409 0
2019-05-25 21:31:53 GMT 43.169174 22.194427 34,000 326 409 0
2019-05-25 21:31:50 GMT 43.165833 22.197557 34,000 326 408 0
2019-05-25 21:31:43 GMT 43.154251 22.208275 34,000 326 408 64
2019-05-25 21:31:40 GMT 43.150131 22.212120 34,000 326 408 64
2019-05-25 21:31:34 GMT 43.138657 22.222727 34,000 326 408 64
2019-05-25 21:31:30 GMT 43.133972 22.227131 33,975 326 408 64
2019-05-25 21:31:23 GMT 43.118362 22.241503 33,975 326 409 0
2019-05-25 21:31:20 GMT 43.118362 22.241503 33,975 326 409 0
2019-05-25 21:31:12 GMT 43.105000 22.253855 33,975 326 409 0
2019-05-25 21:31:09 GMT 43.101089 22.257450 33,975 326 409 0
2019-05-25 21:31:02 GMT 43.089569 22.268074 33,975 326 408 0
2019-05-25 21:30:59 GMT 43.085587 22.271772 33,975 326 408 0
2019-05-25 21:30:52 GMT 43.072365 22.284000 33,975 326 408 0
2019-05-25 21:30:48 GMT 43.067337 22.288645 33,975 326 408 0
2019-05-25 21:30:39 GMT 43.053650 22.301266 33,975 326 408 0
2019-05-25 21:30:31 GMT 43.041546 22.312449 33,975 326 407 0
2019-05-25 21:30:28 GMT 43.037430 22.316298 33,975 326 407 0
2019-05-25 21:30:21 GMT 43.025394 22.327423 33,975 326 407 0
2019-05-25 21:30:18 GMT 43.020721 22.331757 33,975 326 407 0
2019-05-25 21:30:08 GMT 43.004353 22.346846 33,975 326 407 -64
2019-05-25 21:30:00 GMT 42.993027 22.357306 34,000 326 407 0
2019-05-25 21:29:56 GMT 42.986572 22.363247 34,000 326 407 0
2019-05-25 21:29:49 GMT 42.976093 22.372871 34,000 326 407 0
2019-05-25 21:29:45 GMT 42.968994 22.379471 34,000 326 407 0
2019-05-25 21:29:39 GMT 42.960033 22.387716 34,000 327 408 -64
2019-05-25 21:29:35 GMT 42.953293 22.393841 34,000 327 407 -64
2019-05-25 21:29:27 GMT 42.940994 22.405111 34,000 327 408 -64
2019-05-25 21:29:22 GMT 42.933884 22.411598 34,000 327 408 -64
2019-05-25 21:29:17 GMT 42.921249 22.423223 34,025 326 409 -64
2019-05-25 21:29:14 GMT 42.921249 22.423223 34,025 326 408 -64
2019-05-25 21:29:07 GMT 42.910316 22.433296 34,025 326 408 -64
2019-05-25 21:29:03 GMT 42.903984 22.439117 34,025 326 409 -64
2019-05-25 21:28:57 GMT 42.894627 22.447683 34,025 326 409 0
2019-05-25 21:28:52 GMT 42.887100 22.454586 34,025 327 409 0
2019-05-25 21:28:45 GMT 42.875355 22.465342 34,025 327 409 0
2019-05-25 21:28:40 GMT 42.867096 22.472918 34,025 327 409 0
2019-05-25 21:28:35 GMT 42.859715 22.479662 34,025 327 409 0
2019-05-25 21:28:31 GMT 42.854130 22.484829 34,025 327 409 64
2019-05-25 21:28:27 GMT 42.846542 22.491760 34,025 327 409 64
2019-05-25 21:28:24 GMT 42.842651 22.495337 34,025 327 409 64
2019-05-25 21:28:21 GMT 42.837650 22.499868 34,025 327 411 64
2019-05-25 21:28:14 GMT 42.826401 22.510220 34,025 327 411 64
2019-05-25 21:28:10 GMT 42.819946 22.516159 34,025 327 411 0
2019-05-25 21:28:04 GMT 42.810837 22.524464 34,000 327 411 0
2019-05-25 21:27:59 GMT 42.803291 22.531363 34,025 327 411 0
2019-05-25 21:27:53 GMT 42.793468 22.540367 34,025 327 411 0
2019-05-25 21:27:49 GMT 42.786209 22.547005 34,025 327 411 0
2019-05-25 21:27:43 GMT 42.777782 22.554741 34,025 327 411 0
2019-05-25 21:27:38 GMT 42.767532 22.564045 34,025 327 411 64
2019-05-25 21:27:35 GMT 42.764465 22.566854 34,000 327 412 0
2019-05-25 21:27:32 GMT 42.759396 22.571474 34,000 327 412 0
2019-05-25 21:27:28 GMT 42.752785 22.577478 34,000 327 412 0
2019-05-25 21:27:24 GMT 42.747803 22.582024 34,000 327 412 0
2019-05-25 21:27:20 GMT 42.740353 22.588848 34,000 327 412 0
2019-05-25 21:27:16 GMT 42.732834 22.595694 34,000 327 412 0
2019-05-25 21:27:12 GMT 42.729080 22.599127 34,000 327 412 0
2019-05-25 21:27:04 GMT 42.709351 22.617104 34,000 327 412 0
2019-05-25 21:26:55 GMT 42.701248 22.624491 34,000 327 412 0
2019-05-25 21:26:52 GMT 42.696442 22.628839 34,025 327 412 -64
2019-05-25 21:26:44 GMT 42.684174 22.639952 34,025 327 411 -64
2019-05-25 21:26:40 GMT 42.677490 22.646006 34,025 327 411 -64
2019-05-25 21:26:34 GMT 42.668198 22.654495 34,025 327 411 0
2019-05-25 21:26:31 GMT 42.661449 22.660643 34,025 327 411 0
2019-05-25 21:26:24 GMT 42.651020 22.670095 34,025 327 411 0
2019-05-25 21:26:19 GMT 42.644783 22.675716 34,025 327 411 64
2019-05-25 21:26:10 GMT 42.628723 22.690216 34,000 327 411 64
2019-05-25 21:26:03 GMT 42.617432 22.700377 34,000 327 411 64
2019-05-25 21:25:59 GMT 42.612892 22.704397 34,000 327 411 64
2019-05-25 21:25:51 GMT 42.599861 22.716150 34,000 327 412 64
2019-05-25 21:25:47 GMT 42.593807 22.721516 34,000 327 412 64
2019-05-25 21:25:39 GMT 42.580215 22.733709 33,975 327 412 64
2019-05-25 21:25:36 GMT 42.576370 22.737206 33,975 327 412 64
2019-05-25 21:25:29 GMT 42.563873 22.748442 33,975 327 412 64
2019-05-25 21:25:24 GMT 42.557419 22.754185 33,975 327 412 0
2019-05-25 21:25:17 GMT 42.546371 22.764183 33,975 327 411 0
2019-05-25 21:25:13 GMT 42.539200 22.770601 33,975 327 411 0
2019-05-25 21:25:08 GMT 42.530777 22.778172 33,975 327 411 0
2019-05-25 21:25:01 GMT 42.521374 22.786604 33,975 327 411 0
2019-05-25 21:24:57 GMT 42.514809 22.792479 33,975 327 411 0
2019-05-25 21:24:52 GMT 42.506973 22.799501 33,975 327 411 0
2019-05-25 21:24:48 GMT 42.498142 22.807426 33,975 327 411 0
2019-05-25 21:24:41 GMT 42.489532 22.815090 33,975 327 411 0
2019-05-25 21:24:37 GMT 42.482407 22.821478 33,975 327 411 0
2019-05-25 21:24:30 GMT 42.471909 22.830900 33,975 327 411 0
2019-05-25 21:24:27 GMT 42.465729 22.836393 33,975 327 411 0
2019-05-25 21:24:21 GMT 42.455933 22.845133 33,975 327 410 0
2019-05-25 21:24:17 GMT 42.448654 22.851625 33,975 327 410 0
2019-05-25 21:24:08 GMT 42.436295 22.862675 34,000 327 410 0
2019-05-25 21:24:05 GMT 42.431248 22.867147 33,975 327 410 0
2019-05-25 21:23:58 GMT 42.419052 22.878006 34,000 327 411 -64
2019-05-25 21:23:55 GMT 42.415009 22.881651 34,000 327 411 0
2019-05-25 21:23:46 GMT 42.400990 22.894230 34,000 327 411 0
2019-05-25 21:23:43 GMT 42.397545 22.897232 34,000 327 411 0
2019-05-25 21:23:34 GMT 42.377060 22.915545 34,000 327 411 0
2019-05-25 21:23:24 GMT 42.364819 22.926487 34,000 327 412 0
2019-05-25 21:23:13 GMT 42.348495 22.941013 34,000 327 412 0
2019-05-25 21:23:04 GMT 42.335175 22.952873 34,000 327 412 0
2019-05-25 21:23:01 GMT 42.328079 22.959116 34,000 327 412 0
2019-05-25 21:22:53 GMT 42.312241 22.973162 34,000 327 412 0
2019-05-25 21:22:43 GMT 42.300293 22.983711 34,000 327 412 0
2019-05-25 21:22:40 GMT 42.296265 22.987331 34,000 327 412 0
2019-05-25 21:22:31 GMT 42.280426 23.001375 34,000 327 412 0
2019-05-25 21:22:22 GMT 42.266777 23.013483 34,000 327 412 0
2019-05-25 21:22:19 GMT 42.262634 23.017187 34,000 327 413 0
2019-05-25 21:22:09 GMT 42.245773 23.032087 34,000 327 413 0
2019-05-25 21:21:59 GMT 42.229797 23.046259 34,000 327 414 0
2019-05-25 21:21:52 GMT 42.219864 23.055059 34,000 327 414 0
2019-05-25 21:21:46 GMT 42.210114 23.063675 34,000 327 415 0
2019-05-25 21:21:42 GMT 42.203888 23.069166 34,000 327 415 0
2019-05-25 21:21:37 GMT 42.194046 23.077843 34,000 327 415 0
2019-05-25 21:21:31 GMT 42.186195 23.084829 34,000 327 415 0
2019-05-25 21:21:27 GMT 42.178391 23.091702 34,000 327 415 0
2019-05-25 21:21:20 GMT 42.168503 23.100378 34,000 327 415 0
2019-05-25 21:21:13 GMT 42.157612 23.109997 34,000 327 415 0
2019-05-25 21:21:03 GMT 42.140949 23.124687 34,000 327 416 0
2019-05-25 21:20:54 GMT 42.125866 23.138037 33,975 327 416 0
2019-05-25 21:20:51 GMT 42.120804 23.142513 33,975 327 416 0
2019-05-25 21:20:42 GMT 42.106220 23.155348 34,000 327 416 0
2019-05-25 21:20:39 GMT 42.101349 23.159679 34,000 327 416 0
2019-05-25 21:20:31 GMT 42.090115 23.169592 33,975 327 416 0
2019-05-25 21:20:21 GMT 42.070980 23.186390 33,975 327 416 0
2019-05-25 21:20:11 GMT 42.054733 23.200634 33,975 327 416 0
2019-05-25 21:19:59 GMT 42.035706 23.217421 33,975 327 416 0
2019-05-25 21:19:49 GMT 42.021496 23.229952 33,975 327 416 -64
2019-05-25 21:19:39 GMT 42.003201 23.246048 33,975 327 417 0
2019-05-25 21:19:29 GMT 41.988907 23.258568 33,975 327 416 -64
2019-05-25 21:19:22 GMT 41.977524 23.268606 34,000 327 417 -64
2019-05-25 21:19:14 GMT 41.964569 23.279966 34,000 327 416 0
2019-05-25 21:19:07 GMT 41.951248 23.291590 34,000 327 416 0
2019-05-25 21:19:03 GMT 41.947060 23.295296 34,000 327 416 0
2019-05-25 21:18:56 GMT 41.934536 23.306282 34,000 327 417 -64
2019-05-25 21:18:50 GMT 41.926895 23.312925 34,000 327 418 -64
2019-05-25 21:18:42 GMT 41.913345 23.324848 34,025 327 418 -64
2019-05-25 21:18:34 GMT 41.897781 23.338457 34,025 327 419 0
2019-05-25 21:18:24 GMT 41.882442 23.351824 34,025 327 419 -64
2019-05-25 21:18:06 GMT 41.854797 23.375910 34,025 327 419 -64
2019-05-25 21:17:58 GMT 41.842575 23.386583 34,025 327 419 0
2019-05-25 21:17:51 GMT 41.829300 23.398195 34,025 327 419 0
2019-05-25 21:17:34 GMT 41.803162 23.420916 34,025 327 420 0
2019-05-25 21:17:29 GMT 41.793045 23.429779 34,025 327 420 0
2019-05-25 21:17:19 GMT 41.778446 23.442461 34,025 328 420 0
2019-05-25 21:17:09 GMT 41.760727 23.457870 34,025 328 421 0
2019-05-25 21:16:59 GMT 41.744797 23.471666 34,025 328 421 0
2019-05-25 21:16:47 GMT 41.724335 23.489330 34,025 328 421 -64
2019-05-25 21:16:33 GMT 41.702087 23.508619 34,025 327 418 0
2019-05-25 21:16:27 GMT 41.692650 23.516809 34,025 327 420 0
2019-05-25 21:16:16 GMT 41.674541 23.532587 34,025 327 420 0
2019-05-25 21:16:06 GMT 41.658417 23.546635 34,000 327 419 0
2019-05-25 21:15:55 GMT 41.638508 23.563885 34,025 328 419 64
2019-05-25 21:15:45 GMT 41.606964 23.591206 34,000 327 418 0
2019-05-25 21:15:35 GMT 41.606964 23.591206 34,000 327 417 64
2019-05-25 21:15:23 GMT 41.588558 23.607128 34,000 328 417 0
2019-05-25 21:15:14 GMT 41.572544 23.620989 34,000 328 417 0
2019-05-25 21:14:59 GMT 41.549595 23.640791 34,000 327 416 0
2019-05-25 21:14:52 GMT 41.538666 23.650194 34,025 328 415 0
2019-05-25 21:13:07 GMT 41.370323 23.794827 34,000 328 410 -64
2019-05-25 21:12:53 GMT 41.346634 23.815186 34,000 328 410 0
2019-05-25 21:12:46 GMT 41.336838 23.823608 34,000 328 409 0
2019-05-25 21:12:19 GMT 41.292812 23.861244 34,000 328 409 0
2019-05-25 21:12:16 GMT 41.287785 23.865551 34,000 328 409 0
2019-05-25 21:12:06 GMT 41.272110 23.878906 34,000 328 409 0
2019-05-25 21:11:56 GMT 41.255989 23.892641 34,000 328 409 0
2019-05-25 21:11:43 GMT 41.235413 23.910183 34,000 328 408 64
2019-05-25 21:11:34 GMT 41.221436 23.922119 33,975 328 409 0
2019-05-25 21:11:24 GMT 41.205414 23.935791 34,000 328 409 -64
2019-05-25 21:11:14 GMT 41.189667 23.949280 34,000 328 408 -64
2019-05-25 21:11:04 GMT 41.173370 23.963196 34,000 328 408 0
2019-05-25 21:10:53 GMT 41.155903 23.978098 34,000 328 409 0
2019-05-25 21:10:43 GMT 41.140213 23.991455 34,000 328 408 0
2019-05-25 21:10:32 GMT 41.123016 24.006104 34,000 328 409 0
2019-05-25 21:10:22 GMT 41.106674 24.019958 34,000 328 409 0
2019-05-25 21:10:11 GMT 41.089844 24.034216 34,000 328 409 0
2019-05-25 21:10:01 GMT 41.073784 24.047762 34,000 328 409 0
2019-05-25 21:09:51 GMT 41.057632 24.061495 34,000 328 410 0
2019-05-25 21:09:40 GMT 41.040207 24.076233 34,000 328 410 -64
2019-05-25 21:09:30 GMT 41.023911 24.090027 34,000 328 409 -64
2019-05-25 21:09:20 GMT 41.007889 24.103577 34,000 328 409 0
2019-05-25 21:09:10 GMT 40.991364 24.117554 34,000 328 409 0
2019-05-25 21:09:00 GMT 40.975094 24.131283 34,000 328 409 0
2019-05-25 21:08:49 GMT 40.957443 24.146179 34,000 328 409 0
2019-05-25 21:08:39 GMT 40.941467 24.159729 34,000 328 410 -64
2019-05-25 21:08:28 GMT 40.924759 24.173889 34,000 328 409 0
2019-05-25 21:08:18 GMT 40.908012 24.187962 34,025 328 409 -64
2019-05-25 21:08:07 GMT 40.891159 24.202131 34,025 328 409 0
2019-05-25 21:07:57 GMT 40.874680 24.215990 34,025 328 409 0
2019-05-25 21:07:42 GMT 40.851517 24.235474 34,025 328 409 64
2019-05-25 21:07:32 GMT 40.834900 24.249451 34,025 328 410 0
2019-05-25 21:07:25 GMT 40.824406 24.258249 34,025 328 409 64
2019-05-25 21:07:21 GMT 40.817654 24.263929 34,025 328 409 0
2019-05-25 21:07:11 GMT 40.801640 24.277412 34,000 328 409 0
2019-05-25 21:07:00 GMT 40.784363 24.291931 34,000 328 409 0
2019-05-25 21:06:51 GMT 40.768845 24.304993 34,000 328 409 0
2019-05-25 21:06:40 GMT 40.752045 24.319092 34,000 328 409 0
2019-05-25 21:06:29 GMT 40.734512 24.333780 34,000 328 409 0
2019-05-25 21:06:19 GMT 40.718685 24.347076 34,000 328 407 0
2019-05-25 21:06:12 GMT 40.706863 24.356934 34,000 328 407 0
2019-05-25 21:06:08 GMT 40.701050 24.361816 34,000 328 407 0
2019-05-25 21:05:59 GMT 40.685898 24.374512 34,000 328 407 0
2019-05-25 21:05:48 GMT 40.668732 24.388855 34,000 328 409 0
2019-05-25 21:05:38 GMT 40.652802 24.402222 34,000 328 409 0
2019-05-25 21:05:27 GMT 40.634983 24.417114 34,000 328 409 -64
2019-05-25 21:05:16 GMT 40.617508 24.431641 34,000 328 408 0
2019-05-25 21:05:06 GMT 40.601257 24.445190 34,000 328 409 0
2019-05-25 21:04:55 GMT 40.583633 24.459839 34,000 328 409 0
2019-05-25 21:04:45 GMT 40.567429 24.473328 34,000 328 408 0
2019-05-25 21:04:35 GMT 40.551590 24.486755 34,000 326 407 -64
2019-05-25 21:04:24 GMT 40.535248 24.501892 34,000 324 407 -64
2019-05-25 21:04:14 GMT 40.519581 24.517801 34,000 321 409 -128
2019-05-25 21:04:03 GMT 40.488373 24.553528 34,025 318 410 64
2019-05-25 21:03:52 GMT 40.488373 24.553528 34,025 318 410 64
2019-05-25 21:03:42 GMT 40.474411 24.570068 34,000 318 410 64
2019-05-25 21:03:30 GMT 40.458252 24.589050 33,975 319 410 64
2019-05-25 21:03:22 GMT 40.446167 24.603271 33,975 319 410 64
2019-05-25 21:03:15 GMT 40.437088 24.613932 33,975 319 409 0
2019-05-25 21:03:12 GMT 40.431595 24.620361 33,975 319 409 0
2019-05-25 21:03:06 GMT 40.416698 24.637840 33,975 319 405 -64
2019-05-25 21:03:01 GMT 40.416698 24.637840 33,975 319 407 0
2019-05-25 21:02:56 GMT 40.410049 24.645630 33,975 319 407 0
2019-05-25 21:02:50 GMT 40.400593 24.656691 33,975 319 407 0
2019-05-25 21:02:43 GMT 40.391094 24.667803 33,975 319 407 -64
2019-05-25 21:02:40 GMT 40.387436 24.672119 33,975 319 407 -64
2019-05-25 21:02:37 GMT 40.382439 24.677977 33,975 319 407 -64
2019-05-25 21:02:30 GMT 40.372383 24.689775 33,975 318 406 -64
2019-05-25 21:02:27 GMT 40.366982 24.696142 33,975 319 405 -64
2019-05-25 21:02:19 GMT 40.357719 24.707005 33,975 319 405 -64
2019-05-25 21:02:09 GMT 40.343170 24.724060 34,000 319 404 -64
2019-05-25 21:01:59 GMT 40.329693 24.739838 34,000 319 403 0
2019-05-25 21:01:48 GMT 40.314651 24.757446 34,000 319 403 -64
2019-05-25 21:01:38 GMT 40.300644 24.773743 34,000 319 403 -64
2019-05-25 21:01:28 GMT 40.285934 24.790899 34,025 319 403 0
2019-05-25 21:01:20 GMT 40.275375 24.803162 34,025 319 403 0
2019-05-25 21:01:17 GMT 40.271828 24.807379 34,025 319 403 0
2019-05-25 21:01:13 GMT 40.264160 24.816284 34,025 319 403 0
2019-05-25 21:01:07 GMT 40.256607 24.825134 34,025 319 403 0
2019-05-25 21:01:00 GMT 40.246738 24.836655 34,025 319 403 0
2019-05-25 21:00:55 GMT 40.240730 24.843584 34,025 319 404 0
2019-05-25 21:00:46 GMT 40.228409 24.857971 34,025 319 403 0
2019-05-25 21:00:40 GMT 40.218529 24.869490 34,025 319 403 0
2019-05-25 21:00:36 GMT 40.213314 24.875607 34,025 319 403 64
2019-05-25 21:00:25 GMT 40.198181 24.893147 34,025 319 403 0
2019-05-25 21:00:18 GMT 40.188400 24.904480 34,025 319 403 64
2019-05-25 21:00:12 GMT 40.180664 24.913452 34,025 319 403 0
2019-05-25 21:00:05 GMT 40.168991 24.927063 34,025 319 403 0
2019-05-25 21:00:00 GMT 40.163910 24.932922 34,025 319 403 0
2019-05-25 20:59:55 GMT 40.149719 24.949463 34,000 319 403 64
2019-05-25 20:59:50 GMT 40.149719 24.949463 34,000 319 403 64
2019-05-25 20:59:25 GMT 40.113464 24.991394 34,000 319 403 64
2019-05-25 20:59:17 GMT 40.103588 25.002823 34,000 319 403 0
2019-05-25 20:59:10 GMT 40.091034 25.017334 33,975 319 403 0
2019-05-25 20:59:06 GMT 40.088196 25.020630 34,000 319 403 0
2019-05-25 20:59:02 GMT 40.081196 25.028852 34,000 319 403 0
2019-05-25 20:58:57 GMT 40.075752 25.035158 34,000 319 403 0
2019-05-25 20:58:50 GMT 40.065182 25.047392 34,000 319 402 0
2019-05-25 20:58:46 GMT 40.060226 25.053162 34,000 319 403 0
2019-05-25 20:58:34 GMT 40.044067 25.071838 34,000 319 402 0
2019-05-25 20:58:27 GMT 40.033218 25.084351 33,975 319 401 0
2019-05-25 20:58:18 GMT 40.020447 25.099077 33,975 319 400 64
2019-05-25 20:58:14 GMT 40.015961 25.104309 34,000 319 400 0
2019-05-25 20:58:05 GMT 40.003735 25.118366 33,975 319 400 0
2019-05-25 20:57:55 GMT 39.989910 25.134348 33,975 319 400 64
2019-05-25 20:57:43 GMT 39.971420 25.155640 33,975 319 400 0
2019-05-25 20:57:39 GMT 39.967796 25.159815 33,975 319 399 0
2019-05-25 20:57:35 GMT 39.962212 25.166245 33,975 319 400 0
2019-05-25 20:57:22 GMT 39.943314 25.187927 33,975 319 399 0
2019-05-25 20:57:19 GMT 39.938736 25.193237 33,975 319 399 0
2019-05-25 20:57:11 GMT 39.927948 25.205570 33,975 319 398 -64
2019-05-25 20:57:03 GMT 39.917473 25.217590 33,975 319 398 0
2019-05-25 20:56:53 GMT 39.902802 25.234522 33,975 319 398 -64
2019-05-25 20:56:44 GMT 39.889774 25.249451 34,000 319 398 0
2019-05-25 20:56:31 GMT 39.873669 25.268005 34,000 319 398 0
2019-05-25 20:56:19 GMT 39.856674 25.287537 34,000 319 397 -64
2019-05-25 20:56:10 GMT 39.843842 25.302231 34,000 319 397 0
2019-05-25 20:55:59 GMT 39.821503 25.327785 34,025 319 398 -64
2019-05-25 20:55:49 GMT 39.814732 25.335571 34,025 319 398 0
2019-05-25 20:55:37 GMT 39.798347 25.354248 34,000 319 398 0
2019-05-25 20:55:29 GMT 39.786667 25.367670 34,025 319 399 0
2019-05-25 20:55:15 GMT 39.765572 25.391785 34,000 319 400 0
2019-05-25 20:55:05 GMT 39.754074 25.404846 34,025 319 400 0
2019-05-25 20:54:53 GMT 39.737595 25.423706 34,025 319 400 0
2019-05-25 20:54:44 GMT 39.724869 25.438246 34,025 319 401 0
2019-05-25 20:54:31 GMT 39.705093 25.460815 34,000 319 401 0
2019-05-25 20:54:23 GMT 39.693417 25.474121 34,000 319 401 0
2019-05-25 20:54:14 GMT 39.683533 25.485355 34,025 319 400 0
2019-05-25 20:54:09 GMT 39.674004 25.496216 34,000 319 400 0
2019-05-25 20:53:59 GMT 39.661808 25.510132 34,000 319 401 0
2019-05-25 20:53:51 GMT 39.649521 25.524105 34,000 319 400 0
2019-05-25 20:53:42 GMT 39.636856 25.538513 34,000 319 400 0
2019-05-25 20:53:39 GMT 39.632015 25.543945 34,000 319 400 0
2019-05-25 20:53:30 GMT 39.622147 25.555155 34,000 319 400 0
2019-05-25 20:53:20 GMT 39.607063 25.572266 34,000 319 400 0
2019-05-25 20:53:15 GMT 39.598217 25.582275 34,000 319 400 0
2019-05-25 20:53:10 GMT 39.593052 25.588135 34,000 319 400 0
2019-05-25 20:52:59 GMT 39.577969 25.605225 34,000 319 400 0
2019-05-25 20:52:48 GMT 39.563278 25.621908 34,000 319 400 0
2019-05-25 20:52:39 GMT 39.549316 25.637671 34,000 319 400 0
2019-05-25 20:52:24 GMT 39.529678 25.659943 34,000 319 400 0
2019-05-25 20:52:16 GMT 39.518600 25.672482 34,000 319 400 0
2019-05-25 20:52:04 GMT 39.501572 25.691767 34,000 319 400 0
2019-05-25 20:51:55 GMT 39.488297 25.706814 34,000 319 400 0
2019-05-25 20:51:41 GMT 39.468750 25.728846 34,000 319 401 0
2019-05-25 20:51:34 GMT 39.457535 25.741505 34,000 319 400 0
2019-05-25 20:51:23 GMT 39.443481 25.757387 33,975 319 400 0
2019-05-25 20:51:12 GMT 39.428467 25.774343 33,975 319 399 0
2019-05-25 20:51:09 GMT 39.423294 25.780134 34,000 319 399 0
2019-05-25 20:51:03 GMT 39.416664 25.787659 34,000 319 399 0
2019-05-25 20:50:59 GMT 39.410892 25.794128 34,000 319 399 0
2019-05-25 20:50:53 GMT 39.399906 25.806458 34,000 319 399 0
2019-05-25 20:50:50 GMT 39.397888 25.808796 34,000 319 399 0
2019-05-25 20:50:39 GMT 39.381317 25.827423 34,000 319 399 0
2019-05-25 20:50:27 GMT 39.366482 25.844116 34,000 319 399 0
2019-05-25 20:50:18 GMT 39.353348 25.858831 34,000 319 399 0
2019-05-25 20:50:03 GMT 39.332016 25.882774 34,000 319 399 0
2019-05-25 20:49:56 GMT 39.320526 25.895731 34,000 319 399 0
2019-05-25 20:49:52 GMT 39.317734 25.898954 34,000 319 399 0
2019-05-25 20:49:49 GMT 39.311874 25.905462 34,000 319 399 0
2019-05-25 20:49:46 GMT 39.307686 25.910217 34,000 319 400 0
2019-05-25 20:49:32 GMT 39.289536 25.930540 34,000 319 400 0
2019-05-25 20:49:26 GMT 39.278320 25.943079 34,000 319 400 0
2019-05-25 20:49:18 GMT 39.269806 25.952633 34,000 319 400 0
2019-05-25 20:49:05 GMT 39.252010 25.972595 34,000 319 400 0
2019-05-25 20:49:01 GMT 39.246189 25.979126 34,000 320 401 -64
2019-05-25 20:48:35 GMT 39.210159 26.019470 34,000 320 401 0
2019-05-25 20:48:25 GMT 39.195354 26.036011 34,000 320 401 0
2019-05-25 20:48:22 GMT 39.191162 26.040644 34,000 320 401 0
2019-05-25 20:48:15 GMT 39.181435 26.051514 34,025 320 401 0
2019-05-25 20:47:56 GMT 39.154541 26.081543 34,000 320 401 0
2019-05-25 20:47:52 GMT 39.148010 26.088745 34,000 320 401 0
2019-05-25 20:47:44 GMT 39.122593 26.117065 34,000 320 401 0
2019-05-25 20:47:33 GMT 39.122593 26.117065 34,000 320 401 0
2019-05-25 20:47:29 GMT 39.115005 26.125488 34,000 320 402 0
2019-05-25 20:47:25 GMT 39.111420 26.129456 34,000 320 402 0
2019-05-25 20:47:15 GMT 39.096710 26.145813 34,000 320 402 0
2019-05-25 20:47:11 GMT 39.090271 26.152954 34,000 320 403 0
2019-05-25 20:47:02 GMT 39.077995 26.166626 34,000 320 403 0
2019-05-25 20:46:53 GMT 39.066406 26.179504 34,000 320 403 0
2019-05-25 20:46:42 GMT 39.050308 26.197437 34,000 320 403 0
2019-05-25 20:45:42 GMT 38.966034 26.290939 34,000 320 404 0
2019-05-25 20:45:37 GMT 38.958729 26.299011 34,000 320 404 0
2019-05-25 20:45:21 GMT 38.935455 26.324854 34,000 320 404 0
2019-05-25 20:45:14 GMT 38.926437 26.334826 34,000 320 404 0
2019-05-25 20:45:05 GMT 38.912338 26.350409 34,000 320 405 0
2019-05-25 20:44:56 GMT 38.899609 26.364502 34,000 320 406 0
2019-05-25 20:44:43 GMT 38.874100 26.392639 34,000 320 406 0
2019-05-25 20:44:34 GMT 38.867580 26.399841 33,975 320 406 256
2019-05-25 20:44:21 GMT 38.850128 26.419073 33,825 320 406 640
2019-05-25 20:44:12 GMT 38.837906 26.432508 33,650 320 408 704
2019-05-25 20:44:01 GMT 38.820694 26.451376 33,625 320 408 704
2019-05-25 20:43:20 GMT 38.763519 26.514130 33,200 320 409 768
2019-05-25 20:43:14 GMT 38.752487 26.526192 33,075 320 410 704
2019-05-25 20:43:08 GMT 38.743423 26.536043 32,975 320 410 576
2019-05-25 20:42:54 GMT 38.724525 26.556519 32,825 320 410 576
2019-05-25 20:42:45 GMT 38.711929 26.570196 32,750 319 409 704
2019-05-25 20:42:35 GMT 38.696365 26.587393 32,600 319 410 640
2019-05-25 20:42:10 GMT 38.661728 26.626038 32,350 319 409 832
2019-05-25 20:42:03 GMT 38.651871 26.637009 32,175 319 410 832
2019-05-25 20:41:52 GMT 38.636856 26.653788 31,825 319 411 960
2019-05-25 20:41:42 GMT 38.621647 26.670776 31,950 319 411 896
2019-05-25 20:41:31 GMT 38.606422 26.687683 31,800 319 411 960
2019-05-25 20:41:21 GMT 38.590897 26.705017 31,625 319 412 960
2019-05-25 20:41:09 GMT 38.573822 26.724005 31,425 319 413 960
2019-05-25 20:40:58 GMT 38.558056 26.741577 31,250 319 413 896
2019-05-25 20:40:22 GMT 38.506989 26.798162 30,750 319 416 1088
2019-05-25 20:40:03 GMT 38.477966 26.830225 30,450 319 416 1088
2019-05-25 20:39:58 GMT 38.471470 26.837463 30,350 319 417 704
2019-05-25 20:39:49 GMT 38.458191 26.852139 30,225 319 416 576
2019-05-25 20:39:28 GMT 38.428711 26.884798 30,075 319 411 640
2019-05-25 20:39:15 GMT 38.408981 26.906628 29,975 319 411 832
2019-05-25 20:39:06 GMT 38.396622 26.920301 28,650 320 416 1408
2019-05-25 20:38:59 GMT 38.376938 26.941982 28,650 320 416 1408
2019-05-25 20:38:54 GMT 38.376938 26.941982 29,475 320 416 1408
2019-05-25 20:38:44 GMT 38.363003 26.957285 29,250 320 417 1536
2019-05-25 20:38:32 GMT 38.346241 26.975676 28,975 319 422 1408
2019-05-25 20:38:23 GMT 38.333267 26.990019 28,725 319 421 1536
2019-05-25 20:38:11 GMT 38.315598 27.009771 28,425 319 422 1280
2019-05-25 20:38:00 GMT 38.300354 27.026894 28,125 319 422 1280
2019-05-25 20:37:50 GMT 38.284931 27.044161 28,200 319 421 960
2019-05-25 20:37:35 GMT 38.261765 27.070137 27,950 319 422 1280
2019-05-25 20:37:23 GMT 38.246014 27.087748 27,775 319 420 1088
2019-05-25 20:37:15 GMT 38.232925 27.102453 27,625 319 420 1152
2019-05-25 20:37:07 GMT 38.220505 27.116407 27,450 319 422 1088
2019-05-25 20:36:56 GMT 38.204865 27.133902 27,250 319 422 1152
2019-05-25 20:36:42 GMT 38.185169 27.155933 26,975 319 423 1216
2019-05-25 20:36:34 GMT 38.171951 27.170710 26,800 319 425 1152
2019-05-25 20:36:21 GMT 38.155052 27.189669 26,600 319 426 1024
2019-05-25 20:36:07 GMT 38.134010 27.213135 26,325 319 427 1152
2019-05-25 20:35:31 GMT 38.078522 27.274961 25,700 319 431 1536
2019-05-25 20:35:22 GMT 38.065254 27.289680 25,500 319 431 1536
2019-05-25 20:35:12 GMT 38.051697 27.304766 25,275 319 432 1600
2019-05-25 20:35:05 GMT 38.041557 27.316011 25,100 319 435 1472
2019-05-25 20:34:53 GMT 38.023403 27.336134 24,825 319 437 1280
2019-05-25 20:34:41 GMT 38.004547 27.357033 24,625 319 438 832
2019-05-25 20:30:24 GMT 37.619156 27.781794 20,700 320 421 2048
2019-05-25 20:29:14 GMT 37.515285 27.895422 19,175 320 422 1536
2019-05-25 20:29:02 GMT 37.497643 27.914648 18,850 320 422 1536
2019-05-25 20:28:58 GMT 37.492538 27.920176 18,725 320 422 1536
2019-05-25 20:28:48 GMT 37.477478 27.936655 18,450 320 422 1472
2019-05-25 20:28:38 GMT 37.463104 27.952257 18,250 320 421 1664
2019-05-25 20:28:30 GMT 37.451569 27.964823 18,025 320 421 1536
2019-05-25 20:28:19 GMT 37.433533 27.984398 17,750 319 421 1088
2019-05-25 20:28:10 GMT 37.420319 27.998837 17,600 320 418 1024
2019-05-25 20:27:56 GMT 37.401443 28.019403 17,375 320 415 1472
2019-05-25 20:27:46 GMT 37.386978 28.035065 17,125 320 414 1664
2019-05-25 20:27:37 GMT 37.372421 28.050901 16,875 320 414 1088
2019-05-25 20:27:25 GMT 37.355797 28.068995 16,675 320 411 960
2019-05-25 20:27:14 GMT 37.339642 28.086489 16,475 320 408 1472
2019-05-25 20:27:03 GMT 37.323761 28.103670 16,200 320 407 1856
2019-05-25 20:26:53 GMT 37.309433 28.119099 15,925 320 407 1984
2019-05-25 20:26:44 GMT 37.296535 28.133060 15,650 320 408 1664
2019-05-25 20:26:30 GMT 37.276840 28.154453 15,250 320 407 1856
2019-05-25 20:26:23 GMT 37.265625 28.166550 15,025 320 406 1536
2019-05-25 20:26:19 GMT 37.261295 28.171213 14,950 320 406 1536
2019-05-25 20:26:12 GMT 37.242302 28.191753 14,625 320 405 1472
2019-05-25 20:25:58 GMT 37.231201 28.203716 14,425 320 404 1600
2019-05-25 20:25:50 GMT 37.219894 28.215929 14,225 320 402 1536
2019-05-25 20:25:47 GMT 37.215721 28.220413 14,150 320 402 1536
2019-05-25 20:25:36 GMT 37.200439 28.236792 13,875 320 399 1600
2019-05-25 20:25:29 GMT 37.188904 28.249123 13,675 320 397 1344
2019-05-25 20:25:25 GMT 37.184532 28.253731 13,625 320 397 1280
2019-05-25 20:25:17 GMT 37.169907 28.269518 13,425 320 393 1024
2019-05-25 20:25:04 GMT 37.156128 28.284418 13,250 319 387 640
2019-05-25 20:24:55 GMT 37.142441 28.299379 13,150 319 382 640
2019-05-25 20:24:52 GMT 37.139694 28.302359 13,125 319 381 640
2019-05-25 20:24:42 GMT 37.126602 28.316618 13,025 319 374 768
2019-05-25 20:24:32 GMT 37.113190 28.331226 12,900 319 367 896
2019-05-25 20:24:24 GMT 37.102459 28.342876 12,775 319 362 1216
2019-05-25 20:24:21 GMT 37.099201 28.346397 12,725 319 360 1600
2019-05-25 20:24:14 GMT 37.083847 28.363953 12,375 315 355 1408
2019-05-25 20:24:02 GMT 37.077301 28.373302 12,200 308 352 1664
2019-05-25 20:23:59 GMT 37.074017 28.378580 12,100 306 352 1728
2019-05-25 20:23:49 GMT 37.064613 28.396315 11,800 303 351 1344
2019-05-25 20:23:37 GMT 37.054695 28.415779 11,575 303 345 1024
2019-05-25 20:23:27 GMT 37.045486 28.433844 11,400 303 338 896
2019-05-25 20:23:18 GMT 37.038574 28.447401 11,300 303 332 960
2019-05-25 20:23:15 GMT 37.035934 28.452560 11,250 303 329 1024
2019-05-25 20:23:08 GMT 37.030060 28.464058 11,125 303 321 1024
2019-05-25 20:23:04 GMT 37.026947 28.470135 11,075 303 321 1024
2019-05-25 20:22:59 GMT 37.021786 28.480206 10,975 303 314 896
2019-05-25 20:22:54 GMT 37.018574 28.486473 10,900 303 311 896
2019-05-25 20:22:47 GMT 37.012333 28.498535 10,800 303 307 960
2019-05-25 20:22:42 GMT 37.009262 28.504625 10,725 303 303 960
2019-05-25 20:22:36 GMT 37.004791 28.513403 10,650 303 298 896
2019-05-25 20:22:29 GMT 37.000092 28.522778 10,550 303 292 896
2019-05-25 20:22:26 GMT 36.997437 28.527971 10,500 303 289 896
2019-05-25 20:22:16 GMT 36.989895 28.542839 10,350 303 280 1344
2019-05-25 20:22:10 GMT 36.986343 28.549845 10,250 303 278 1984
2019-05-25 20:22:04 GMT 36.982361 28.557674 10,050 303 278 2432
2019-05-25 20:21:59 GMT 36.978771 28.564753 9,825 303 278 2496
2019-05-25 20:21:51 GMT 36.973045 28.575916 9,500 303 279 2432
2019-05-25 20:21:48 GMT 36.970963 28.580055 9,375 303 279 2176
2019-05-25 20:21:37 GMT 36.963314 28.595024 9,025 303 277 2112
2019-05-25 20:21:26 GMT 36.956100 28.609116 8,675 303 275 2304

Making use of Plane Finder data

You are free to use the raw flight data, aircraft information and images provided in this report for your own purposes provided the data is correctly attributed to Plane Finder. We ask that you please credit Plane Finder and link to planefinder.net in close proximity to the content.

Optionally one of the following logos (no smaller then 150x24px) can be used and must link to planefinder.net

Embedding the Plane Finder map

You are welcome to embed the Plane Finder playback map on your website to offer visitors a more interactive experience. We suggest using the following HTML code:

<iframe src="//planefinder.net/data/report/MT231-G-TCDD-7700-squawk-2019-05-26/map" width="800" height="600" seamless="seamless"></iframe>

Where our data comes from

Plane Finder has a global network of data feeds and antenna radars that receive data broadcast directly from aircraft. The primary technologies used are ADS-B and MLAT. We also show feeds from the FAA and a FLARM glider feed.

Click here to find out more about the Plane Finder network.

How we collect our data